Darstellungsparameter: Aktuell verwendete Einstellungen:
Skalierung der Graphiken ... ?
xyx+y,   Skalierungsfaktor:      Skalierung: Modus: x, Faktor: 1
Darstellungszeitraum ... ?
Vom - - bis: - -   Zeitraum: 22.04.2020 - 21.05.2020
Min/Max/Avg-Anzeige ... ?
Zeige MMA aktuell
Zeige MMA Monat
Zeige MMA alles
Zeige --A aktuell
Zeige --A Monat
Zeige --A alles
Keine MMA-Anzeige
MMA:
Keine MMA-Graphiken
MMA-Basis: 22.04.2020 - 21.05.2020
Quicknavigation für Darstellung... ?
Tage:      1T, 2T, 3T, 5T -1T -2T -3T -5T +1T +2T +3T +5T
Wochen: 1W, 2W, 3W -1W -2W -3W +1W +2W +3W
Monate: 1M, 3M, 6M -1M -3M -6M +1M +3M +6M
Jahre:    1J, 3J, 5J, 10J -1J -3J -5J -10J +1J +3J +5J +10J
Nutze für die Darstellung ... ?
Originaldaten oder Mittelwerte auf ...
Stundenbasis Tagesbasis Wochenbasis
Monatsbasis Jahresbasis      Datenbasis: Original-Daten
Darstellen als:
Statistik (Auto) Statistik J:M      Darstellung:
Zur Graphik,    zurück zur Übersicht aller Sensoren.
 
Tabellarische Datenbersicht: ?
 
Sensor: Nr:Datum:Temp:Abs-Feuchte:Windchill:Wind:
Aussen-T/F 1 22-04-2020 00:00:00 11.4 C 5.95 g/m*3 11.4 C 3.2 km/h
2 22-04-2020 00:05:00 11.3 C 5.92 g/m*3 11.3 C 0 km/h
3 22-04-2020 00:10:00 11.2 C 6.08 g/m*3 11.2 C 0 km/h
4 22-04-2020 00:15:00 11.1 C 5.94 g/m*3 11.1 C 0 km/h
5 22-04-2020 00:20:00 11 C 5.81 g/m*3 11 C 4.8 km/h
6 22-04-2020 00:25:00 11.2 C 5.88 g/m*3 11.2 C 4.8 km/h
7 22-04-2020 00:30:00 11.4 C 6.06 g/m*3 11.4 C 6.4 km/h
8 22-04-2020 00:35:00 11.4 C 5.95 g/m*3 11.4 C 1.6 km/h
9 22-04-2020 00:40:00 11.4 C 5.85 g/m*3 11.4 C 3.2 km/h
10 22-04-2020 00:45:00 11.4 C 6.06 g/m*3 11.4 C 1.6 km/h
11 22-04-2020 00:50:00 11.3 C 6.02 g/m*3 11.3 C 4.8 km/h
12 22-04-2020 00:55:00 11.3 C 5.81 g/m*3 11.3 C 4.8 km/h
13 22-04-2020 01:00:00 11.3 C 5.92 g/m*3 11.3 C 1.6 km/h
14 22-04-2020 01:05:00 11.2 C 5.88 g/m*3 11.2 C 9.7 km/h
15 22-04-2020 01:10:00 11.1 C 5.94 g/m*3 11.1 C 1.6 km/h
16 22-04-2020 01:15:00 10.9 C 5.97 g/m*3 10.9 C 1.6 km/h
17 22-04-2020 01:20:00 10.7 C 5.99 g/m*3 10.7 C 3.2 km/h
18 22-04-2020 01:25:00 10.4 C 5.98 g/m*3 10.4 C 0 km/h
19 22-04-2020 01:30:00 10.2 C 5.9 g/m*3 10.2 C 0 km/h
20 22-04-2020 01:35:00 10.1 C 5.96 g/m*3 10.1 C 0 km/h
21 22-04-2020 01:40:00 10.1 C 5.96 g/m*3 10.1 C 0 km/h
22 22-04-2020 01:45:00 10.1 C 5.96 g/m*3 10.1 C 0 km/h
23 22-04-2020 01:50:00 10.1 C 5.96 g/m*3 10.1 C 4.8 km/h
24 22-04-2020 01:55:00 10.2 C 6 g/m*3 10.2 C 3.2 km/h
25 22-04-2020 02:00:00 10.3 C 5.94 g/m*3 9.72 C 6.4 km/h
Sensor: Nr:Datum:Temp:Abs-Feuchte:Windchill:Wind:
Aussen-T/F 26 22-04-2020 02:05:00 10.3 C 5.94 g/m*3 10.3 C 1.6 km/h
27 22-04-2020 02:10:00 10.2 C 5.9 g/m*3 10.2 C 1.6 km/h
28 22-04-2020 02:15:00 10.2 C 6 g/m*3 10.2 C 1.6 km/h
29 22-04-2020 02:20:00 10.1 C 5.96 g/m*3 10.1 C 0 km/h
30 22-04-2020 02:25:00 9.9 C 5.88 g/m*3 9.9 C 4.8 km/h
31 22-04-2020 02:30:00 9.8 C 5.94 g/m*3 9.8 C 1.6 km/h
32 22-04-2020 02:35:00 9.8 C 5.85 g/m*3 9.8 C 4.8 km/h
33 22-04-2020 02:40:00 9.8 C 5.94 g/m*3 9.8 C 4.8 km/h
34 22-04-2020 02:45:00 9.9 C 5.88 g/m*3 9.9 C 4.8 km/h
35 22-04-2020 02:50:00 9.8 C 5.94 g/m*3 9.8 C 1.6 km/h
36 22-04-2020 02:55:00 9.7 C 5.9 g/m*3 9.7 C 1.6 km/h
37 22-04-2020 03:00:00 9.6 C 5.86 g/m*3 9.6 C 4.8 km/h
38 22-04-2020 03:05:00 9.6 C 5.86 g/m*3 9.6 C 1.6 km/h
39 22-04-2020 03:10:00 9.5 C 5.92 g/m*3 9.5 C 3.2 km/h
40 22-04-2020 03:15:00 9.5 C 5.92 g/m*3 9.5 C 1.6 km/h
41 22-04-2020 03:20:00 9.5 C 5.92 g/m*3 9.5 C 0 km/h
42 22-04-2020 03:25:00 9.4 C 5.88 g/m*3 9.4 C 0 km/h
43 22-04-2020 03:30:00 9.3 C 5.84 g/m*3 9.3 C 0 km/h
44 22-04-2020 03:35:00 9.2 C 5.89 g/m*3 9.2 C 0 km/h
45 22-04-2020 03:40:00 9.1 C 5.94 g/m*3 9.1 C 0 km/h
46 22-04-2020 03:45:00 8.9 C 5.87 g/m*3 8.9 C 0 km/h
47 22-04-2020 03:50:00 8.8 C 5.83 g/m*3 8.8 C 0 km/h
48 22-04-2020 03:55:00 8.7 C 5.88 g/m*3 8.7 C 0 km/h
49 22-04-2020 04:00:00 8.7 C 5.79 g/m*3 8.7 C 0 km/h
50 22-04-2020 04:05:00 8.7 C 5.88 g/m*3 8.7 C 0 km/h
Sensor: Nr:Datum:Temp:Abs-Feuchte:Windchill:Wind:
Aussen-T/F 51 22-04-2020 04:10:00 8.7 C 5.79 g/m*3 8.7 C 0 km/h
52 22-04-2020 04:15:00 8.6 C 5.84 g/m*3 8.6 C 0 km/h
53 22-04-2020 04:20:00 8.5 C 5.81 g/m*3 8.5 C 0 km/h
54 22-04-2020 04:25:00 8.4 C 5.77 g/m*3 8.4 C 1.6 km/h
55 22-04-2020 04:30:00 8.4 C 5.77 g/m*3 8.4 C 1.6 km/h
56 22-04-2020 04:35:00 8.3 C 5.73 g/m*3 8.3 C 0 km/h
57 22-04-2020 04:40:00 8.3 C 5.73 g/m*3 8.3 C 1.6 km/h
58 22-04-2020 04:45:00 8.2 C 5.78 g/m*3 8.2 C 1.6 km/h
59 22-04-2020 04:50:00 8.1 C 5.74 g/m*3 8.1 C 1.6 km/h
60 22-04-2020 04:55:00 8.1 C 5.74 g/m*3 8.1 C 1.6 km/h
61 22-04-2020 05:00:00 7.9 C 5.75 g/m*3 7.9 C 1.6 km/h
62 22-04-2020 05:05:00 7.8 C 5.71 g/m*3 7.8 C 0 km/h
63 22-04-2020 05:10:00 7.8 C 5.79 g/m*3 7.8 C 0 km/h
64 22-04-2020 05:15:00 7.7 C 5.76 g/m*3 7.7 C 0 km/h
65 22-04-2020 05:20:00 7.6 C 5.72 g/m*3 7.6 C 1.6 km/h
66 22-04-2020 05:25:00 7.5 C 5.68 g/m*3 7.5 C 0 km/h
67 22-04-2020 05:30:00 7.4 C 5.73 g/m*3 7.4 C 0 km/h
68 22-04-2020 05:35:00 7.3 C 5.69 g/m*3 7.3 C 1.6 km/h
69 22-04-2020 05:40:00 7.3 C 5.69 g/m*3 7.3 C 1.6 km/h
70 22-04-2020 05:45:00 7.2 C 5.65 g/m*3 7.2 C 1.6 km/h
71 22-04-2020 05:50:00 7.2 C 5.73 g/m*3 7.2 C 3.2 km/h
72 22-04-2020 05:55:00 7.2 C 5.65 g/m*3 7.2 C 1.6 km/h
73 22-04-2020 06:00:00 7.1 C 5.69 g/m*3 7.1 C 1.6 km/h
74 22-04-2020 06:05:00 7 C 5.66 g/m*3 7 C 1.6 km/h
75 22-04-2020 06:10:00 6.9 C 5.62 g/m*3 6.9 C 0 km/h
Sensor: Nr:Datum:Temp:Abs-Feuchte:Windchill:Wind:
Aussen-T/F 76 22-04-2020 06:15:00 6.8 C 5.58 g/m*3 6.8 C 3.2 km/h
77 22-04-2020 06:20:00 6.7 C 5.62 g/m*3 6.7 C 0 km/h
78 22-04-2020 06:25:00 6.6 C 5.66 g/m*3 6.6 C 0 km/h
79 22-04-2020 06:30:00 6.5 C 5.62 g/m*3 6.5 C 0 km/h
80 22-04-2020 06:35:00 6.4 C 5.59 g/m*3 6.4 C 0 km/h
81 22-04-2020 06:40:00 6.3 C 5.63 g/m*3 6.3 C 0 km/h
82 22-04-2020 06:45:00 6.2 C 5.66 g/m*3 4.98 C 6.4 km/h
83 22-04-2020 06:50:00 6.2 C 5.74 g/m*3 6.2 C 1.6 km/h
84 22-04-2020 06:55:00 6.2 C 5.74 g/m*3 6.2 C 3.2 km/h
85 22-04-2020 07:00:00 6.2 C 5.74 g/m*3 6.2 C 1.6 km/h
86 22-04-2020 07:05:00 6.2 C 5.74 g/m*3 6.2 C 4.8 km/h
87 22-04-2020 07:10:00 6.1 C 5.77 g/m*3 6.1 C 1.6 km/h
88 22-04-2020 07:15:00 6.2 C 5.81 g/m*3 6.2 C 3.2 km/h
89 22-04-2020 07:20:00 6.1 C 5.77 g/m*3 6.1 C 1.6 km/h
90 22-04-2020 07:25:00 6.2 C 5.81 g/m*3 6.2 C 4.8 km/h
91 22-04-2020 07:30:00 6.2 C 5.88 g/m*3 6.2 C 0 km/h
92 22-04-2020 07:35:00 6.2 C 5.88 g/m*3 6.2 C 0 km/h
93 22-04-2020 07:40:00 6.2 C 5.88 g/m*3 6.2 C 1.6 km/h
94 22-04-2020 07:45:00 6.2 C 5.88 g/m*3 6.2 C 3.2 km/h
95 22-04-2020 07:50:00 6.2 C 5.88 g/m*3 6.2 C 3.2 km/h
96 22-04-2020 07:55:00 6.3 C 5.92 g/m*3 6.3 C 4.8 km/h
97 22-04-2020 08:00:00 6.4 C 5.89 g/m*3 6.4 C 3.2 km/h
98 22-04-2020 08:05:00 6.6 C 5.96 g/m*3 6.6 C 1.6 km/h
99 22-04-2020 08:10:00 6.7 C 6 g/m*3 6.7 C 3.2 km/h
100 22-04-2020 08:15:00 6.8 C 6.04 g/m*3 6.8 C 0 km/h
Sensor: Nr:Datum:Temp:Abs-Feuchte:Windchill:Wind:
Aussen-T/F 101 22-04-2020 08:20:00 6.9 C 6.08 g/m*3 6.9 C 4.8 km/h
102 22-04-2020 08:25:00 7.1 C 6.08 g/m*3 7.1 C 3.2 km/h
103 22-04-2020 08:30:00 7.2 C 6.12 g/m*3 7.2 C 3.2 km/h
104 22-04-2020 08:35:00 7.6 C 5.96 g/m*3 6.16 C 8.1 km/h
105 22-04-2020 08:40:00 8 C 6.12 g/m*3 8 C 3.2 km/h
106 22-04-2020 08:45:00 8.2 C 6.2 g/m*3 8.2 C 1.6 km/h
107 22-04-2020 08:50:00 8.3 C 6.15 g/m*3 8.3 C 3.2 km/h
108 22-04-2020 08:55:00 8.5 C 5.89 g/m*3 6.9 C 9.7 km/h
109 22-04-2020 09:00:00 9.1 C 6.12 g/m*3 6.87 C 14.5 km/h
110 22-04-2020 09:05:00 9.4 C 5.97 g/m*3 9.4 C 4.8 km/h
111 22-04-2020 09:10:00 9.6 C 6.14 g/m*3 9.6 C 3.2 km/h
112 22-04-2020 09:15:00 9.7 C 6.08 g/m*3 9.7 C 3.2 km/h
113 22-04-2020 09:20:00 9.9 C 5.79 g/m*3 9.9 C 4.8 km/h
114 22-04-2020 09:25:00 10.4 C 6.07 g/m*3 9.46 C 8.1 km/h
115 22-04-2020 09:30:00 10.7 C 6.09 g/m*3 9.81 C 8.1 km/h
116 22-04-2020 09:35:00 10.8 C 6.03 g/m*3 10.8 C 3.2 km/h
117 22-04-2020 09:40:00 10.9 C 6.07 g/m*3 10.9 C 4.8 km/h
118 22-04-2020 09:45:00 11.1 C 5.84 g/m*3 11.1 C 6.4 km/h
119 22-04-2020 09:50:00 11.3 C 5.81 g/m*3 11.3 C 3.2 km/h
120 22-04-2020 09:55:00 11.5 C 6.09 g/m*3 11.5 C 1.6 km/h
121 22-04-2020 10:00:00 11.6 C 5.82 g/m*3 11.6 C 4.8 km/h
122 22-04-2020 10:05:00 11.8 C 6.1 g/m*3 11.8 C 8.1 km/h
123 22-04-2020 10:10:00 12.1 C 5.9 g/m*3 12.1 C 6.4 km/h
124 22-04-2020 10:15:00 12.4 C 6.12 g/m*3 12.4 C 11.3 km/h
125 22-04-2020 10:20:00 12.8 C 5.6 g/m*3 12.8 C 9.7 km/h
Sensor: Nr:Datum:Temp:Abs-Feuchte:Windchill:Wind:
Aussen-T/F 126 22-04-2020 10:25:00 13.1 C 6.05 g/m*3 13.1 C 1.6 km/h
127 22-04-2020 10:30:00 13.2 C 5.97 g/m*3 13.2 C 4.8 km/h
128 22-04-2020 10:35:00 13.5 C 5.85 g/m*3 13.5 C 8.1 km/h
129 22-04-2020 10:40:00 13.7 C 5.8 g/m*3 13.7 C 9.7 km/h
130 22-04-2020 10:45:00 14 C 5.79 g/m*3 14 C 9.7 km/h
131 22-04-2020 10:50:00 14.3 C 5.65 g/m*3 14.3 C 12.9 km/h
132 22-04-2020 10:55:00 14.6 C 5.76 g/m*3 14.6 C 9.7 km/h
133 22-04-2020 11:00:00 14.8 C 5.57 g/m*3 14.8 C 9.7 km/h
134 22-04-2020 11:05:00 15.1 C 5.68 g/m*3 15.1 C 14.5 km/h
135 22-04-2020 11:10:00 15.3 C 5.75 g/m*3 15.3 C 9.7 km/h
136 22-04-2020 11:15:00 15.4 C 5.78 g/m*3 15.4 C 14.5 km/h
137 22-04-2020 11:20:00 15.7 C 5.75 g/m*3 15.7 C 14.5 km/h
138 22-04-2020 11:25:00 15.8 C 5.79 g/m*3 15.8 C 11.3 km/h
139 22-04-2020 11:30:00 15.9 C 5.82 g/m*3 15.9 C 4.8 km/h
140 22-04-2020 11:35:00 16.1 C 5.48 g/m*3 16.1 C 14.5 km/h
141 22-04-2020 11:40:00 16.3 C 5.55 g/m*3 16.3 C 12.9 km/h
142 22-04-2020 11:45:00 16.6 C 5.79 g/m*3 16.6 C 8.1 km/h
143 22-04-2020 11:50:00 16.7 C 5.54 g/m*3 16.7 C 12.9 km/h
144 22-04-2020 11:55:00 16.8 C 5.58 g/m*3 16.8 C 6.4 km/h
145 22-04-2020 12:00:00 17 C 5.5 g/m*3 17 C 19.3 km/h
146 22-04-2020 12:05:00 17.2 C 5.42 g/m*3 17.2 C 19.3 km/h
147 22-04-2020 12:10:00 17.3 C 5.45 g/m*3 17.3 C 11.3 km/h
148 22-04-2020 12:15:00 17.5 C 5.52 g/m*3 17.5 C 14.5 km/h
149 22-04-2020 12:20:00 17.7 C 5.43 g/m*3 17.7 C 19.3 km/h
150 22-04-2020 12:25:00 17.8 C 5.46 g/m*3 17.8 C 14.5 km/h
Sensor: Nr:Datum:Temp:Abs-Feuchte:Windchill:Wind:
Aussen-T/F 151 22-04-2020 12:30:00 17.9 C 5.19 g/m*3 17.9 C 24.1 km/h
152 22-04-2020 12:35:00 17.8 C 5.31 g/m*3 17.8 C 24.1 km/h
153 22-04-2020 12:40:00 17.8 C 5.16 g/m*3 17.8 C 12.9 km/h
154 22-04-2020 12:45:00 17.8 C 5.16 g/m*3 17.8 C 16.1 km/h
155 22-04-2020 12:50:00 17.9 C 5.34 g/m*3 17.9 C 14.5 km/h
156 22-04-2020 12:55:00 18.1 C 5.25 g/m*3 18.1 C 12.9 km/h
157 22-04-2020 13:00:00 18.2 C 5.44 g/m*3 18.2 C 9.7 km/h
158 22-04-2020 13:05:00 18.4 C 5.5 g/m*3 18.4 C 11.3 km/h
159 22-04-2020 13:10:00 18.6 C 5.41 g/m*3 18.6 C 14.5 km/h
160 22-04-2020 13:15:00 18.8 C 5.64 g/m*3 18.8 C 14.5 km/h
161 22-04-2020 13:20:00 18.8 C 5.48 g/m*3 18.8 C 12.9 km/h
162 22-04-2020 13:25:00 18.9 C 5.83 g/m*3 18.9 C 9.7 km/h
163 22-04-2020 13:30:00 19 C 5.7 g/m*3 19 C 8.1 km/h
164 22-04-2020 13:35:00 19.1 C 5.57 g/m*3 19.1 C 9.7 km/h
165 22-04-2020 13:40:00 19.2 C 5.44 g/m*3 19.2 C 11.3 km/h
166 22-04-2020 13:45:00 19.3 C 5.47 g/m*3 19.3 C 17.7 km/h
167 22-04-2020 13:50:00 19.4 C 5.51 g/m*3 19.4 C 19.3 km/h
168 22-04-2020 13:55:00 19.5 C 5.54 g/m*3 19.5 C 12.9 km/h
169 22-04-2020 14:00:00 19.6 C 5.57 g/m*3 19.6 C 17.7 km/h
170 22-04-2020 14:05:00 19.7 C 5.77 g/m*3 19.7 C 12.9 km/h
171 22-04-2020 14:10:00 19.8 C 5.98 g/m*3 19.8 C 14.5 km/h
172 22-04-2020 14:15:00 20 C 5.7 g/m*3 20 C 12.9 km/h
173 22-04-2020 14:20:00 20 C 5.7 g/m*3 20 C 16.1 km/h
174 22-04-2020 14:25:00 20.1 C 5.74 g/m*3 20.1 C 12.9 km/h
175 22-04-2020 14:30:00 20.3 C 5.8 g/m*3 20.3 C 12.9 km/h
Sensor: Nr:Datum:Temp:Abs-Feuchte:Windchill:Wind:
Aussen-T/F 176 22-04-2020 14:35:00 20.4 C 5.66 g/m*3 20.4 C 9.7 km/h
177 22-04-2020 14:40:00 20.4 C 5.66 g/m*3 20.4 C 11.3 km/h
178 22-04-2020 14:45:00 20.6 C 5.73 g/m*3 20.6 C 14.5 km/h
179 22-04-2020 14:50:00 20.6 C 5.55 g/m*3 20.6 C 22.5 km/h
180 22-04-2020 14:55:00 20.7 C 5.94 g/m*3 20.7 C 12.9 km/h
181 22-04-2020 15:00:00 20.8 C 5.61 g/m*3 20.8 C 16.1 km/h
182 22-04-2020 15:05:00 20.9 C 5.83 g/m*3 20.9 C 19.3 km/h
183 22-04-2020 15:10:00 21.1 C 5.71 g/m*3 21.1 C 16.1 km/h
184 22-04-2020 15:15:00 21.1 C 5.71 g/m*3 21.1 C 17.7 km/h
185 22-04-2020 15:20:00 21.2 C 5.74 g/m*3 21.2 C 12.9 km/h
186 22-04-2020 15:25:00 21.3 C 5.78 g/m*3 21.3 C 11.3 km/h
187 22-04-2020 15:30:00 21.4 C 5.81 g/m*3 21.4 C 16.1 km/h
188 22-04-2020 15:35:00 21.7 C 5.72 g/m*3 21.7 C 12.9 km/h
189 22-04-2020 15:40:00 21.7 C 5.91 g/m*3 21.7 C 11.3 km/h
190 22-04-2020 15:45:00 21.7 C 5.72 g/m*3 21.7 C 19.3 km/h
191 22-04-2020 15:50:00 21.9 C 5.79 g/m*3 21.9 C 19.3 km/h
192 22-04-2020 15:55:00 22.1 C 5.66 g/m*3 22.1 C 14.5 km/h
193 22-04-2020 16:00:00 22.2 C 5.89 g/m*3 22.2 C 17.7 km/h
194 22-04-2020 16:05:00 22.2 C 5.69 g/m*3 22.2 C 20.9 km/h
195 22-04-2020 16:10:00 22.2 C 5.69 g/m*3 22.2 C 17.7 km/h
196 22-04-2020 16:15:00 22.3 C 5.73 g/m*3 22.3 C 14.5 km/h
197 22-04-2020 16:20:00 22.6 C 6.03 g/m*3 22.6 C 14.5 km/h
198 22-04-2020 16:25:00 22.7 C 5.86 g/m*3 22.7 C 20.9 km/h
199 22-04-2020 16:30:00 22.9 C 5.93 g/m*3 22.9 C 11.3 km/h
200 22-04-2020 16:35:00 23.1 C 5.58 g/m*3 23.1 C 12.9 km/h
Sensor: Nr:Datum:Temp:Abs-Feuchte:Windchill:Wind:
Aussen-T/F 201 22-04-2020 16:40:00 22.8 C 5.69 g/m*3 22.8 C 20.9 km/h
202 22-04-2020 16:45:00 22.5 C 5.59 g/m*3 22.5 C 24.1 km/h
203 22-04-2020 16:50:00 22.6 C 5.62 g/m*3 22.6 C 19.3 km/h
204 22-04-2020 16:55:00 22.8 C 5.89 g/m*3 22.8 C 12.9 km/h
205 22-04-2020 17:00:00 22.9 C 5.72 g/m*3 22.9 C 27.4 km/h
206 22-04-2020 17:05:00 22.7 C 5.66 g/m*3 22.7 C 27.4 km/h
207 22-04-2020 17:10:00 22.5 C 5.79 g/m*3 22.5 C 20.9 km/h
208 22-04-2020 17:15:00 22.4 C 5.56 g/m*3 22.4 C 22.5 km/h
209 22-04-2020 17:20:00 22.3 C 5.53 g/m*3 22.3 C 22.5 km/h
210 22-04-2020 17:25:00 22.3 C 5.73 g/m*3 22.3 C 20.9 km/h
211 22-04-2020 17:30:00 22.6 C 5.83 g/m*3 22.6 C 22.5 km/h
212 22-04-2020 17:35:00 22.8 C 5.69 g/m*3 22.8 C 14.5 km/h
213 22-04-2020 17:40:00 22.9 C 5.72 g/m*3 22.9 C 17.7 km/h
214 22-04-2020 17:45:00 23 C 5.76 g/m*3 23 C 11.3 km/h
215 22-04-2020 17:50:00 22.8 C 5.69 g/m*3 22.8 C 17.7 km/h
216 22-04-2020 17:55:00 22.7 C 5.66 g/m*3 22.7 C 16.1 km/h
217 22-04-2020 18:00:00 22.7 C 5.66 g/m*3 22.7 C 22.5 km/h
218 22-04-2020 18:05:00 22.7 C 5.66 g/m*3 22.7 C 14.5 km/h
219 22-04-2020 18:10:00 22.6 C 5.62 g/m*3 22.6 C 27.4 km/h
220 22-04-2020 18:15:00 22.4 C 5.56 g/m*3 22.4 C 19.3 km/h
221 22-04-2020 18:20:00 22.2 C 5.5 g/m*3 22.2 C 20.9 km/h
222 22-04-2020 18:25:00 22.2 C 5.5 g/m*3 22.2 C 17.7 km/h
223 22-04-2020 18:30:00 22.3 C 5.73 g/m*3 22.3 C 16.1 km/h
224 22-04-2020 18:35:00 22.3 C 5.53 g/m*3 22.3 C 16.1 km/h
225 22-04-2020 18:40:00 22.3 C 5.73 g/m*3 22.3 C 17.7 km/h
Sensor: Nr:Datum:Temp:Abs-Feuchte:Windchill:Wind:
Aussen-T/F 226 22-04-2020 18:45:00 22.4 C 5.56 g/m*3 22.4 C 17.7 km/h
227 22-04-2020 18:50:00 22.3 C 5.53 g/m*3 22.3 C 16.1 km/h
228 22-04-2020 18:55:00 22.2 C 5.5 g/m*3 22.2 C 16.1 km/h
229 22-04-2020 19:00:00 22.2 C 5.5 g/m*3 22.2 C 17.7 km/h
230 22-04-2020 19:05:00 21.8 C 5.76 g/m*3 21.8 C 17.7 km/h
231 22-04-2020 19:10:00 21.8 C 5.76 g/m*3 21.8 C 14.5 km/h
232 22-04-2020 19:15:00 21.8 C 5.56 g/m*3 21.8 C 9.7 km/h
233 22-04-2020 19:20:00 21.7 C 5.53 g/m*3 21.7 C 16.1 km/h
234 22-04-2020 19:25:00 21.4 C 5.62 g/m*3 21.4 C 8.1 km/h
235 22-04-2020 19:30:00 21.2 C 5.56 g/m*3 21.2 C 14.5 km/h
236 22-04-2020 19:35:00 20.9 C 5.46 g/m*3 20.9 C 11.3 km/h
237 22-04-2020 19:40:00 20.8 C 5.43 g/m*3 20.8 C 6.4 km/h
238 22-04-2020 19:45:00 20.7 C 5.58 g/m*3 20.7 C 11.3 km/h
239 22-04-2020 19:50:00 20.6 C 5.73 g/m*3 20.6 C 8.1 km/h
240 22-04-2020 19:55:00 20.4 C 5.48 g/m*3 20.4 C 9.7 km/h
241 22-04-2020 20:00:00 20.3 C 5.8 g/m*3 20.3 C 8.1 km/h
242 22-04-2020 20:05:00 20.3 C 5.8 g/m*3 20.3 C 1.6 km/h
243 22-04-2020 20:10:00 20.1 C 6.26 g/m*3 20.1 C 1.6 km/h
244 22-04-2020 20:15:00 19.7 C 6.45 g/m*3 19.7 C 3.2 km/h
245 22-04-2020 20:20:00 19.2 C 5.77 g/m*3 19.2 C 4.8 km/h
246 22-04-2020 20:25:00 18.7 C 6.08 g/m*3 18.7 C 0 km/h
247 22-04-2020 20:30:00 18.1 C 6.18 g/m*3 18.1 C 0 km/h
248 22-04-2020 20:35:00 17.4 C 5.63 g/m*3 17.4 C 3.2 km/h
249 22-04-2020 20:40:00 17.2 C 6.15 g/m*3 17.2 C 3.2 km/h
250 22-04-2020 20:45:00 16.8 C 6.15 g/m*3 16.8 C 1.6 km/h
Sensor: Nr:Datum:Temp:Abs-Feuchte:Windchill:Wind:
Aussen-T/F 251 22-04-2020 20:50:00 16.5 C 6.04 g/m*3 16.5 C 3.2 km/h
252 22-04-2020 20:55:00 16.3 C 5.83 g/m*3 16.3 C 4.8 km/h
253 22-04-2020 21:00:00 16.1 C 5.62 g/m*3 16.1 C 3.2 km/h
254 22-04-2020 21:05:00 16.1 C 6.03 g/m*3 16.1 C 0 km/h
255 22-04-2020 21:10:00 15.8 C 5.92 g/m*3 15.8 C 3.2 km/h
256 22-04-2020 21:15:00 15.6 C 6.12 g/m*3 15.6 C 1.6 km/h
257 22-04-2020 21:20:00 15.2 C 5.97 g/m*3 15.2 C 0 km/h
258 22-04-2020 21:25:00 14.9 C 5.86 g/m*3 14.9 C 0 km/h
259 22-04-2020 21:30:00 14.7 C 6.04 g/m*3 14.7 C 0 km/h
260 22-04-2020 21:35:00 14.4 C 6.06 g/m*3 14.4 C 0 km/h
261 22-04-2020 21:40:00 14.3 C 6.14 g/m*3 14.3 C 0 km/h
262 22-04-2020 21:45:00 14.2 C 6.11 g/m*3 14.2 C 4.8 km/h
263 22-04-2020 21:50:00 14.2 C 6.11 g/m*3 14.2 C 3.2 km/h
264 22-04-2020 21:55:00 14.1 C 6.19 g/m*3 14.1 C 1.6 km/h
265 22-04-2020 22:00:00 14 C 6.15 g/m*3 14 C 1.6 km/h
266 22-04-2020 22:05:00 13.8 C 6.08 g/m*3 13.8 C 0 km/h
267 22-04-2020 22:10:00 13.7 C 5.92 g/m*3 13.7 C 1.6 km/h
268 22-04-2020 22:15:00 13.7 C 6.16 g/m*3 13.7 C 1.6 km/h
269 22-04-2020 22:20:00 13.7 C 6.04 g/m*3 13.7 C 4.8 km/h
270 22-04-2020 22:25:00 13.8 C 6.08 g/m*3 13.8 C 4.8 km/h
271 22-04-2020 22:30:00 13.9 C 6.23 g/m*3 13.9 C 3.2 km/h
272 22-04-2020 22:35:00 13.9 C 6.23 g/m*3 13.9 C 0 km/h
273 22-04-2020 22:40:00 13.8 C 5.84 g/m*3 13.8 C 3.2 km/h
274 22-04-2020 22:45:00 13.8 C 6.08 g/m*3 13.8 C 1.6 km/h
275 22-04-2020 22:50:00 13.8 C 6.08 g/m*3 13.8 C 3.2 km/h
Sensor: Nr:Datum:Temp:Abs-Feuchte:Windchill:Wind:
Aussen-T/F 276 22-04-2020 22:55:00 13.9 C 6.11 g/m*3 13.9 C 3.2 km/h
277 22-04-2020 23:00:00 13.8 C 6.2 g/m*3 13.8 C 1.6 km/h
278 22-04-2020 23:05:00 13.8 C 6.08 g/m*3 13.8 C 4.8 km/h
279 22-04-2020 23:10:00 14 C 6.27 g/m*3 14 C 6.4 km/h
280 22-04-2020 23:15:00 13.9 C 5.87 g/m*3 13.9 C 3.2 km/h
281 22-04-2020 23:20:00 14 C 6.15 g/m*3 14 C 4.8 km/h
282 22-04-2020 23:25:00 13.9 C 6.11 g/m*3 13.9 C 1.6 km/h
283 22-04-2020 23:30:00 13.8 C 6.08 g/m*3 13.8 C 1.6 km/h
284 22-04-2020 23:35:00 13.7 C 6.04 g/m*3 13.7 C 6.4 km/h
285 22-04-2020 23:40:00 13.6 C 6.24 g/m*3 13.6 C 3.2 km/h
286 22-04-2020 23:45:00 13.6 C 6 g/m*3 13.6 C 3.2 km/h
287 22-04-2020 23:50:00 13.5 C 6.08 g/m*3 13.5 C 3.2 km/h
288 22-04-2020 23:55:00 13.3 C 6.12 g/m*3 13.3 C 0 km/h
289 23-04-2020 00:00:00 13.1 C 6.05 g/m*3 13.1 C 4.8 km/h
290 23-04-2020 00:05:00 13 C 6.24 g/m*3 13 C 3.2 km/h
291 23-04-2020 00:10:00 12.9 C 6.2 g/m*3 12.9 C 4.8 km/h
292 23-04-2020 00:15:00 12.9 C 6.09 g/m*3 12.9 C 1.6 km/h
293 23-04-2020 00:20:00 12.8 C 6.05 g/m*3 12.8 C 3.2 km/h
294 23-04-2020 00:25:00 12.8 C 6.05 g/m*3 12.8 C 1.6 km/h
295 23-04-2020 00:30:00 12.8 C 6.16 g/m*3 12.8 C 4.8 km/h
296 23-04-2020 00:35:00 12.8 C 6.16 g/m*3 12.8 C 4.8 km/h
297 23-04-2020 00:40:00 12.9 C 6.2 g/m*3 12.9 C 3.2 km/h
298 23-04-2020 00:45:00 12.8 C 6.16 g/m*3 12.8 C 3.2 km/h
299 23-04-2020 00:50:00 12.7 C 6.01 g/m*3 12.7 C 6.4 km/h
300 23-04-2020 00:55:00 12.7 C 6.12 g/m*3 12.7 C 0 km/h
Sensor: Nr:Datum:Temp:Abs-Feuchte:Windchill:Wind:
Aussen-T/F 301 23-04-2020 01:00:00 12.6 C 6.2 g/m*3 12.6 C 1.6 km/h
302 23-04-2020 01:05:00 12.6 C 6.08 g/m*3 12.6 C 6.4 km/h
303 23-04-2020 01:10:00 12.6 C 6.2 g/m*3 12.6 C 3.2 km/h
304 23-04-2020 01:15:00 12.4 C 6.12 g/m*3 12.4 C 3.2 km/h
305 23-04-2020 01:20:00 12.2 C 6.15 g/m*3 12.2 C 3.2 km/h
306 23-04-2020 01:25:00 12.1 C 6.01 g/m*3 12.1 C 8.1 km/h
307 23-04-2020 01:30:00 12.1 C 6.01 g/m*3 12.1 C 1.6 km/h
308 23-04-2020 01:35:00 12.2 C 6.26 g/m*3 12.2 C 6.4 km/h
309 23-04-2020 01:40:00 11.9 C 6.14 g/m*3 11.9 C 1.6 km/h
310 23-04-2020 01:45:00 11.7 C 6.17 g/m*3 11.7 C 0 km/h
311 23-04-2020 01:50:00 11.4 C 6.16 g/m*3 11.4 C 3.2 km/h
312 23-04-2020 01:55:00 11.2 C 6.18 g/m*3 11.2 C 1.6 km/h
313 23-04-2020 02:00:00 11 C 6.21 g/m*3 11 C 1.6 km/h
314 23-04-2020 02:05:00 10.7 C 6.09 g/m*3 10.7 C 3.2 km/h
315 23-04-2020 02:10:00 10.5 C 6.11 g/m*3 10.5 C 0 km/h
316 23-04-2020 02:15:00 10.3 C 6.13 g/m*3 10.3 C 0 km/h
317 23-04-2020 02:20:00 10.2 C 6.19 g/m*3 10.2 C 0 km/h
318 23-04-2020 02:25:00 10.2 C 6.19 g/m*3 10.2 C 3.2 km/h
319 23-04-2020 02:30:00 10.3 C 6.13 g/m*3 10.3 C 3.2 km/h
320 23-04-2020 02:35:00 10.4 C 6.17 g/m*3 10.4 C 1.6 km/h
321 23-04-2020 02:40:00 10.4 C 6.17 g/m*3 10.4 C 1.6 km/h
322 23-04-2020 02:45:00 10.3 C 6.22 g/m*3 10.3 C 1.6 km/h
323 23-04-2020 02:50:00 10.1 C 6.15 g/m*3 10.1 C 4.8 km/h
324 23-04-2020 02:55:00 9.9 C 6.07 g/m*3 9.9 C 3.2 km/h
325 23-04-2020 03:00:00 9.9 C 6.16 g/m*3 9.9 C 1.6 km/h
Sensor: Nr:Datum:Temp:Abs-Feuchte:Windchill:Wind:
Aussen-T/F 326 23-04-2020 03:05:00 9.8 C 6.12 g/m*3 9.8 C 0 km/h
327 23-04-2020 03:10:00 9.7 C 6.18 g/m*3 9.7 C 0 km/h
328 23-04-2020 03:15:00 9.7 C 6.18 g/m*3 9.7 C 1.6 km/h
329 23-04-2020 03:20:00 9.6 C 6.14 g/m*3 9.6 C 3.2 km/h
330 23-04-2020 03:25:00 9.5 C 6.1 g/m*3 9.5 C 1.6 km/h
331 23-04-2020 03:30:00 9.4 C 6.15 g/m*3 9.4 C 4.8 km/h
332 23-04-2020 03:35:00 9.4 C 6.15 g/m*3 9.4 C 1.6 km/h
333 23-04-2020 03:40:00 9.3 C 6.11 g/m*3 9.3 C 0 km/h
334 23-04-2020 03:45:00 9.3 C 6.11 g/m*3 9.3 C 0 km/h
335 23-04-2020 03:50:00 9.3 C 6.02 g/m*3 9.3 C 3.2 km/h
336 23-04-2020 03:55:00 9.3 C 6.11 g/m*3 9.3 C 1.6 km/h
337 23-04-2020 04:00:00 9.2 C 6.07 g/m*3 9.2 C 4.8 km/h
338 23-04-2020 04:05:00 9.1 C 6.03 g/m*3 9.1 C 0 km/h
339 23-04-2020 04:10:00 8.9 C 6.04 g/m*3 8.9 C 1.6 km/h
340 23-04-2020 04:15:00 8.8 C 6.01 g/m*3 8.8 C 0 km/h
341 23-04-2020 04:20:00 8.6 C 6.02 g/m*3 8.6 C 0 km/h
342 23-04-2020 04:25:00 8.4 C 6.02 g/m*3 8.4 C 0 km/h
343 23-04-2020 04:30:00 8.3 C 6.07 g/m*3 8.3 C 0 km/h
344 23-04-2020 04:35:00 8.1 C 6.07 g/m*3 8.1 C 0 km/h
345 23-04-2020 04:40:00 7.9 C 6 g/m*3 7.9 C 3.2 km/h
346 23-04-2020 04:45:00 7.8 C 6.04 g/m*3 7.8 C 0 km/h
347 23-04-2020 04:50:00 7.8 C 6.04 g/m*3 7.8 C 0 km/h
348 23-04-2020 04:55:00 7.8 C 6.12 g/m*3 7.8 C 0 km/h
349 23-04-2020 05:00:00 7.6 C 6.04 g/m*3 7.6 C 0 km/h
350 23-04-2020 05:05:00 7.4 C 5.96 g/m*3 7.4 C 0 km/h
Sensor: Nr:Datum:Temp:Abs-Feuchte:Windchill:Wind:
Aussen-T/F 351 23-04-2020 05:10:00 7.3 C 6 g/m*3 7.3 C 0 km/h
352 23-04-2020 05:15:00 7.2 C 5.97 g/m*3 7.2 C 0 km/h
353 23-04-2020 05:20:00 7.1 C 6.01 g/m*3 7.1 C 0 km/h
354 23-04-2020 05:25:00 6.9 C 5.93 g/m*3 6.9 C 3.2 km/h
355 23-04-2020 05:30:00 6.8 C 5.97 g/m*3 6.8 C 0 km/h
356 23-04-2020 05:35:00 6.7 C 5.93 g/m*3 6.7 C 0 km/h
357 23-04-2020 05:40:00 6.7 C 5.93 g/m*3 6.7 C 0 km/h
358 23-04-2020 05:45:00 6.7 C 5.93 g/m*3 6.7 C 0 km/h
359 23-04-2020 05:50:00 6.7 C 6 g/m*3 6.7 C 0 km/h
360 23-04-2020 05:55:00 6.6 C 5.96 g/m*3 6.6 C 0 km/h
361 23-04-2020 06:00:00 6.6 C 5.96 g/m*3 6.6 C 0 km/h
362 23-04-2020 06:05:00 6.5 C 5.92 g/m*3 6.5 C 0 km/h
363 23-04-2020 06:10:00 6.5 C 5.92 g/m*3 6.5 C 0 km/h
364 23-04-2020 06:15:00 6.4 C 5.89 g/m*3 6.4 C 1.6 km/h
365 23-04-2020 06:20:00 6.3 C 5.85 g/m*3 6.3 C 0 km/h
366 23-04-2020 06:25:00 6.3 C 5.92 g/m*3 6.3 C 0 km/h
367 23-04-2020 06:30:00 6.2 C 5.88 g/m*3 6.2 C 0 km/h
368 23-04-2020 06:35:00 6.2 C 5.88 g/m*3 6.2 C 0 km/h
369 23-04-2020 06:40:00 6.2 C 5.88 g/m*3 6.2 C 0 km/h
370 23-04-2020 06:45:00 6.2 C 5.88 g/m*3 6.2 C 0 km/h
371 23-04-2020 06:50:00 6.1 C 5.92 g/m*3 6.1 C 0 km/h
372 23-04-2020 06:55:00 6.1 C 5.92 g/m*3 6.1 C 0 km/h
373 23-04-2020 07:00:00 6.1 C 5.92 g/m*3 6.1 C 0 km/h
374 23-04-2020 07:05:00 6.1 C 5.99 g/m*3 6.1 C 0 km/h
375 23-04-2020 07:10:00 6.1 C 5.99 g/m*3 6.1 C 0 km/h
Sensor: Nr:Datum:Temp:Abs-Feuchte:Windchill:Wind:
Aussen-T/F 376 23-04-2020 07:15:00 6 C 5.95 g/m*3 6 C 0 km/h
377 23-04-2020 07:20:00 5.9 C 5.98 g/m*3 5.9 C 0 km/h
378 23-04-2020 07:25:00 5.9 C 6.06 g/m*3 5.9 C 0 km/h
379 23-04-2020 07:30:00 5.9 C 6.06 g/m*3 5.9 C 0 km/h
380 23-04-2020 07:35:00 5.9 C 6.13 g/m*3 5.9 C 0 km/h
381 23-04-2020 07:40:00 5.9 C 6.13 g/m*3 5.9 C 0 km/h
382 23-04-2020 07:45:00 5.9 C 6.13 g/m*3 5.9 C 0 km/h
383 23-04-2020 07:50:00 5.9 C 6.13 g/m*3 5.9 C 0 km/h
384 23-04-2020 07:55:00 5.9 C 6.2 g/m*3 5.9 C 1.6 km/h
385 23-04-2020 08:00:00 5.9 C 6.2 g/m*3 5.9 C 0 km/h
386 23-04-2020 08:05:00 5.9 C 6.2 g/m*3 5.9 C 0 km/h
387 23-04-2020 08:10:00 5.9 C 6.2 g/m*3 5.9 C 0 km/h
388 23-04-2020 08:15:00 6 C 6.31 g/m*3 6 C 1.6 km/h
389 23-04-2020 08:20:00 6.1 C 6.36 g/m*3 6.1 C 1.6 km/h
390 23-04-2020 08:25:00 6.2 C 6.4 g/m*3 6.2 C 0 km/h
391 23-04-2020 08:30:00 6.2 C 6.4 g/m*3 6.2 C 0 km/h
392 23-04-2020 08:35:00 6.3 C 6.44 g/m*3 6.3 C 3.2 km/h
393 23-04-2020 08:40:00 6.4 C 6.48 g/m*3 6.4 C 0 km/h
394 23-04-2020 08:45:00 6.6 C 6.57 g/m*3 6.6 C 1.6 km/h
395 23-04-2020 08:50:00 6.8 C 6.65 g/m*3 6.8 C 1.6 km/h
396 23-04-2020 08:55:00 6.9 C 6.7 g/m*3 6.9 C 0 km/h
397 23-04-2020 09:00:00 7.1 C 6.71 g/m*3 7.1 C 0 km/h
398 23-04-2020 09:05:00 7.3 C 6.79 g/m*3 7.3 C 0 km/h
399 23-04-2020 09:10:00 7.5 C 6.88 g/m*3 7.5 C 0 km/h
400 23-04-2020 09:15:00 7.8 C 6.94 g/m*3 7.8 C 3.2 km/h
Sensor: Nr:Datum:Temp:Abs-Feuchte:Windchill:Wind:
Aussen-T/F 401 23-04-2020 09:20:00 8 C 6.94 g/m*3 8 C 4.8 km/h
402 23-04-2020 09:25:00 8.2 C 6.95 g/m*3 8.2 C 3.2 km/h
403 23-04-2020 09:30:00 8.5 C 7.09 g/m*3 8.5 C 3.2 km/h
404 23-04-2020 09:35:00 8.7 C 7.09 g/m*3 8.7 C 0 km/h
405 23-04-2020 09:40:00 8.9 C 7.18 g/m*3 8.9 C 0 km/h
406 23-04-2020 09:45:00 9.2 C 7.14 g/m*3 9.2 C 3.2 km/h
407 23-04-2020 09:50:00 9.4 C 7.24 g/m*3 9.4 C 0 km/h
408 23-04-2020 09:55:00 9.6 C 7.24 g/m*3 9.6 C 0 km/h
409 23-04-2020 10:00:00 9.9 C 7.28 g/m*3 9.9 C 0 km/h
410 23-04-2020 10:05:00 10.2 C 7.42 g/m*3 10.2 C 0 km/h
411 23-04-2020 10:10:00 10.4 C 7.42 g/m*3 10.4 C 0 km/h
412 23-04-2020 10:15:00 10.6 C 7.42 g/m*3 10.6 C 3.2 km/h
413 23-04-2020 10:20:00 11 C 7.21 g/m*3 11 C 1.6 km/h
414 23-04-2020 10:25:00 11.4 C 7.29 g/m*3 11.4 C 1.6 km/h
415 23-04-2020 10:30:00 11.8 C 7.37 g/m*3 11.8 C 0 km/h
416 23-04-2020 10:35:00 12.1 C 7.51 g/m*3 12.1 C 3.2 km/h
417 23-04-2020 10:40:00 12.4 C 7.65 g/m*3 12.4 C 1.6 km/h
418 23-04-2020 10:45:00 12.7 C 7.12 g/m*3 12.7 C 1.6 km/h
419 23-04-2020 10:50:00 13.1 C 7.3 g/m*3 13.1 C 3.2 km/h
420 23-04-2020 10:55:00 13.8 C 6.91 g/m*3 13.8 C 8.1 km/h
421 23-04-2020 11:00:00 14.9 C 6.88 g/m*3 14.9 C 9.7 km/h
422 23-04-2020 11:05:00 15.3 C 7.7 g/m*3 15.3 C 3.2 km/h
423 23-04-2020 11:10:00 15.6 C 7.05 g/m*3 15.6 C 4.8 km/h
424 23-04-2020 11:15:00 15.8 C 6.87 g/m*3 15.8 C 8.1 km/h
425 23-04-2020 11:20:00 16.2 C 6.76 g/m*3 16.2 C 8.1 km/h
Sensor: Nr:Datum:Temp:Abs-Feuchte:Windchill:Wind:
Aussen-T/F 426 23-04-2020 11:25:00 16.4 C 6.56 g/m*3 16.4 C 9.7 km/h
427 23-04-2020 11:30:00 16.8 C 6.58 g/m*3 16.8 C 12.9 km/h
428 23-04-2020 11:35:00 16.9 C 7.48 g/m*3 16.9 C 6.4 km/h
429 23-04-2020 11:40:00 16.9 C 6.9 g/m*3 16.9 C 6.4 km/h
430 23-04-2020 11:45:00 17.1 C 6.84 g/m*3 17.1 C 6.4 km/h
431 23-04-2020 11:50:00 17.2 C 6.88 g/m*3 17.2 C 9.7 km/h
432 23-04-2020 11:55:00 17.3 C 6.63 g/m*3 17.3 C 12.9 km/h
433 23-04-2020 12:00:00 17.5 C 6.86 g/m*3 17.5 C 8.1 km/h
434 23-04-2020 12:05:00 17.7 C 6.64 g/m*3 17.7 C 11.3 km/h
435 23-04-2020 12:10:00 17.7 C 6.64 g/m*3 17.7 C 17.7 km/h
436 23-04-2020 12:15:00 17.9 C 6.87 g/m*3 17.9 C 14.5 km/h
437 23-04-2020 12:20:00 18 C 6.76 g/m*3 18 C 9.7 km/h
438 23-04-2020 12:25:00 18.1 C 6.8 g/m*3 18.1 C 11.3 km/h
439 23-04-2020 12:30:00 18.2 C 6.68 g/m*3 18.2 C 12.9 km/h
440 23-04-2020 12:35:00 18.3 C 6.72 g/m*3 18.3 C 9.7 km/h
441 23-04-2020 12:40:00 18.3 C 6.72 g/m*3 18.3 C 11.3 km/h
442 23-04-2020 12:45:00 18.4 C 6.76 g/m*3 18.4 C 8.1 km/h
443 23-04-2020 12:50:00 18.4 C 6.61 g/m*3 18.4 C 4.8 km/h
444 23-04-2020 12:55:00 18.5 C 6.49 g/m*3 18.5 C 6.4 km/h
445 23-04-2020 13:00:00 18.7 C 6.08 g/m*3 18.7 C 12.9 km/h
446 23-04-2020 13:05:00 18.9 C 5.67 g/m*3 18.9 C 11.3 km/h
447 23-04-2020 13:10:00 19 C 5.87 g/m*3 19 C 6.4 km/h
448 23-04-2020 13:15:00 19.2 C 5.77 g/m*3 19.2 C 9.7 km/h
449 23-04-2020 13:20:00 19.3 C 5.81 g/m*3 19.3 C 4.8 km/h
450 23-04-2020 13:25:00 19.3 C 5.81 g/m*3 19.3 C 3.2 km/h
Sensor: Nr:Datum:Temp:Abs-Feuchte:Windchill:Wind:
Aussen-T/F 451 23-04-2020 13:30:00 19.4 C 6.01 g/m*3 19.4 C 11.3 km/h
452 23-04-2020 13:35:00 19.6 C 5.91 g/m*3 19.6 C 9.7 km/h
453 23-04-2020 13:40:00 19.7 C 5.77 g/m*3 19.7 C 11.3 km/h
454 23-04-2020 13:45:00 19.8 C 5.98 g/m*3 19.8 C 9.7 km/h
455 23-04-2020 13:50:00 20.1 C 5.74 g/m*3 20.1 C 11.3 km/h
456 23-04-2020 13:55:00 20.1 C 6.08 g/m*3 20.1 C 14.5 km/h
457 23-04-2020 14:00:00 20.1 C 5.74 g/m*3 20.1 C 16.1 km/h
458 23-04-2020 14:05:00 20.2 C 5.77 g/m*3 20.2 C 9.7 km/h
459 23-04-2020 14:10:00 20.3 C 5.8 g/m*3 20.3 C 6.4 km/h
460 23-04-2020 14:15:00 20.3 C 6.16 g/m*3 20.3 C 8.1 km/h
461 23-04-2020 14:20:00 20.4 C 5.84 g/m*3 20.4 C 9.7 km/h
462 23-04-2020 14:25:00 20.6 C 5.91 g/m*3 20.6 C 8.1 km/h
463 23-04-2020 14:30:00 20.8 C 5.98 g/m*3 20.8 C 9.7 km/h
464 23-04-2020 14:35:00 20.9 C 6.01 g/m*3 20.9 C 9.7 km/h
465 23-04-2020 14:40:00 21 C 5.86 g/m*3 21 C 9.7 km/h
466 23-04-2020 14:45:00 21 C 6.05 g/m*3 21 C 9.7 km/h
467 23-04-2020 14:50:00 21.1 C 6.08 g/m*3 21.1 C 8.1 km/h
468 23-04-2020 14:55:00 21.3 C 5.96 g/m*3 21.3 C 9.7 km/h
469 23-04-2020 15:00:00 21.4 C 6.19 g/m*3 21.4 C 8.1 km/h
470 23-04-2020 15:05:00 21.6 C 6.07 g/m*3 21.6 C 3.2 km/h
471 23-04-2020 15:10:00 21.7 C 5.91 g/m*3 21.7 C 6.4 km/h
472 23-04-2020 15:15:00 21.6 C 5.69 g/m*3 21.6 C 9.7 km/h
473 23-04-2020 15:20:00 21.7 C 6.1 g/m*3 21.7 C 8.1 km/h
474 23-04-2020 15:25:00 21.8 C 5.95 g/m*3 21.8 C 8.1 km/h
475 23-04-2020 15:30:00 22.1 C 6.05 g/m*3 22.1 C 11.3 km/h
Sensor: Nr:Datum:Temp:Abs-Feuchte:Windchill:Wind:
Aussen-T/F 476 23-04-2020 15:35:00 22.2 C 5.89 g/m*3 22.2 C 9.7 km/h
477 23-04-2020 15:40:00 22.3 C 5.73 g/m*3 22.3 C 9.7 km/h
478 23-04-2020 15:45:00 22.4 C 6.16 g/m*3 22.4 C 6.4 km/h
479 23-04-2020 15:50:00 22.6 C 6.03 g/m*3 22.6 C 9.7 km/h
480 23-04-2020 15:55:00 22.6 C 5.83 g/m*3 22.6 C 11.3 km/h
481 23-04-2020 16:00:00 22.6 C 6.03 g/m*3 22.6 C 12.9 km/h
482 23-04-2020 16:05:00 22.7 C 6.06 g/m*3 22.7 C 12.9 km/h
483 23-04-2020 16:10:00 22.7 C 6.06 g/m*3 22.7 C 8.1 km/h
484 23-04-2020 16:15:00 22.7 C 6.06 g/m*3 22.7 C 9.7 km/h
485 23-04-2020 16:20:00 22.8 C 6.1 g/m*3 22.8 C 8.1 km/h
486 23-04-2020 16:25:00 23.2 C 6.03 g/m*3 23.2 C 12.9 km/h
487 23-04-2020 16:30:00 23.5 C 5.92 g/m*3 23.5 C 12.9 km/h
488 23-04-2020 16:35:00 23.4 C 5.89 g/m*3 23.4 C 9.7 km/h
489 23-04-2020 16:40:00 23.3 C 5.85 g/m*3 23.3 C 11.3 km/h
490 23-04-2020 16:45:00 23.4 C 6.31 g/m*3 23.4 C 6.4 km/h
491 23-04-2020 16:50:00 23.9 C 6.27 g/m*3 23.9 C 9.7 km/h
492 23-04-2020 16:55:00 24.3 C 6.2 g/m*3 24.3 C 8.1 km/h
493 23-04-2020 17:00:00 24.2 C 6.16 g/m*3 24.2 C 4.8 km/h
494 23-04-2020 17:05:00 24.4 C 6.23 g/m*3 24.4 C 8.1 km/h
495 23-04-2020 17:10:00 24.2 C 6.16 g/m*3 24.2 C 14.5 km/h
496 23-04-2020 17:15:00 24.1 C 6.13 g/m*3 24.1 C 4.8 km/h
497 23-04-2020 17:20:00 24.2 C 6.16 g/m*3 24.2 C 11.3 km/h
498 23-04-2020 17:25:00 24.5 C 5.82 g/m*3 24.5 C 4.8 km/h
499 23-04-2020 17:30:00 24.7 C 6.11 g/m*3 24.7 C 4.8 km/h
500 23-04-2020 17:35:00 24.7 C 5.88 g/m*3 24.7 C 11.3 km/h
Sensor: Nr:Datum:Temp:Abs-Feuchte:Windchill:Wind:
Aussen-T/F 501 23-04-2020 17:40:00 24.3 C 5.97 g/m*3 24.3 C 9.7 km/h
502 23-04-2020 17:45:00 24.2 C 6.16 g/m*3 24.2 C 3.2 km/h
503 23-04-2020 17:50:00 24.2 C 6.16 g/m*3 24.2 C 4.8 km/h
504 23-04-2020 17:55:00 24.6 C 6.53 g/m*3 24.6 C 4.8 km/h
505 23-04-2020 18:00:00 24.8 C 5.69 g/m*3 24.8 C 6.4 km/h
506 23-04-2020 18:05:00 25.1 C 6.25 g/m*3 25.1 C 3.2 km/h
507 23-04-2020 18:10:00 25.3 C 5.85 g/m*3 25.3 C 8.1 km/h
508 23-04-2020 18:15:00 25.2 C 6.75 g/m*3 25.2 C 8.1 km/h
509 23-04-2020 18:20:00 25.5 C 6.39 g/m*3 25.5 C 1.6 km/h
510 23-04-2020 18:25:00 25.7 C 5.99 g/m*3 25.7 C 1.6 km/h
511 23-04-2020 18:30:00 25.8 C 6.02 g/m*3 25.8 C 3.2 km/h
512 23-04-2020 18:35:00 25.7 C 5.99 g/m*3 25.7 C 8.1 km/h
513 23-04-2020 18:40:00 25.6 C 6.43 g/m*3 25.6 C 6.4 km/h
514 23-04-2020 18:45:00 25.4 C 6.36 g/m*3 25.4 C 3.2 km/h
515 23-04-2020 18:50:00 25.3 C 6.32 g/m*3 25.3 C 6.4 km/h
516 23-04-2020 18:55:00 24.9 C 6.18 g/m*3 24.9 C 8.1 km/h
517 23-04-2020 19:00:00 24.7 C 6.79 g/m*3 24.7 C 6.4 km/h
518 23-04-2020 19:05:00 24.7 C 6.56 g/m*3 24.7 C 1.6 km/h
519 23-04-2020 19:10:00 24.8 C 5.92 g/m*3 24.8 C 1.6 km/h
520 23-04-2020 19:15:00 24.8 C 6.37 g/m*3 24.8 C 1.6 km/h
521 23-04-2020 19:20:00 24.7 C 7.02 g/m*3 24.7 C 1.6 km/h
522 23-04-2020 19:25:00 24.4 C 7.34 g/m*3 24.4 C 3.2 km/h
523 23-04-2020 19:30:00 24.2 C 7.92 g/m*3 24.2 C 3.2 km/h
524 23-04-2020 19:35:00 22.9 C 11.85 g/m*3 22.9 C 4.8 km/h
525 23-04-2020 19:40:00 20.8 C 11.05 g/m*3 20.8 C 4.8 km/h
Sensor: Nr:Datum:Temp:Abs-Feuchte:Windchill:Wind:
Aussen-T/F 526 23-04-2020 19:45:00 19 C 10.92 g/m*3 19 C 4.8 km/h
527 23-04-2020 19:50:00 17.6 C 10.05 g/m*3 17.6 C 4.8 km/h
528 23-04-2020 19:55:00 16.4 C 9.21 g/m*3 16.4 C 8.1 km/h
529 23-04-2020 20:00:00 15.7 C 8.83 g/m*3 15.7 C 8.1 km/h
530 23-04-2020 20:05:00 15.3 C 8.62 g/m*3 15.3 C 9.7 km/h
531 23-04-2020 20:10:00 15.2 C 8.57 g/m*3 15.2 C 8.1 km/h
532 23-04-2020 20:15:00 14.9 C 8.28 g/m*3 14.9 C 8.1 km/h
533 23-04-2020 20:20:00 14.8 C 8.36 g/m*3 14.8 C 8.1 km/h
534 23-04-2020 20:25:00 14.7 C 8.44 g/m*3 14.7 C 8.1 km/h
535 23-04-2020 20:30:00 14.6 C 8.51 g/m*3 14.6 C 8.1 km/h
536 23-04-2020 20:35:00 14.4 C 8.53 g/m*3 14.4 C 6.4 km/h
537 23-04-2020 20:40:00 14.3 C 8.6 g/m*3 14.3 C 4.8 km/h
538 23-04-2020 20:45:00 14.1 C 8.37 g/m*3 14.1 C 3.2 km/h
539 23-04-2020 20:50:00 13.9 C 7.91 g/m*3 13.9 C 4.8 km/h
540 23-04-2020 20:55:00 13.8 C 7.86 g/m*3 13.8 C 4.8 km/h
541 23-04-2020 21:00:00 13.6 C 7.65 g/m*3 13.6 C 4.8 km/h
542 23-04-2020 21:05:00 13.4 C 7.44 g/m*3 13.4 C 4.8 km/h
543 23-04-2020 21:10:00 13.4 C 7.56 g/m*3 13.4 C 4.8 km/h
544 23-04-2020 21:15:00 13.3 C 7.63 g/m*3 13.3 C 3.2 km/h
545 23-04-2020 21:20:00 13.2 C 7.46 g/m*3 13.2 C 1.6 km/h
546 23-04-2020 21:25:00 13.1 C 7.42 g/m*3 13.1 C 0 km/h
547 23-04-2020 21:30:00 12.9 C 7.33 g/m*3 12.9 C 0 km/h
548 23-04-2020 21:35:00 12.8 C 7.17 g/m*3 12.8 C 0 km/h
549 23-04-2020 21:40:00 12.7 C 7.24 g/m*3 12.7 C 0 km/h
550 23-04-2020 21:45:00 12.6 C 7.3 g/m*3 12.6 C 0 km/h
Sensor: Nr:Datum:Temp:Abs-Feuchte:Windchill:Wind:
Aussen-T/F 551 23-04-2020 21:50:00 12.4 C 7.21 g/m*3 12.4 C 0 km/h
552 23-04-2020 21:55:00 12.3 C 7.06 g/m*3 12.3 C 0 km/h
553 23-04-2020 22:00:00 12.2 C 7.23 g/m*3 12.2 C 0 km/h
554 23-04-2020 22:05:00 12.1 C 7.18 g/m*3 12.1 C 0 km/h
555 23-04-2020 22:10:00 11.9 C 7.2 g/m*3 11.9 C 0 km/h
556 23-04-2020 22:15:00 11.7 C 7.01 g/m*3 11.7 C 0 km/h
557 23-04-2020 22:20:00 11.7 C 7.11 g/m*3 11.7 C 0 km/h
558 23-04-2020 22:25:00 11.6 C 6.96 g/m*3 11.6 C 0 km/h
559 23-04-2020 22:30:00 11.4 C 6.98 g/m*3 11.4 C 0 km/h
560 23-04-2020 22:35:00 11.3 C 6.94 g/m*3 11.3 C 0 km/h
561 23-04-2020 22:40:00 11.2 C 6.89 g/m*3 11.2 C 0 km/h
562 23-04-2020 22:45:00 11.2 C 6.99 g/m*3 11.2 C 0 km/h
563 23-04-2020 22:50:00 11.1 C 6.85 g/m*3 11.1 C 0 km/h
564 23-04-2020 22:55:00 10.9 C 6.86 g/m*3 10.9 C 0 km/h
565 23-04-2020 23:00:00 10.8 C 6.92 g/m*3 10.8 C 0 km/h
566 23-04-2020 23:05:00 10.7 C 6.88 g/m*3 10.7 C 0 km/h
567 23-04-2020 23:10:00 10.6 C 6.83 g/m*3 10.6 C 0 km/h
568 23-04-2020 23:15:00 10.4 C 6.84 g/m*3 10.4 C 0 km/h
569 23-04-2020 23:20:00 10.3 C 6.8 g/m*3 10.3 C 0 km/h
570 23-04-2020 23:25:00 10.1 C 6.71 g/m*3 10.1 C 0 km/h
571 23-04-2020 23:30:00 10.1 C 6.81 g/m*3 10.1 C 0 km/h
572 23-04-2020 23:35:00 10 C 6.77 g/m*3 10 C 0 km/h
573 23-04-2020 23:40:00 9.8 C 6.68 g/m*3 9.8 C 0 km/h
574 23-04-2020 23:45:00 9.7 C 6.64 g/m*3 9.7 C 0 km/h
575 23-04-2020 23:50:00 9.7 C 6.64 g/m*3 9.7 C 0 km/h
Sensor: Nr:Datum:Temp:Abs-Feuchte:Windchill:Wind:
Aussen-T/F 576 23-04-2020 23:55:00 9.7 C 6.64 g/m*3 9.7 C 0 km/h
577 24-04-2020 00:00:00 9.6 C 6.6 g/m*3 9.6 C 0 km/h
578 24-04-2020 00:05:00 9.6 C 6.6 g/m*3 9.6 C 0 km/h
579 24-04-2020 00:10:00 9.6 C 6.69 g/m*3 9.6 C 0 km/h
580 24-04-2020 00:15:00 9.6 C 6.78 g/m*3 9.6 C 1.6 km/h
581 24-04-2020 00:20:00 9.6 C 6.69 g/m*3 9.6 C 0 km/h
582 24-04-2020 00:25:00 9.5 C 6.64 g/m*3 9.5 C 0 km/h
583 24-04-2020 00:30:00 9.4 C 6.69 g/m*3 9.4 C 0 km/h
584 24-04-2020 00:35:00 9.3 C 6.65 g/m*3 9.3 C 0 km/h
585 24-04-2020 00:40:00 9.1 C 6.57 g/m*3 9.1 C 1.6 km/h
586 24-04-2020 00:45:00 9 C 6.52 g/m*3 9 C 1.6 km/h
587 24-04-2020 00:50:00 8.9 C 6.57 g/m*3 8.9 C 0 km/h
588 24-04-2020 00:55:00 8.8 C 6.53 g/m*3 8.8 C 0 km/h
589 24-04-2020 01:00:00 8.8 C 6.61 g/m*3 8.8 C 0 km/h
590 24-04-2020 01:05:00 8.7 C 6.57 g/m*3 8.7 C 0 km/h
591 24-04-2020 01:10:00 8.7 C 6.66 g/m*3 8.7 C 1.6 km/h
592 24-04-2020 01:15:00 8.6 C 6.62 g/m*3 8.6 C 3.2 km/h
593 24-04-2020 01:20:00 8.6 C 6.62 g/m*3 8.6 C 0 km/h
594 24-04-2020 01:25:00 8.5 C 6.49 g/m*3 8.5 C 0 km/h
595 24-04-2020 01:30:00 8.4 C 6.45 g/m*3 8.4 C 0 km/h
596 24-04-2020 01:35:00 8.4 C 6.53 g/m*3 8.4 C 3.2 km/h
597 24-04-2020 01:40:00 8.4 C 6.62 g/m*3 8.4 C 0 km/h
598 24-04-2020 01:45:00 8.4 C 6.62 g/m*3 8.4 C 0 km/h
599 24-04-2020 01:50:00 8.3 C 6.57 g/m*3 8.3 C 0 km/h
600 24-04-2020 01:55:00 8.2 C 6.53 g/m*3 8.2 C 1.6 km/h
Sensor: Nr:Datum:Temp:Abs-Feuchte:Windchill:Wind:
Aussen-T/F 601 24-04-2020 02:00:00 8.2 C 6.53 g/m*3 8.2 C 0 km/h
602 24-04-2020 02:05:00 8.1 C 6.57 g/m*3 8.1 C 0 km/h
603 24-04-2020 02:10:00 7.9 C 6.41 g/m*3 7.9 C 0 km/h
604 24-04-2020 02:15:00 7.8 C 6.37 g/m*3 7.8 C 0 km/h
605 24-04-2020 02:20:00 7.7 C 6.41 g/m*3 7.7 C 0 km/h
606 24-04-2020 02:25:00 7.7 C 6.49 g/m*3 7.7 C 1.6 km/h
607 24-04-2020 02:30:00 7.7 C 6.49 g/m*3 7.7 C 1.6 km/h
608 24-04-2020 02:35:00 7.7 C 6.57 g/m*3 7.7 C 0 km/h
609 24-04-2020 02:40:00 7.6 C 6.44 g/m*3 7.6 C 0 km/h
610 24-04-2020 02:45:00 7.4 C 6.36 g/m*3 7.4 C 1.6 km/h
611 24-04-2020 02:50:00 7.4 C 6.44 g/m*3 7.4 C 0 km/h
612 24-04-2020 02:55:00 7.3 C 6.48 g/m*3 7.3 C 0 km/h
613 24-04-2020 03:00:00 7.3 C 6.48 g/m*3 7.3 C 1.6 km/h
614 24-04-2020 03:05:00 7.3 C 6.48 g/m*3 7.3 C 1.6 km/h
615 24-04-2020 03:10:00 7.3 C 6.48 g/m*3 7.3 C 0 km/h
616 24-04-2020 03:15:00 7.2 C 6.44 g/m*3 7.2 C 0 km/h
617 24-04-2020 03:20:00 7.1 C 6.4 g/m*3 7.1 C 0 km/h
618 24-04-2020 03:25:00 6.9 C 6.39 g/m*3 6.9 C 0 km/h
619 24-04-2020 03:30:00 6.9 C 6.39 g/m*3 6.9 C 0 km/h
620 24-04-2020 03:35:00 6.8 C 6.35 g/m*3 6.8 C 0 km/h
621 24-04-2020 03:40:00 6.8 C 6.42 g/m*3 6.8 C 0 km/h
622 24-04-2020 03:45:00 6.7 C 6.38 g/m*3 6.7 C 1.6 km/h
623 24-04-2020 03:50:00 6.7 C 6.38 g/m*3 6.7 C 0 km/h
624 24-04-2020 03:55:00 6.7 C 6.38 g/m*3 6.7 C 0 km/h
625 24-04-2020 04:00:00 6.7 C 6.38 g/m*3 6.7 C 0 km/h
Sensor: Nr:Datum:Temp:Abs-Feuchte:Windchill:Wind:
Aussen-T/F 626 24-04-2020 04:05:00 6.6 C 6.34 g/m*3 6.6 C 0 km/h
627 24-04-2020 04:10:00 6.5 C 6.37 g/m*3 6.5 C 0 km/h
628 24-04-2020 04:15:00 6.5 C 6.37 g/m*3 6.5 C 0 km/h
629 24-04-2020 04:20:00 6.4 C 6.33 g/m*3 6.4 C 0 km/h
630 24-04-2020 04:25:00 6.3 C 6.29 g/m*3 6.3 C 1.6 km/h
631 24-04-2020 04:30:00 6.3 C 6.29 g/m*3 6.3 C 0 km/h
632 24-04-2020 04:35:00 6.3 C 6.37 g/m*3 6.3 C 1.6 km/h
633 24-04-2020 04:40:00 6.5 C 6.45 g/m*3 6.5 C 1.6 km/h
634 24-04-2020 04:45:00 6.6 C 6.49 g/m*3 6.6 C 1.6 km/h
635 24-04-2020 04:50:00 6.7 C 6.53 g/m*3 6.7 C 0 km/h
636 24-04-2020 04:55:00 6.7 C 6.46 g/m*3 6.7 C 0 km/h
637 24-04-2020 05:00:00 6.7 C 6.46 g/m*3 6.7 C 1.6 km/h
638 24-04-2020 05:05:00 6.6 C 6.42 g/m*3 6.6 C 0 km/h
639 24-04-2020 05:10:00 6.5 C 6.37 g/m*3 6.5 C 1.6 km/h
640 24-04-2020 05:15:00 6.4 C 6.33 g/m*3 6.4 C 0 km/h
641 24-04-2020 05:20:00 6.3 C 6.37 g/m*3 6.3 C 0 km/h
642 24-04-2020 05:25:00 6.3 C 6.37 g/m*3 6.3 C 1.6 km/h
643 24-04-2020 05:30:00 6.3 C 6.44 g/m*3 6.3 C 0 km/h
644 24-04-2020 05:35:00 6.3 C 6.44 g/m*3 6.3 C 0 km/h
645 24-04-2020 05:40:00 6.4 C 6.48 g/m*3 6.4 C 0 km/h
646 24-04-2020 05:45:00 6.4 C 6.48 g/m*3 6.4 C 0 km/h
647 24-04-2020 05:50:00 6.4 C 6.48 g/m*3 6.4 C 0 km/h
648 24-04-2020 05:55:00 6.4 C 6.48 g/m*3 6.4 C 0 km/h
649 24-04-2020 06:00:00 6.4 C 6.48 g/m*3 6.4 C 0 km/h
650 24-04-2020 06:05:00 6.4 C 6.48 g/m*3 6.4 C 0 km/h
Sensor: Nr:Datum:Temp:Abs-Feuchte:Windchill:Wind:
Aussen-T/F 651 24-04-2020 06:10:00 6.3 C 6.44 g/m*3 6.3 C 3.2 km/h
652 24-04-2020 06:15:00 6.3 C 6.44 g/m*3 6.3 C 1.6 km/h
653 24-04-2020 06:20:00 6.3 C 6.44 g/m*3 6.3 C 1.6 km/h
654 24-04-2020 06:25:00 6.4 C 6.48 g/m*3 6.4 C 1.6 km/h
655 24-04-2020 06:30:00 6.4 C 6.48 g/m*3 6.4 C 0 km/h
656 24-04-2020 06:35:00 6.4 C 6.48 g/m*3 6.4 C 0 km/h
657 24-04-2020 06:40:00 6.3 C 6.44 g/m*3 6.3 C 0 km/h
658 24-04-2020 06:45:00 6.4 C 6.48 g/m*3 6.4 C 0 km/h
659 24-04-2020 06:50:00 6.4 C 6.48 g/m*3 6.4 C 0 km/h
660 24-04-2020 06:55:00 6.4 C 6.48 g/m*3 6.4 C 0 km/h
661 24-04-2020 07:00:00 6.4 C 6.48 g/m*3 6.4 C 0 km/h
662 24-04-2020 07:05:00 6.4 C 6.48 g/m*3 6.4 C 0 km/h
663 24-04-2020 07:10:00 6.5 C 6.6 g/m*3 6.5 C 0 km/h
664 24-04-2020 07:15:00 6.5 C 6.6 g/m*3 6.5 C 0 km/h
665 24-04-2020 07:20:00 6.6 C 6.64 g/m*3 6.6 C 0 km/h
666 24-04-2020 07:25:00 6.6 C 6.64 g/m*3 6.6 C 0 km/h
667 24-04-2020 07:30:00 6.6 C 6.64 g/m*3 6.6 C 0 km/h
668 24-04-2020 07:35:00 6.6 C 6.64 g/m*3 6.6 C 1.6 km/h
669 24-04-2020 07:40:00 6.6 C 6.64 g/m*3 6.6 C 0 km/h
670 24-04-2020 07:45:00 6.7 C 6.69 g/m*3 6.7 C 0 km/h
671 24-04-2020 07:50:00 6.8 C 6.73 g/m*3 6.8 C 0 km/h
672 24-04-2020 07:55:00 6.8 C 6.73 g/m*3 6.8 C 0 km/h
673 24-04-2020 08:00:00 6.9 C 6.77 g/m*3 6.9 C 0 km/h
674 24-04-2020 08:05:00 6.9 C 6.77 g/m*3 6.9 C 0 km/h
675 24-04-2020 08:10:00 7.1 C 6.86 g/m*3 7.1 C 0 km/h
Sensor: Nr:Datum:Temp:Abs-Feuchte:Windchill:Wind:
Aussen-T/F 676 24-04-2020 08:15:00 7.2 C 6.91 g/m*3 7.2 C 0 km/h
677 24-04-2020 08:20:00 7.3 C 6.87 g/m*3 7.3 C 1.6 km/h
678 24-04-2020 08:25:00 7.6 C 7.01 g/m*3 7.6 C 1.6 km/h
679 24-04-2020 08:30:00 7.8 C 7.02 g/m*3 7.8 C 0 km/h
680 24-04-2020 08:35:00 8.1 C 7.07 g/m*3 8.1 C 0 km/h
681 24-04-2020 08:40:00 8.3 C 7.16 g/m*3 8.3 C 0 km/h
682 24-04-2020 08:45:00 8.7 C 7.35 g/m*3 8.7 C 1.6 km/h
683 24-04-2020 08:50:00 8.9 C 7.27 g/m*3 8.9 C 0 km/h
684 24-04-2020 08:55:00 9.2 C 7.41 g/m*3 9.2 C 0 km/h
685 24-04-2020 09:00:00 9.4 C 7.42 g/m*3 9.4 C 0 km/h
686 24-04-2020 09:05:00 9.6 C 7.33 g/m*3 9.6 C 0 km/h
687 24-04-2020 09:10:00 9.9 C 7.38 g/m*3 9.9 C 1.6 km/h
688 24-04-2020 09:15:00 10.1 C 7.38 g/m*3 10.1 C 0 km/h
689 24-04-2020 09:20:00 10.3 C 7.57 g/m*3 10.3 C 0 km/h
690 24-04-2020 09:25:00 10.6 C 7.61 g/m*3 10.6 C 0 km/h
691 24-04-2020 09:30:00 10.8 C 7.61 g/m*3 10.8 C 0 km/h
692 24-04-2020 09:35:00 11.1 C 7.76 g/m*3 11.1 C 0 km/h
693 24-04-2020 09:40:00 11.3 C 7.75 g/m*3 11.3 C 1.6 km/h
694 24-04-2020 09:45:00 11.4 C 7.7 g/m*3 11.4 C 0 km/h
695 24-04-2020 09:50:00 11.7 C 7.84 g/m*3 11.7 C 0 km/h
696 24-04-2020 09:55:00 11.8 C 7.89 g/m*3 11.8 C 0 km/h
697 24-04-2020 10:00:00 12.1 C 7.94 g/m*3 12.1 C 1.6 km/h
698 24-04-2020 10:05:00 12.2 C 7.88 g/m*3 12.2 C 1.6 km/h
699 24-04-2020 10:10:00 12.3 C 7.93 g/m*3 12.3 C 1.6 km/h
700 24-04-2020 10:15:00 12.3 C 7.82 g/m*3 12.3 C 0 km/h
Sensor: Nr:Datum:Temp:Abs-Feuchte:Windchill:Wind:
Aussen-T/F 701 24-04-2020 10:20:00 12.5 C 7.92 g/m*3 12.5 C 0 km/h
702 24-04-2020 10:25:00 12.7 C 8.01 g/m*3 12.7 C 0 km/h
703 24-04-2020 10:30:00 12.9 C 8.11 g/m*3 12.9 C 1.6 km/h
704 24-04-2020 10:35:00 13.2 C 8.15 g/m*3 13.2 C 4.8 km/h
705 24-04-2020 10:40:00 13.6 C 8.36 g/m*3 13.6 C 4.8 km/h
706 24-04-2020 10:45:00 13.8 C 8.22 g/m*3 13.8 C 4.8 km/h
707 24-04-2020 10:50:00 13.9 C 8.39 g/m*3 13.9 C 1.6 km/h
708 24-04-2020 10:55:00 14.2 C 8.3 g/m*3 14.2 C 3.2 km/h
709 24-04-2020 11:00:00 14.3 C 8.23 g/m*3 14.3 C 1.6 km/h
710 24-04-2020 11:05:00 14.6 C 8.38 g/m*3 14.6 C 0 km/h
711 24-04-2020 11:10:00 14.7 C 8.31 g/m*3 14.7 C 3.2 km/h
712 24-04-2020 11:15:00 14.8 C 8.49 g/m*3 14.8 C 1.6 km/h
713 24-04-2020 11:20:00 15 C 8.33 g/m*3 15 C 3.2 km/h
714 24-04-2020 11:25:00 15.2 C 8.44 g/m*3 15.2 C 1.6 km/h
715 24-04-2020 11:30:00 15.3 C 8.36 g/m*3 15.3 C 3.2 km/h
716 24-04-2020 11:35:00 15.4 C 8.28 g/m*3 15.4 C 0 km/h
717 24-04-2020 11:40:00 15.6 C 8.51 g/m*3 15.6 C 1.6 km/h
718 24-04-2020 11:45:00 15.7 C 8.43 g/m*3 15.7 C 1.6 km/h
719 24-04-2020 11:50:00 15.9 C 8.4 g/m*3 15.9 C 0 km/h
720 24-04-2020 11:55:00 16.1 C 8.5 g/m*3 16.1 C 0 km/h
721 24-04-2020 12:00:00 16.2 C 8.55 g/m*3 16.2 C 4.8 km/h
722 24-04-2020 12:05:00 16.4 C 8.79 g/m*3 16.4 C 1.6 km/h
723 24-04-2020 12:10:00 16.6 C 8.76 g/m*3 16.6 C 1.6 km/h
724 24-04-2020 12:15:00 16.9 C 8.63 g/m*3 16.9 C 1.6 km/h
725 24-04-2020 12:20:00 17.3 C 9.28 g/m*3 17.3 C 0 km/h
Sensor: Nr:Datum:Temp:Abs-Feuchte:Windchill:Wind:
Aussen-T/F 726 24-04-2020 12:25:00 17.7 C 8.75 g/m*3 17.7 C 6.4 km/h
727 24-04-2020 12:30:00 17.9 C 8.4 g/m*3 17.9 C 3.2 km/h
728 24-04-2020 12:35:00 18.1 C 8.65 g/m*3 18.1 C 9.7 km/h
729 24-04-2020 12:40:00 18.2 C 8.55 g/m*3 18.2 C 9.7 km/h
730 24-04-2020 12:45:00 18.3 C 7.97 g/m*3 18.3 C 8.1 km/h
731 24-04-2020 12:50:00 18.6 C 8.28 g/m*3 18.6 C 6.4 km/h
732 24-04-2020 12:55:00 18.8 C 7.89 g/m*3 18.8 C 8.1 km/h
733 24-04-2020 13:00:00 19.2 C 7.75 g/m*3 19.2 C 8.1 km/h
734 24-04-2020 13:05:00 19.3 C 7.96 g/m*3 19.3 C 8.1 km/h
735 24-04-2020 13:10:00 19.4 C 7.67 g/m*3 19.4 C 6.4 km/h
736 24-04-2020 13:15:00 19.7 C 7.47 g/m*3 19.7 C 9.7 km/h
737 24-04-2020 13:20:00 20 C 7.26 g/m*3 20 C 14.5 km/h
738 24-04-2020 13:25:00 20.1 C 6.78 g/m*3 20.1 C 9.7 km/h
739 24-04-2020 13:30:00 20.2 C 6.64 g/m*3 20.2 C 9.7 km/h
740 24-04-2020 13:35:00 20.2 C 6.99 g/m*3 20.2 C 9.7 km/h
741 24-04-2020 13:40:00 20.3 C 6.86 g/m*3 20.3 C 9.7 km/h
742 24-04-2020 13:45:00 20.5 C 6.76 g/m*3 20.5 C 11.3 km/h
743 24-04-2020 13:50:00 20.7 C 6.84 g/m*3 20.7 C 12.9 km/h
744 24-04-2020 13:55:00 20.7 C 7.02 g/m*3 20.7 C 8.1 km/h
745 24-04-2020 14:00:00 20.8 C 7.24 g/m*3 20.8 C 12.9 km/h
746 24-04-2020 14:05:00 21.1 C 7.55 g/m*3 21.1 C 8.1 km/h
747 24-04-2020 14:10:00 21.1 C 7.37 g/m*3 21.1 C 9.7 km/h
748 24-04-2020 14:15:00 21.1 C 7.37 g/m*3 21.1 C 8.1 km/h
749 24-04-2020 14:20:00 21.2 C 7.6 g/m*3 21.2 C 11.3 km/h
750 24-04-2020 14:25:00 21.4 C 7.69 g/m*3 21.4 C 9.7 km/h
Sensor: Nr:Datum:Temp:Abs-Feuchte:Windchill:Wind:
Aussen-T/F 751 24-04-2020 14:30:00 21.4 C 7.69 g/m*3 21.4 C 8.1 km/h
752 24-04-2020 14:35:00 21.4 C 7.87 g/m*3 21.4 C 8.1 km/h
753 24-04-2020 14:40:00 21.5 C 7.92 g/m*3 21.5 C 14.5 km/h
754 24-04-2020 14:45:00 21.6 C 7.97 g/m*3 21.6 C 9.7 km/h
755 24-04-2020 14:50:00 21.6 C 7.97 g/m*3 21.6 C 8.1 km/h
756 24-04-2020 14:55:00 21.7 C 7.82 g/m*3 21.7 C 14.5 km/h
757 24-04-2020 15:00:00 21.7 C 8.01 g/m*3 21.7 C 14.5 km/h
758 24-04-2020 15:05:00 21.8 C 7.67 g/m*3 21.8 C 11.3 km/h
759 24-04-2020 15:10:00 21.9 C 7.91 g/m*3 21.9 C 8.1 km/h
760 24-04-2020 15:15:00 21.9 C 7.53 g/m*3 21.9 C 8.1 km/h
761 24-04-2020 15:20:00 22 C 7.57 g/m*3 22 C 8.1 km/h
762 24-04-2020 15:25:00 21.9 C 7.33 g/m*3 21.9 C 14.5 km/h
763 24-04-2020 15:30:00 22 C 7.18 g/m*3 22 C 12.9 km/h
764 24-04-2020 15:35:00 22.1 C 7.03 g/m*3 22.1 C 11.3 km/h
765 24-04-2020 15:40:00 22.2 C 7.07 g/m*3 22.2 C 9.7 km/h
766 24-04-2020 15:45:00 22.3 C 7.11 g/m*3 22.3 C 9.7 km/h
767 24-04-2020 15:50:00 22.4 C 6.95 g/m*3 22.4 C 11.3 km/h
768 24-04-2020 15:55:00 22.6 C 6.83 g/m*3 22.6 C 12.9 km/h
769 24-04-2020 16:00:00 22.6 C 6.83 g/m*3 22.6 C 12.9 km/h
770 24-04-2020 16:05:00 22.5 C 6.99 g/m*3 22.5 C 8.1 km/h
771 24-04-2020 16:10:00 22.6 C 6.83 g/m*3 22.6 C 12.9 km/h
772 24-04-2020 16:15:00 22.7 C 6.67 g/m*3 22.7 C 14.5 km/h
773 24-04-2020 16:20:00 22.8 C 6.71 g/m*3 22.8 C 11.3 km/h
774 24-04-2020 16:25:00 22.8 C 6.3 g/m*3 22.8 C 12.9 km/h
775 24-04-2020 16:30:00 22.9 C 6.13 g/m*3 22.9 C 11.3 km/h
Sensor: Nr:Datum:Temp:Abs-Feuchte:Windchill:Wind:
Aussen-T/F 776 24-04-2020 16:35:00 23.1 C 6.61 g/m*3 23.1 C 4.8 km/h
777 24-04-2020 16:40:00 23.2 C 6.24 g/m*3 23.2 C 16.1 km/h
778 24-04-2020 16:45:00 23.1 C 5.99 g/m*3 23.1 C 12.9 km/h
779 24-04-2020 16:50:00 22.9 C 6.34 g/m*3 22.9 C 9.7 km/h
780 24-04-2020 16:55:00 22.9 C 6.13 g/m*3 22.9 C 12.9 km/h
781 24-04-2020 17:00:00 22.8 C 6.3 g/m*3 22.8 C 14.5 km/h
782 24-04-2020 17:05:00 22.6 C 6.23 g/m*3 22.6 C 11.3 km/h
783 24-04-2020 17:10:00 22.6 C 6.43 g/m*3 22.6 C 14.5 km/h
784 24-04-2020 17:15:00 22.6 C 6.03 g/m*3 22.6 C 16.1 km/h
785 24-04-2020 17:20:00 22.6 C 5.83 g/m*3 22.6 C 16.1 km/h
786 24-04-2020 17:25:00 22.7 C 5.86 g/m*3 22.7 C 12.9 km/h
787 24-04-2020 17:30:00 22.8 C 5.89 g/m*3 22.8 C 14.5 km/h
788 24-04-2020 17:35:00 22.7 C 5.66 g/m*3 22.7 C 14.5 km/h
789 24-04-2020 17:40:00 22.4 C 5.76 g/m*3 22.4 C 12.9 km/h
790 24-04-2020 17:45:00 22.2 C 5.89 g/m*3 22.2 C 14.5 km/h
791 24-04-2020 17:50:00 22.2 C 5.89 g/m*3 22.2 C 14.5 km/h
792 24-04-2020 17:55:00 22.4 C 5.96 g/m*3 22.4 C 16.1 km/h
793 24-04-2020 18:00:00 22.4 C 6.16 g/m*3 22.4 C 9.7 km/h
794 24-04-2020 18:05:00 22.1 C 6.05 g/m*3 22.1 C 19.3 km/h
795 24-04-2020 18:10:00 21.9 C 5.98 g/m*3 21.9 C 14.5 km/h
796 24-04-2020 18:15:00 21.7 C 6.29 g/m*3 21.7 C 14.5 km/h
797 24-04-2020 18:20:00 21.4 C 6.37 g/m*3 21.4 C 14.5 km/h
798 24-04-2020 18:25:00 21.4 C 6.56 g/m*3 21.4 C 16.1 km/h
799 24-04-2020 18:30:00 21.6 C 7.02 g/m*3 21.6 C 14.5 km/h
800 24-04-2020 18:35:00 21.6 C 7.02 g/m*3 21.6 C 11.3 km/h
Sensor: Nr:Datum:Temp:Abs-Feuchte:Windchill:Wind:
Aussen-T/F 801 24-04-2020 18:40:00 21.4 C 7.12 g/m*3 21.4 C 14.5 km/h
802 24-04-2020 18:45:00 21.3 C 7.08 g/m*3 21.3 C 16.1 km/h
803 24-04-2020 18:50:00 21.2 C 7.23 g/m*3 21.2 C 12.9 km/h
804 24-04-2020 18:55:00 21.1 C 7.19 g/m*3 21.1 C 12.9 km/h
805 24-04-2020 19:00:00 21.1 C 7.19 g/m*3 21.1 C 16.1 km/h
806 24-04-2020 19:05:00 20.9 C 7.1 g/m*3 20.9 C 17.7 km/h
807 24-04-2020 19:10:00 20.8 C 7.06 g/m*3 20.8 C 12.9 km/h
808 24-04-2020 19:15:00 20.7 C 7.2 g/m*3 20.7 C 12.9 km/h
809 24-04-2020 19:20:00 20.5 C 7.12 g/m*3 20.5 C 17.7 km/h
810 24-04-2020 19:25:00 20.4 C 7.25 g/m*3 20.4 C 8.1 km/h
811 24-04-2020 19:30:00 20.3 C 7.21 g/m*3 20.3 C 11.3 km/h
812 24-04-2020 19:35:00 20.1 C 7.3 g/m*3 20.1 C 12.9 km/h
813 24-04-2020 19:40:00 19.9 C 7.39 g/m*3 19.9 C 8.1 km/h
814 24-04-2020 19:45:00 19.8 C 7.34 g/m*3 19.8 C 12.9 km/h
815 24-04-2020 19:50:00 19.7 C 7.3 g/m*3 19.7 C 11.3 km/h
816 24-04-2020 19:55:00 19.6 C 7.43 g/m*3 19.6 C 12.9 km/h
817 24-04-2020 20:00:00 19.4 C 7.51 g/m*3 19.4 C 9.7 km/h
818 24-04-2020 20:05:00 19.2 C 7.42 g/m*3 19.2 C 9.7 km/h
819 24-04-2020 20:10:00 19.1 C 7.21 g/m*3 19.1 C 9.7 km/h
820 24-04-2020 20:15:00 18.9 C 7.45 g/m*3 18.9 C 8.1 km/h
821 24-04-2020 20:20:00 18.7 C 7.52 g/m*3 18.7 C 0 km/h
822 24-04-2020 20:25:00 18.3 C 7.35 g/m*3 18.3 C 9.7 km/h
823 24-04-2020 20:30:00 18.2 C 7.46 g/m*3 18.2 C 3.2 km/h
824 24-04-2020 20:35:00 17.8 C 7.59 g/m*3 17.8 C 1.6 km/h
825 24-04-2020 20:40:00 17.5 C 7.45 g/m*3 17.5 C 4.8 km/h
Sensor: Nr:Datum:Temp:Abs-Feuchte:Windchill:Wind:
Aussen-T/F 826 24-04-2020 20:45:00 17.2 C 7.32 g/m*3 17.2 C 6.4 km/h
827 24-04-2020 20:50:00 16.9 C 7.34 g/m*3 16.9 C 1.6 km/h
828 24-04-2020 20:55:00 16.7 C 7.39 g/m*3 16.7 C 1.6 km/h
829 24-04-2020 21:00:00 16.4 C 7.26 g/m*3 16.4 C 6.4 km/h
830 24-04-2020 21:05:00 16.3 C 7.35 g/m*3 16.3 C 1.6 km/h
831 24-04-2020 21:10:00 16.2 C 7.31 g/m*3 16.2 C 6.4 km/h
832 24-04-2020 21:15:00 16 C 7.08 g/m*3 16 C 1.6 km/h
833 24-04-2020 21:20:00 15.8 C 7.13 g/m*3 15.8 C 3.2 km/h
834 24-04-2020 21:25:00 15.7 C 7.23 g/m*3 15.7 C 3.2 km/h
835 24-04-2020 21:30:00 15.6 C 7.05 g/m*3 15.6 C 4.8 km/h
836 24-04-2020 21:35:00 15.6 C 7.18 g/m*3 15.6 C 6.4 km/h
837 24-04-2020 21:40:00 15.7 C 7.23 g/m*3 15.7 C 3.2 km/h
838 24-04-2020 21:45:00 15.6 C 7.05 g/m*3 15.6 C 0 km/h
839 24-04-2020 21:50:00 15.5 C 7.27 g/m*3 15.5 C 0 km/h
840 24-04-2020 21:55:00 15.3 C 7.18 g/m*3 15.3 C 1.6 km/h
841 24-04-2020 22:00:00 15.2 C 7.14 g/m*3 15.2 C 3.2 km/h
842 24-04-2020 22:05:00 15.1 C 7.1 g/m*3 15.1 C 3.2 km/h
843 24-04-2020 22:10:00 15 C 7.18 g/m*3 15 C 8.1 km/h
844 24-04-2020 22:15:00 14.8 C 7.09 g/m*3 14.8 C 1.6 km/h
845 24-04-2020 22:20:00 14.7 C 7.18 g/m*3 14.7 C 4.8 km/h
846 24-04-2020 22:25:00 14.6 C 6.76 g/m*3 14.6 C 6.4 km/h
847 24-04-2020 22:30:00 14.6 C 7.01 g/m*3 14.6 C 1.6 km/h
848 24-04-2020 22:35:00 14.6 C 6.88 g/m*3 14.6 C 0 km/h
849 24-04-2020 22:40:00 14.6 C 7.01 g/m*3 14.6 C 0 km/h
850 24-04-2020 22:45:00 14.4 C 6.92 g/m*3 14.4 C 3.2 km/h
Sensor: Nr:Datum:Temp:Abs-Feuchte:Windchill:Wind:
Aussen-T/F 851 24-04-2020 22:50:00 14.2 C 6.84 g/m*3 14.2 C 3.2 km/h
852 24-04-2020 22:55:00 13.9 C 6.83 g/m*3 13.9 C 3.2 km/h
853 24-04-2020 23:00:00 13.7 C 6.63 g/m*3 13.7 C 3.2 km/h
854 24-04-2020 23:05:00 13.5 C 6.67 g/m*3 13.5 C 1.6 km/h
855 24-04-2020 23:10:00 13.3 C 6.12 g/m*3 13.3 C 4.8 km/h
856 24-04-2020 23:15:00 13.3 C 6.47 g/m*3 13.3 C 3.2 km/h
857 24-04-2020 23:20:00 13.2 C 5.97 g/m*3 13.2 C 0 km/h
858 24-04-2020 23:25:00 13.1 C 6.05 g/m*3 13.1 C 0 km/h
859 24-04-2020 23:30:00 12.9 C 5.86 g/m*3 12.9 C 1.6 km/h
860 24-04-2020 23:35:00 12.8 C 5.6 g/m*3 12.8 C 8.1 km/h
861 24-04-2020 23:40:00 12.9 C 5.75 g/m*3 12.9 C 3.2 km/h
862 24-04-2020 23:45:00 12.9 C 5.75 g/m*3 12.9 C 3.2 km/h
863 24-04-2020 23:50:00 12.9 C 5.97 g/m*3 12.9 C 0 km/h
864 24-04-2020 23:55:00 12.8 C 5.6 g/m*3 12.8 C 3.2 km/h
865 25-04-2020 00:00:00 12.8 C 5.71 g/m*3 12.8 C 6.4 km/h
866 25-04-2020 00:05:00 12.8 C 5.94 g/m*3 12.8 C 4.8 km/h
867 25-04-2020 00:10:00 13.1 C 5.82 g/m*3 13.1 C 8.1 km/h
868 25-04-2020 00:15:00 13.1 C 5.82 g/m*3 13.1 C 4.8 km/h
869 25-04-2020 00:20:00 13.2 C 5.97 g/m*3 13.2 C 6.4 km/h
870 25-04-2020 00:25:00 13.1 C 5.93 g/m*3 13.1 C 6.4 km/h
871 25-04-2020 00:30:00 13.1 C 6.05 g/m*3 13.1 C 8.1 km/h
872 25-04-2020 00:35:00 13.1 C 6.05 g/m*3 13.1 C 4.8 km/h
873 25-04-2020 00:40:00 12.9 C 6.2 g/m*3 12.9 C 4.8 km/h
874 25-04-2020 00:45:00 12.7 C 6.23 g/m*3 12.7 C 8.1 km/h
875 25-04-2020 00:50:00 12.4 C 6.23 g/m*3 12.4 C 3.2 km/h
Sensor: Nr:Datum:Temp:Abs-Feuchte:Windchill:Wind:
Aussen-T/F 876 25-04-2020 00:55:00 12.3 C 6.41 g/m*3 12.3 C 4.8 km/h
877 25-04-2020 01:00:00 12.1 C 6.43 g/m*3 12.1 C 4.8 km/h
878 25-04-2020 01:05:00 11.9 C 6.46 g/m*3 11.9 C 3.2 km/h
879 25-04-2020 01:10:00 11.9 C 6.35 g/m*3 11.9 C 11.3 km/h
880 25-04-2020 01:15:00 12 C 6.5 g/m*3 12 C 6.4 km/h
881 25-04-2020 01:20:00 11.9 C 6.46 g/m*3 11.9 C 1.6 km/h
882 25-04-2020 01:25:00 11.8 C 6.53 g/m*3 11.8 C 6.4 km/h
883 25-04-2020 01:30:00 11.7 C 6.59 g/m*3 11.7 C 6.4 km/h
884 25-04-2020 01:35:00 11.6 C 6.55 g/m*3 11.6 C 6.4 km/h
885 25-04-2020 01:40:00 11.5 C 6.61 g/m*3 11.5 C 8.1 km/h
886 25-04-2020 01:45:00 11.4 C 6.57 g/m*3 11.4 C 4.8 km/h
887 25-04-2020 01:50:00 11.4 C 6.57 g/m*3 11.4 C 4.8 km/h
888 25-04-2020 01:55:00 11.5 C 6.71 g/m*3 11.5 C 3.2 km/h
889 25-04-2020 02:00:00 11.4 C 6.67 g/m*3 11.4 C 4.8 km/h
890 25-04-2020 02:05:00 11.2 C 6.59 g/m*3 11.2 C 4.8 km/h
891 25-04-2020 02:10:00 11.1 C 6.65 g/m*3 11.1 C 4.8 km/h
892 25-04-2020 02:15:00 10.9 C 6.56 g/m*3 10.9 C 1.6 km/h
893 25-04-2020 02:20:00 10.8 C 6.62 g/m*3 10.8 C 1.6 km/h
894 25-04-2020 02:25:00 10.5 C 6.6 g/m*3 10.5 C 0 km/h
895 25-04-2020 02:30:00 10.3 C 6.61 g/m*3 10.3 C 4.8 km/h
896 25-04-2020 02:35:00 10.2 C 6.66 g/m*3 10.2 C 1.6 km/h
897 25-04-2020 02:40:00 10.1 C 6.62 g/m*3 10.1 C 4.8 km/h
898 25-04-2020 02:45:00 10 C 6.58 g/m*3 10 C 3.2 km/h
899 25-04-2020 02:50:00 9.9 C 6.54 g/m*3 9.25 C 6.4 km/h
900 25-04-2020 02:55:00 10 C 6.67 g/m*3 8.99 C 8.1 km/h
Sensor: Nr:Datum:Temp:Abs-Feuchte:Windchill:Wind:
Aussen-T/F 901 25-04-2020 03:00:00 10.1 C 6.62 g/m*3 9.1 C 8.1 km/h
902 25-04-2020 03:05:00 10.3 C 6.7 g/m*3 9.72 C 6.4 km/h
903 25-04-2020 03:10:00 10.4 C 6.65 g/m*3 10.4 C 4.8 km/h
904 25-04-2020 03:15:00 10.5 C 6.69 g/m*3 9.95 C 6.4 km/h
905 25-04-2020 03:20:00 10.6 C 6.73 g/m*3 9.4 C 9.7 km/h
906 25-04-2020 03:25:00 10.5 C 6.69 g/m*3 9.28 C 9.7 km/h
907 25-04-2020 03:30:00 10.4 C 6.65 g/m*3 10.4 C 1.6 km/h
908 25-04-2020 03:35:00 10.3 C 6.7 g/m*3 9.04 C 9.7 km/h
909 25-04-2020 03:40:00 10.1 C 6.62 g/m*3 10.1 C 1.6 km/h
910 25-04-2020 03:45:00 9.9 C 6.63 g/m*3 9.9 C 1.6 km/h
911 25-04-2020 03:50:00 9.7 C 6.55 g/m*3 9.7 C 4.8 km/h
912 25-04-2020 03:55:00 9.7 C 6.45 g/m*3 9.02 C 6.4 km/h
913 25-04-2020 04:00:00 9.7 C 6.45 g/m*3 9.02 C 6.4 km/h
914 25-04-2020 04:05:00 9.7 C 6.45 g/m*3 9.7 C 3.2 km/h
915 25-04-2020 04:10:00 9.6 C 6.5 g/m*3 8.91 C 6.4 km/h
916 25-04-2020 04:15:00 9.5 C 6.46 g/m*3 8.09 C 9.7 km/h
917 25-04-2020 04:20:00 9.6 C 6.6 g/m*3 7.94 C 11.3 km/h
918 25-04-2020 04:25:00 9.6 C 6.6 g/m*3 8.21 C 9.7 km/h
919 25-04-2020 04:30:00 9.6 C 6.6 g/m*3 9.6 C 4.8 km/h
920 25-04-2020 04:35:00 9.5 C 6.64 g/m*3 8.09 C 9.7 km/h
921 25-04-2020 04:40:00 9.4 C 6.6 g/m*3 9.4 C 4.8 km/h
922 25-04-2020 04:45:00 9.2 C 6.61 g/m*3 9.2 C 3.2 km/h
923 25-04-2020 04:50:00 9 C 6.61 g/m*3 8.21 C 6.4 km/h
924 25-04-2020 04:55:00 8.9 C 6.66 g/m*3 7.37 C 9.7 km/h
925 25-04-2020 05:00:00 8.8 C 6.7 g/m*3 8.8 C 3.2 km/h
Sensor: Nr:Datum:Temp:Abs-Feuchte:Windchill:Wind:
Aussen-T/F 926 25-04-2020 05:05:00 8.7 C 6.66 g/m*3 8.7 C 3.2 km/h
927 25-04-2020 05:10:00 8.7 C 6.75 g/m*3 7.87 C 6.4 km/h
928 25-04-2020 05:15:00 8.6 C 6.7 g/m*3 8.6 C 1.6 km/h
929 25-04-2020 05:20:00 8.4 C 6.62 g/m*3 8.4 C 0 km/h
930 25-04-2020 05:25:00 8.2 C 6.62 g/m*3 8.2 C 3.2 km/h
931 25-04-2020 05:30:00 8.1 C 6.74 g/m*3 7.17 C 6.4 km/h
932 25-04-2020 05:35:00 8 C 6.78 g/m*3 8 C 1.6 km/h
933 25-04-2020 05:40:00 7.9 C 6.82 g/m*3 6.94 C 6.4 km/h
934 25-04-2020 05:45:00 7.9 C 6.9 g/m*3 6.18 C 9.7 km/h
935 25-04-2020 05:50:00 8 C 6.94 g/m*3 6.01 C 11.3 km/h
936 25-04-2020 05:55:00 8.1 C 6.99 g/m*3 8.1 C 3.2 km/h
937 25-04-2020 06:00:00 8.1 C 6.99 g/m*3 8.1 C 3.2 km/h
938 25-04-2020 06:05:00 8.2 C 7.03 g/m*3 8.2 C 4.8 km/h
939 25-04-2020 06:10:00 8.2 C 6.95 g/m*3 8.2 C 4.8 km/h
940 25-04-2020 06:15:00 8.3 C 7 g/m*3 6.99 C 8.1 km/h
941 25-04-2020 06:20:00 8.3 C 7 g/m*3 7.41 C 6.4 km/h
942 25-04-2020 06:25:00 8.4 C 7.04 g/m*3 8.4 C 4.8 km/h
943 25-04-2020 06:30:00 8.4 C 7.04 g/m*3 6.78 C 9.7 km/h
944 25-04-2020 06:35:00 8.4 C 6.96 g/m*3 6.49 C 11.3 km/h
945 25-04-2020 06:40:00 8.5 C 6.92 g/m*3 5.92 C 16.1 km/h
946 25-04-2020 06:45:00 8.5 C 6.92 g/m*3 6.61 C 11.3 km/h
947 25-04-2020 06:50:00 8.5 C 6.83 g/m*3 6.9 C 9.7 km/h
948 25-04-2020 06:55:00 8.5 C 6.83 g/m*3 8.5 C 4.8 km/h
949 25-04-2020 07:00:00 8.4 C 6.79 g/m*3 8.4 C 4.8 km/h
950 25-04-2020 07:05:00 8.4 C 6.79 g/m*3 7.11 C 8.1 km/h
Sensor: Nr:Datum:Temp:Abs-Feuchte:Windchill:Wind:
Aussen-T/F 951 25-04-2020 07:10:00 8.5 C 6.83 g/m*3 7.22 C 8.1 km/h
952 25-04-2020 07:15:00 8.5 C 6.74 g/m*3 7.22 C 8.1 km/h
953 25-04-2020 07:20:00 8.5 C 6.74 g/m*3 6.61 C 11.3 km/h
954 25-04-2020 07:25:00 8.5 C 6.74 g/m*3 6.9 C 9.7 km/h
955 25-04-2020 07:30:00 8.5 C 6.74 g/m*3 8.5 C 4.8 km/h
956 25-04-2020 07:35:00 8.5 C 6.74 g/m*3 6.61 C 11.3 km/h
957 25-04-2020 07:40:00 8.5 C 6.74 g/m*3 7.22 C 8.1 km/h
958 25-04-2020 07:45:00 8.5 C 6.74 g/m*3 7.64 C 6.4 km/h
959 25-04-2020 07:50:00 8.6 C 6.79 g/m*3 8.6 C 4.8 km/h
960 25-04-2020 07:55:00 8.5 C 6.74 g/m*3 7.64 C 6.4 km/h
961 25-04-2020 08:00:00 8.5 C 6.66 g/m*3 6.61 C 11.3 km/h
962 25-04-2020 08:05:00 8.5 C 6.66 g/m*3 6.61 C 11.3 km/h
963 25-04-2020 08:10:00 8.6 C 6.7 g/m*3 8.6 C 4.8 km/h
964 25-04-2020 08:15:00 8.6 C 6.7 g/m*3 7.34 C 8.1 km/h
965 25-04-2020 08:20:00 8.6 C 6.62 g/m*3 7.75 C 6.4 km/h
966 25-04-2020 08:25:00 8.6 C 6.62 g/m*3 7.34 C 8.1 km/h
967 25-04-2020 08:30:00 8.6 C 6.62 g/m*3 8.6 C 4.8 km/h
968 25-04-2020 08:35:00 8.6 C 6.62 g/m*3 7.34 C 8.1 km/h
969 25-04-2020 08:40:00 8.7 C 6.66 g/m*3 7.46 C 8.1 km/h
970 25-04-2020 08:45:00 8.6 C 6.53 g/m*3 6.48 C 12.9 km/h
971 25-04-2020 08:50:00 8.6 C 6.44 g/m*3 6.73 C 11.3 km/h
972 25-04-2020 08:55:00 8.6 C 6.44 g/m*3 7.01 C 9.7 km/h
973 25-04-2020 09:00:00 8.7 C 6.49 g/m*3 7.46 C 8.1 km/h
974 25-04-2020 09:05:00 8.7 C 6.4 g/m*3 7.13 C 9.7 km/h
975 25-04-2020 09:10:00 8.8 C 6.44 g/m*3 7.58 C 8.1 km/h
Sensor: Nr:Datum:Temp:Abs-Feuchte:Windchill:Wind:
Aussen-T/F 976 25-04-2020 09:15:00 8.9 C 6.48 g/m*3 7.09 C 11.3 km/h
977 25-04-2020 09:20:00 8.9 C 6.39 g/m*3 7.09 C 11.3 km/h
978 25-04-2020 09:25:00 9.1 C 6.48 g/m*3 8.33 C 6.4 km/h
979 25-04-2020 09:30:00 9.2 C 6.52 g/m*3 7.73 C 9.7 km/h
980 25-04-2020 09:35:00 9.2 C 6.43 g/m*3 8.05 C 8.1 km/h
981 25-04-2020 09:40:00 9.2 C 6.43 g/m*3 7.73 C 9.7 km/h
982 25-04-2020 09:45:00 9.2 C 6.43 g/m*3 8.05 C 8.1 km/h
983 25-04-2020 09:50:00 9.2 C 6.43 g/m*3 7.73 C 9.7 km/h
984 25-04-2020 09:55:00 9.2 C 6.43 g/m*3 8.45 C 6.4 km/h
985 25-04-2020 10:00:00 9.3 C 6.47 g/m*3 8.16 C 8.1 km/h
986 25-04-2020 10:05:00 9.4 C 6.42 g/m*3 9.4 C 4.8 km/h
987 25-04-2020 10:10:00 9.4 C 6.33 g/m*3 8.28 C 8.1 km/h
988 25-04-2020 10:15:00 9.5 C 6.37 g/m*3 8.4 C 8.1 km/h
989 25-04-2020 10:20:00 9.6 C 6.32 g/m*3 8.21 C 9.7 km/h
990 25-04-2020 10:25:00 9.6 C 6.41 g/m*3 8.91 C 6.4 km/h
991 25-04-2020 10:30:00 9.7 C 6.36 g/m*3 8.33 C 9.7 km/h
992 25-04-2020 10:35:00 9.7 C 6.36 g/m*3 8.63 C 8.1 km/h
993 25-04-2020 10:40:00 9.8 C 6.4 g/m*3 9.14 C 6.4 km/h
994 25-04-2020 10:45:00 9.8 C 6.31 g/m*3 9.14 C 6.4 km/h
995 25-04-2020 10:50:00 9.8 C 6.31 g/m*3 8.45 C 9.7 km/h
996 25-04-2020 10:55:00 9.9 C 6.35 g/m*3 9.9 C 3.2 km/h
997 25-04-2020 11:00:00 10.1 C 6.34 g/m*3 8.8 C 9.7 km/h
998 25-04-2020 11:05:00 10.3 C 6.42 g/m*3 9.72 C 6.4 km/h
999 25-04-2020 11:10:00 10.5 C 6.4 g/m*3 9.02 C 11.3 km/h
1000 25-04-2020 11:15:00 10.5 C 6.5 g/m*3 9.02 C 11.3 km/h
Sensor: Nr:Datum:Temp:Abs-Feuchte:Windchill:Wind:
Aussen-T/F 1001 25-04-2020 11:20:00 10.5 C 6.4 g/m*3 9.57 C 8.1 km/h
1002 25-04-2020 11:25:00 10.5 C 6.4 g/m*3 9.57 C 8.1 km/h
1003 25-04-2020 11:30:00 10.5 C 6.4 g/m*3 9.57 C 8.1 km/h
1004 25-04-2020 11:35:00 10.4 C 6.17 g/m*3 10.4 C 4.8 km/h
1005 25-04-2020 11:40:00 10.3 C 6.32 g/m*3 9.34 C 8.1 km/h
1006 25-04-2020 11:45:00 10.4 C 6.36 g/m*3 10.4 C 4.8 km/h
1007 25-04-2020 11:50:00 10.5 C 6.4 g/m*3 9.57 C 8.1 km/h
1008 25-04-2020 11:55:00 10.7 C 6.38 g/m*3 9.81 C 8.1 km/h
1009 25-04-2020 12:00:00 10.7 C 6.29 g/m*3 9.26 C 11.3 km/h
1010 25-04-2020 12:05:00 10.7 C 6.29 g/m*3 10.7 C 4.8 km/h
1011 25-04-2020 12:10:00 10.8 C 6.42 g/m*3 10.8 C 4.8 km/h
1012 25-04-2020 12:15:00 11 C 6.51 g/m*3 9.63 C 11.3 km/h
1013 25-04-2020 12:20:00 11.2 C 6.28 g/m*3 11.2 C 11.3 km/h
1014 25-04-2020 12:25:00 11.3 C 6.32 g/m*3 11.3 C 9.7 km/h
1015 25-04-2020 12:30:00 11.3 C 6.43 g/m*3 11.3 C 4.8 km/h
1016 25-04-2020 12:35:00 11.3 C 6.32 g/m*3 11.3 C 6.4 km/h
1017 25-04-2020 12:40:00 11.3 C 6.22 g/m*3 11.3 C 12.9 km/h
1018 25-04-2020 12:45:00 11.4 C 6.47 g/m*3 11.4 C 4.8 km/h
1019 25-04-2020 12:50:00 11.7 C 6.48 g/m*3 11.7 C 11.3 km/h
1020 25-04-2020 12:55:00 11.9 C 6.35 g/m*3 11.9 C 11.3 km/h
1021 25-04-2020 13:00:00 11.9 C 6.35 g/m*3 11.9 C 1.6 km/h
1022 25-04-2020 13:05:00 11.9 C 6.35 g/m*3 11.9 C 1.6 km/h
1023 25-04-2020 13:10:00 11.9 C 6.35 g/m*3 11.9 C 8.1 km/h
1024 25-04-2020 13:15:00 12.1 C 6.54 g/m*3 12.1 C 8.1 km/h
1025 25-04-2020 13:20:00 12.6 C 6.53 g/m*3 12.6 C 14.5 km/h
Sensor: Nr:Datum:Temp:Abs-Feuchte:Windchill:Wind:
Aussen-T/F 1026 25-04-2020 13:25:00 12.7 C 6.57 g/m*3 12.7 C 8.1 km/h
1027 25-04-2020 13:30:00 12.7 C 6.57 g/m*3 12.7 C 9.7 km/h
1028 25-04-2020 13:35:00 12.7 C 6.57 g/m*3 12.7 C 6.4 km/h
1029 25-04-2020 13:40:00 12.8 C 6.5 g/m*3 12.8 C 6.4 km/h
1030 25-04-2020 13:45:00 13.1 C 6.39 g/m*3 13.1 C 11.3 km/h
1031 25-04-2020 13:50:00 13.2 C 6.32 g/m*3 13.2 C 8.1 km/h
1032 25-04-2020 13:55:00 13.3 C 6.35 g/m*3 13.3 C 8.1 km/h
1033 25-04-2020 14:00:00 13.3 C 6.35 g/m*3 13.3 C 11.3 km/h
1034 25-04-2020 14:05:00 13.4 C 6.63 g/m*3 13.4 C 4.8 km/h
1035 25-04-2020 14:10:00 13.5 C 6.55 g/m*3 13.5 C 4.8 km/h
1036 25-04-2020 14:15:00 13.6 C 6.71 g/m*3 13.6 C 6.4 km/h
1037 25-04-2020 14:20:00 13.7 C 6.51 g/m*3 13.7 C 4.8 km/h
1038 25-04-2020 14:25:00 13.9 C 6.47 g/m*3 13.9 C 11.3 km/h
1039 25-04-2020 14:30:00 14.1 C 6.43 g/m*3 14.1 C 6.4 km/h
1040 25-04-2020 14:35:00 14.1 C 6.55 g/m*3 14.1 C 14.5 km/h
1041 25-04-2020 14:40:00 14.3 C 6.51 g/m*3 14.3 C 8.1 km/h
1042 25-04-2020 14:45:00 14.3 C 6.39 g/m*3 14.3 C 6.4 km/h
1043 25-04-2020 14:50:00 14.4 C 6.43 g/m*3 14.4 C 9.7 km/h
1044 25-04-2020 14:55:00 14.5 C 6.59 g/m*3 14.5 C 9.7 km/h
1045 25-04-2020 15:00:00 14.8 C 6.59 g/m*3 14.8 C 9.7 km/h
1046 25-04-2020 15:05:00 14.9 C 6.63 g/m*3 14.9 C 4.8 km/h
1047 25-04-2020 15:10:00 15.2 C 6.49 g/m*3 15.2 C 4.8 km/h
1048 25-04-2020 15:15:00 15.2 C 6.62 g/m*3 15.2 C 8.1 km/h
1049 25-04-2020 15:20:00 15.3 C 6.66 g/m*3 15.3 C 6.4 km/h
1050 25-04-2020 15:25:00 15.4 C 6.7 g/m*3 15.4 C 11.3 km/h
Sensor: Nr:Datum:Temp:Abs-Feuchte:Windchill:Wind:
Aussen-T/F 1051 25-04-2020 15:30:00 15.7 C 6.82 g/m*3 15.7 C 8.1 km/h
1052 25-04-2020 15:35:00 15.8 C 6.46 g/m*3 15.8 C 4.8 km/h
1053 25-04-2020 15:40:00 16.1 C 6.58 g/m*3 16.1 C 8.1 km/h
1054 25-04-2020 15:45:00 16.4 C 6.7 g/m*3 16.4 C 11.3 km/h
1055 25-04-2020 15:50:00 16.7 C 6.82 g/m*3 16.7 C 6.4 km/h
1056 25-04-2020 15:55:00 17.1 C 6.7 g/m*3 17.1 C 9.7 km/h
1057 25-04-2020 16:00:00 17.1 C 6.7 g/m*3 17.1 C 6.4 km/h
1058 25-04-2020 16:05:00 16.9 C 6.33 g/m*3 16.9 C 11.3 km/h
1059 25-04-2020 16:10:00 16.9 C 6.47 g/m*3 16.9 C 4.8 km/h
1060 25-04-2020 16:15:00 17.1 C 6.7 g/m*3 17.1 C 6.4 km/h
1061 25-04-2020 16:20:00 17.3 C 6.63 g/m*3 17.3 C 4.8 km/h
1062 25-04-2020 16:25:00 17.6 C 6.6 g/m*3 17.6 C 11.3 km/h
1063 25-04-2020 16:30:00 17.8 C 6.68 g/m*3 17.8 C 8.1 km/h
1064 25-04-2020 16:35:00 18 C 6.76 g/m*3 18 C 8.1 km/h
1065 25-04-2020 16:40:00 18.2 C 6.84 g/m*3 18.2 C 6.4 km/h
1066 25-04-2020 16:45:00 18.5 C 6.65 g/m*3 18.5 C 8.1 km/h
1067 25-04-2020 16:50:00 18.3 C 6.57 g/m*3 18.3 C 14.5 km/h
1068 25-04-2020 16:55:00 18.3 C 6.41 g/m*3 18.3 C 8.1 km/h
1069 25-04-2020 17:00:00 18.4 C 6.45 g/m*3 18.4 C 8.1 km/h
1070 25-04-2020 17:05:00 18.6 C 6.53 g/m*3 18.6 C 9.7 km/h
1071 25-04-2020 17:10:00 18.8 C 6.6 g/m*3 18.8 C 8.1 km/h
1072 25-04-2020 17:15:00 19 C 6.68 g/m*3 19 C 9.7 km/h
1073 25-04-2020 17:20:00 19.1 C 6.56 g/m*3 19.1 C 8.1 km/h
1074 25-04-2020 17:25:00 19.2 C 6.76 g/m*3 19.2 C 6.4 km/h
1075 25-04-2020 17:30:00 19.3 C 6.47 g/m*3 19.3 C 8.1 km/h
Sensor: Nr:Datum:Temp:Abs-Feuchte:Windchill:Wind:
Aussen-T/F 1076 25-04-2020 17:35:00 19.2 C 6.43 g/m*3 19.2 C 6.4 km/h
1077 25-04-2020 17:40:00 19.1 C 6.39 g/m*3 19.1 C 6.4 km/h
1078 25-04-2020 17:45:00 19.2 C 6.6 g/m*3 19.2 C 6.4 km/h
1079 25-04-2020 17:50:00 19.3 C 6.63 g/m*3 19.3 C 8.1 km/h
1080 25-04-2020 17:55:00 19.3 C 6.47 g/m*3 19.3 C 8.1 km/h
1081 25-04-2020 18:00:00 19.3 C 6.47 g/m*3 19.3 C 8.1 km/h
1082 25-04-2020 18:05:00 19.3 C 6.63 g/m*3 19.3 C 4.8 km/h
1083 25-04-2020 18:10:00 19.3 C 6.63 g/m*3 19.3 C 12.9 km/h
1084 25-04-2020 18:15:00 19.1 C 6.56 g/m*3 19.1 C 11.3 km/h
1085 25-04-2020 18:20:00 18.9 C 6.48 g/m*3 18.9 C 9.7 km/h
1086 25-04-2020 18:25:00 18.8 C 6.6 g/m*3 18.8 C 9.7 km/h
1087 25-04-2020 18:30:00 18.8 C 6.76 g/m*3 18.8 C 8.1 km/h
1088 25-04-2020 18:35:00 18.7 C 6.56 g/m*3 18.7 C 11.3 km/h
1089 25-04-2020 18:40:00 18.6 C 6.53 g/m*3 18.6 C 12.9 km/h
1090 25-04-2020 18:45:00 18.4 C 6.76 g/m*3 18.4 C 9.7 km/h
1091 25-04-2020 18:50:00 18.4 C 6.76 g/m*3 18.4 C 4.8 km/h
1092 25-04-2020 18:55:00 18.3 C 7.51 g/m*3 18.3 C 8.1 km/h
1093 25-04-2020 19:00:00 18.2 C 6.84 g/m*3 18.2 C 4.8 km/h
1094 25-04-2020 19:05:00 18.1 C 6.8 g/m*3 18.1 C 8.1 km/h
1095 25-04-2020 19:10:00 17.9 C 6.87 g/m*3 17.9 C 8.1 km/h
1096 25-04-2020 19:15:00 17.7 C 6.94 g/m*3 17.7 C 8.1 km/h
1097 25-04-2020 19:20:00 17.4 C 6.82 g/m*3 17.4 C 6.4 km/h
1098 25-04-2020 19:25:00 17.2 C 6.59 g/m*3 17.2 C 9.7 km/h
1099 25-04-2020 19:30:00 16.9 C 6.33 g/m*3 16.9 C 6.4 km/h
1100 25-04-2020 19:35:00 16.7 C 6.54 g/m*3 16.7 C 4.8 km/h
Sensor: Nr:Datum:Temp:Abs-Feuchte:Windchill:Wind:
Aussen-T/F 1101 25-04-2020 19:40:00 16.6 C 6.5 g/m*3 16.6 C 6.4 km/h
1102 25-04-2020 19:45:00 16.4 C 6.42 g/m*3 16.4 C 6.4 km/h
1103 25-04-2020 19:50:00 16.3 C 6.38 g/m*3 16.3 C 6.4 km/h
1104 25-04-2020 19:55:00 16.1 C 6.31 g/m*3 16.1 C 8.1 km/h
1105 25-04-2020 20:00:00 15.9 C 6.23 g/m*3 15.9 C 6.4 km/h
1106 25-04-2020 20:05:00 15.8 C 6.19 g/m*3 15.8 C 3.2 km/h
1107 25-04-2020 20:10:00 15.8 C 6.87 g/m*3 15.8 C 1.6 km/h
1108 25-04-2020 20:15:00 15.6 C 6.65 g/m*3 15.6 C 1.6 km/h
1109 25-04-2020 20:20:00 15.3 C 6.66 g/m*3 15.3 C 1.6 km/h
1110 25-04-2020 20:25:00 14.9 C 6.75 g/m*3 14.9 C 1.6 km/h
1111 25-04-2020 20:30:00 14.3 C 6.39 g/m*3 14.3 C 4.8 km/h
1112 25-04-2020 20:35:00 14 C 6.63 g/m*3 14 C 3.2 km/h
1113 25-04-2020 20:40:00 13.7 C 6.63 g/m*3 13.7 C 6.4 km/h
1114 25-04-2020 20:45:00 13.2 C 6.77 g/m*3 13.2 C 4.8 km/h
1115 25-04-2020 20:50:00 12.9 C 6.31 g/m*3 12.9 C 3.2 km/h
1116 25-04-2020 20:55:00 12.8 C 6.5 g/m*3 12.8 C 6.4 km/h
1117 25-04-2020 21:00:00 12.7 C 6.57 g/m*3 12.7 C 4.8 km/h
1118 25-04-2020 21:05:00 12.4 C 6.45 g/m*3 12.4 C 6.4 km/h
1119 25-04-2020 21:10:00 12.2 C 6.37 g/m*3 12.2 C 4.8 km/h
1120 25-04-2020 21:15:00 12.1 C 6.54 g/m*3 12.1 C 4.8 km/h
1121 25-04-2020 21:20:00 11.8 C 6.42 g/m*3 11.8 C 4.8 km/h
1122 25-04-2020 21:25:00 11.6 C 6.44 g/m*3 11.6 C 4.8 km/h
1123 25-04-2020 21:30:00 11.4 C 6.47 g/m*3 11.4 C 1.6 km/h
1124 25-04-2020 21:35:00 11.2 C 6.39 g/m*3 11.2 C 3.2 km/h
1125 25-04-2020 21:40:00 11.1 C 6.35 g/m*3 11.1 C 1.6 km/h
Sensor: Nr:Datum:Temp:Abs-Feuchte:Windchill:Wind:
Aussen-T/F 1126 25-04-2020 21:45:00 11.1 C 6.45 g/m*3 11.1 C 1.6 km/h
1127 25-04-2020 21:50:00 11.1 C 6.35 g/m*3 11.1 C 3.2 km/h
1128 25-04-2020 21:55:00 11.1 C 6.35 g/m*3 11.1 C 3.2 km/h
1129 25-04-2020 22:00:00 11 C 6.21 g/m*3 9.63 C 11.3 km/h
1130 25-04-2020 22:05:00 11.1 C 6.35 g/m*3 11.1 C 9.7 km/h
1131 25-04-2020 22:10:00 11.1 C 6.45 g/m*3 11.1 C 3.2 km/h
1132 25-04-2020 22:15:00 10.9 C 6.37 g/m*3 10.9 C 3.2 km/h
1133 25-04-2020 22:20:00 10.7 C 6.38 g/m*3 10.18 C 6.4 km/h
1134 25-04-2020 22:25:00 10.5 C 6.4 g/m*3 9.95 C 6.4 km/h
1135 25-04-2020 22:30:00 10.3 C 6.22 g/m*3 9.72 C 6.4 km/h
1136 25-04-2020 22:35:00 10.3 C 6.42 g/m*3 10.3 C 4.8 km/h
1137 25-04-2020 22:40:00 10.2 C 6.38 g/m*3 10.2 C 3.2 km/h
1138 25-04-2020 22:45:00 10.1 C 6.43 g/m*3 10.1 C 4.8 km/h
1139 25-04-2020 22:50:00 9.9 C 6.35 g/m*3 9.9 C 1.6 km/h
1140 25-04-2020 22:55:00 9.8 C 6.4 g/m*3 9.8 C 3.2 km/h
1141 25-04-2020 23:00:00 9.7 C 6.36 g/m*3 9.7 C 3.2 km/h
1142 25-04-2020 23:05:00 9.6 C 6.32 g/m*3 8.91 C 6.4 km/h
1143 25-04-2020 23:10:00 9.6 C 6.41 g/m*3 8.91 C 6.4 km/h
1144 25-04-2020 23:15:00 9.5 C 6.37 g/m*3 8.79 C 6.4 km/h
1145 25-04-2020 23:20:00 9.4 C 6.42 g/m*3 9.4 C 3.2 km/h
1146 25-04-2020 23:25:00 9.3 C 6.38 g/m*3 9.3 C 3.2 km/h
1147 25-04-2020 23:30:00 9.2 C 6.43 g/m*3 9.2 C 1.6 km/h
1148 25-04-2020 23:35:00 9.1 C 6.39 g/m*3 9.1 C 0 km/h
1149 25-04-2020 23:40:00 9 C 6.35 g/m*3 9 C 0 km/h
1150 25-04-2020 23:45:00 8.8 C 6.35 g/m*3 8.8 C 0 km/h
Sensor: Nr:Datum:Temp:Abs-Feuchte:Windchill:Wind:
Aussen-T/F 1151 25-04-2020 23:50:00 8.6 C 6.36 g/m*3 8.6 C 0 km/h
1152 25-04-2020 23:55:00 8.4 C 6.28 g/m*3 8.4 C 0 km/h
1153 26-04-2020 00:00:00 8.3 C 6.24 g/m*3 8.3 C 0 km/h
1154 26-04-2020 00:05:00 8.1 C 6.24 g/m*3 8.1 C 0 km/h
1155 26-04-2020 00:10:00 7.9 C 6.24 g/m*3 7.9 C 0 km/h
1156 26-04-2020 00:15:00 7.8 C 6.28 g/m*3 7.8 C 0 km/h
1157 26-04-2020 00:20:00 7.6 C 6.28 g/m*3 7.6 C 0 km/h
1158 26-04-2020 00:25:00 7.4 C 6.28 g/m*3 7.4 C 0 km/h
1159 26-04-2020 00:30:00 7.3 C 6.24 g/m*3 7.3 C 0 km/h
1160 26-04-2020 00:35:00 7.2 C 6.2 g/m*3 7.2 C 0 km/h
1161 26-04-2020 00:40:00 7.1 C 6.24 g/m*3 7.1 C 0 km/h
1162 26-04-2020 00:45:00 7 C 6.2 g/m*3 7 C 0 km/h
1163 26-04-2020 00:50:00 6.9 C 6.24 g/m*3 6.9 C 0 km/h
1164 26-04-2020 00:55:00 6.8 C 6.19 g/m*3 6.8 C 1.6 km/h
1165 26-04-2020 01:00:00 6.6 C 6.19 g/m*3 6.6 C 1.6 km/h
1166 26-04-2020 01:05:00 6.6 C 6.19 g/m*3 6.6 C 0 km/h
1167 26-04-2020 01:10:00 6.4 C 6.11 g/m*3 6.4 C 0 km/h
1168 26-04-2020 01:15:00 6.3 C 6.14 g/m*3 6.3 C 0 km/h
1169 26-04-2020 01:20:00 6.2 C 6.1 g/m*3 6.2 C 0 km/h
1170 26-04-2020 01:25:00 6.2 C 6.1 g/m*3 6.2 C 0 km/h
1171 26-04-2020 01:30:00 6.1 C 6.14 g/m*3 6.1 C 0 km/h
1172 26-04-2020 01:35:00 6 C 6.1 g/m*3 6 C 0 km/h
1173 26-04-2020 01:40:00 5.9 C 6.06 g/m*3 5.9 C 0 km/h
1174 26-04-2020 01:45:00 5.8 C 6.02 g/m*3 5.8 C 0 km/h
1175 26-04-2020 01:50:00 5.7 C 6.05 g/m*3 5.7 C 0 km/h
Sensor: Nr:Datum:Temp:Abs-Feuchte:Windchill:Wind:
Aussen-T/F 1176 26-04-2020 01:55:00 5.7 C 6.05 g/m*3 5.7 C 0 km/h
1177 26-04-2020 02:00:00 5.6 C 6.01 g/m*3 5.6 C 0 km/h
1178 26-04-2020 02:05:00 5.5 C 5.97 g/m*3 5.5 C 0 km/h
1179 26-04-2020 02:10:00 5.4 C 6 g/m*3 5.4 C 0 km/h
1180 26-04-2020 02:15:00 5.4 C 6 g/m*3 5.4 C 0 km/h
1181 26-04-2020 02:20:00 5.3 C 5.96 g/m*3 5.3 C 0 km/h
1182 26-04-2020 02:25:00 5.3 C 6.03 g/m*3 5.3 C 1.6 km/h
1183 26-04-2020 02:30:00 5.3 C 6.03 g/m*3 5.3 C 0 km/h
1184 26-04-2020 02:35:00 5.2 C 5.99 g/m*3 5.2 C 0 km/h
1185 26-04-2020 02:40:00 5.2 C 5.99 g/m*3 5.2 C 4.8 km/h
1186 26-04-2020 02:45:00 5.2 C 5.99 g/m*3 5.2 C 0 km/h
1187 26-04-2020 02:50:00 5.3 C 6.03 g/m*3 5.3 C 0 km/h
1188 26-04-2020 02:55:00 5.2 C 5.99 g/m*3 5.2 C 0 km/h
1189 26-04-2020 03:00:00 5.2 C 5.99 g/m*3 5.2 C 0 km/h
1190 26-04-2020 03:05:00 5.1 C 5.95 g/m*3 5.1 C 0 km/h
1191 26-04-2020 03:10:00 4.9 C 5.87 g/m*3 4.9 C 0 km/h
1192 26-04-2020 03:15:00 4.9 C 5.94 g/m*3 4.9 C 1.6 km/h
1193 26-04-2020 03:20:00 4.8 C 5.9 g/m*3 4.8 C 1.6 km/h
1194 26-04-2020 03:25:00 4.8 C 5.9 g/m*3 4.8 C 0 km/h
1195 26-04-2020 03:30:00 4.7 C 5.86 g/m*3 4.7 C 0 km/h
1196 26-04-2020 03:35:00 4.7 C 5.86 g/m*3 4.7 C 1.6 km/h
1197 26-04-2020 03:40:00 4.6 C 5.89 g/m*3 4.6 C 0 km/h
1198 26-04-2020 03:45:00 4.6 C 5.89 g/m*3 4.6 C 0 km/h
1199 26-04-2020 03:50:00 4.5 C 5.85 g/m*3 4.5 C 0 km/h
1200 26-04-2020 03:55:00 4.4 C 5.81 g/m*3 4.4 C 0 km/h
Sensor: Nr:Datum:Temp:Abs-Feuchte:Windchill:Wind:
Aussen-T/F 1201 26-04-2020 04:00:00 4.4 C 5.81 g/m*3 4.4 C 0 km/h
1202 26-04-2020 04:05:00 4.4 C 5.81 g/m*3 4.4 C 0 km/h
1203 26-04-2020 04:10:00 4.3 C 5.77 g/m*3 4.3 C 0 km/h
1204 26-04-2020 04:15:00 4.2 C 5.73 g/m*3 4.2 C 0 km/h
1205 26-04-2020 04:20:00 4.1 C 5.7 g/m*3 4.1 C 0 km/h
1206 26-04-2020 04:25:00 4 C 5.66 g/m*3 4 C 0 km/h
1207 26-04-2020 04:30:00 3.9 C 5.68 g/m*3 3.9 C 0 km/h
1208 26-04-2020 04:35:00 3.9 C 5.68 g/m*3 3.9 C 0 km/h
1209 26-04-2020 04:40:00 3.9 C 5.68 g/m*3 3.9 C 0 km/h
1210 26-04-2020 04:45:00 3.8 C 5.71 g/m*3 3.8 C 0 km/h
1211 26-04-2020 04:50:00 3.8 C 5.71 g/m*3 3.8 C 0 km/h
1212 26-04-2020 04:55:00 3.7 C 5.67 g/m*3 3.7 C 0 km/h
1213 26-04-2020 05:00:00 3.7 C 5.67 g/m*3 3.7 C 0 km/h
1214 26-04-2020 05:05:00 3.7 C 5.67 g/m*3 3.7 C 0 km/h
1215 26-04-2020 05:10:00 3.7 C 5.67 g/m*3 3.7 C 0 km/h
1216 26-04-2020 05:15:00 3.6 C 5.63 g/m*3 3.6 C 0 km/h
1217 26-04-2020 05:20:00 3.6 C 5.63 g/m*3 3.6 C 0 km/h
1218 26-04-2020 05:25:00 3.5 C 5.6 g/m*3 3.5 C 0 km/h
1219 26-04-2020 05:30:00 3.4 C 5.56 g/m*3 3.4 C 0 km/h
1220 26-04-2020 05:35:00 3.4 C 5.62 g/m*3 3.4 C 0 km/h
1221 26-04-2020 05:40:00 3.3 C 5.58 g/m*3 3.3 C 0 km/h
1222 26-04-2020 05:45:00 3.3 C 5.58 g/m*3 3.3 C 0 km/h
1223 26-04-2020 05:50:00 3.3 C 5.52 g/m*3 3.3 C 0 km/h
1224 26-04-2020 05:55:00 3.2 C 5.54 g/m*3 3.2 C 0 km/h
1225 26-04-2020 06:00:00 3.1 C 5.51 g/m*3 3.1 C 0 km/h
Sensor: Nr:Datum:Temp:Abs-Feuchte:Windchill:Wind:
Aussen-T/F 1226 26-04-2020 06:05:00 3 C 5.47 g/m*3 3 C 0 km/h
1227 26-04-2020 06:10:00 3 C 5.47 g/m*3 3 C 0 km/h
1228 26-04-2020 06:15:00 3 C 5.47 g/m*3 3 C 0 km/h
1229 26-04-2020 06:20:00 2.9 C 5.43 g/m*3 2.9 C 0 km/h
1230 26-04-2020 06:25:00 2.9 C 5.43 g/m*3 2.9 C 0 km/h
1231 26-04-2020 06:30:00 2.9 C 5.43 g/m*3 2.9 C 0 km/h
1232 26-04-2020 06:35:00 2.9 C 5.49 g/m*3 2.9 C 0 km/h
1233 26-04-2020 06:40:00 2.9 C 5.49 g/m*3 2.9 C 0 km/h
1234 26-04-2020 06:45:00 2.9 C 5.43 g/m*3 2.9 C 0 km/h
1235 26-04-2020 06:50:00 2.8 C 5.46 g/m*3 2.8 C 0 km/h
1236 26-04-2020 06:55:00 2.8 C 5.46 g/m*3 2.8 C 0 km/h
1237 26-04-2020 07:00:00 2.8 C 5.46 g/m*3 2.8 C 0 km/h
1238 26-04-2020 07:05:00 2.9 C 5.49 g/m*3 2.9 C 0 km/h
1239 26-04-2020 07:10:00 2.9 C 5.49 g/m*3 2.9 C 0 km/h
1240 26-04-2020 07:15:00 2.9 C 5.49 g/m*3 2.9 C 0 km/h
1241 26-04-2020 07:20:00 3.1 C 5.57 g/m*3 3.1 C 0 km/h
1242 26-04-2020 07:25:00 3.1 C 5.57 g/m*3 3.1 C 0 km/h
1243 26-04-2020 07:30:00 3.2 C 5.6 g/m*3 3.2 C 0 km/h
1244 26-04-2020 07:35:00 3.2 C 5.6 g/m*3 3.2 C 0 km/h
1245 26-04-2020 07:40:00 3.2 C 5.66 g/m*3 3.2 C 0 km/h
1246 26-04-2020 07:45:00 3.2 C 5.66 g/m*3 3.2 C 0 km/h
1247 26-04-2020 07:50:00 3.3 C 5.7 g/m*3 3.3 C 0 km/h
1248 26-04-2020 07:55:00 3.3 C 5.7 g/m*3 3.3 C 0 km/h
1249 26-04-2020 08:00:00 3.4 C 5.74 g/m*3 3.4 C 0 km/h
1250 26-04-2020 08:05:00 3.5 C 5.78 g/m*3 3.5 C 0 km/h
Sensor: Nr:Datum:Temp:Abs-Feuchte:Windchill:Wind:
Aussen-T/F 1251 26-04-2020 08:10:00 3.6 C 5.82 g/m*3 3.6 C 0 km/h
1252 26-04-2020 08:15:00 3.7 C 5.86 g/m*3 3.7 C 1.6 km/h
1253 26-04-2020 08:20:00 3.8 C 5.9 g/m*3 3.8 C 0 km/h
1254 26-04-2020 08:25:00 3.8 C 5.9 g/m*3 3.8 C 0 km/h
1255 26-04-2020 08:30:00 3.9 C 5.94 g/m*3 3.9 C 0 km/h
1256 26-04-2020 08:35:00 4.1 C 6.02 g/m*3 4.1 C 0 km/h
1257 26-04-2020 08:40:00 4.2 C 6.06 g/m*3 4.2 C 0 km/h
1258 26-04-2020 08:45:00 4.3 C 6.16 g/m*3 4.3 C 0 km/h
1259 26-04-2020 08:50:00 4.4 C 6.2 g/m*3 4.4 C 0 km/h
1260 26-04-2020 08:55:00 4.6 C 6.29 g/m*3 4.6 C 0 km/h
1261 26-04-2020 09:00:00 4.7 C 6.33 g/m*3 4.7 C 0 km/h
1262 26-04-2020 09:05:00 4.9 C 6.41 g/m*3 4.9 C 0 km/h
1263 26-04-2020 09:10:00 5.1 C 6.5 g/m*3 5.1 C 0 km/h
1264 26-04-2020 09:15:00 5.2 C 6.54 g/m*3 5.2 C 0 km/h
1265 26-04-2020 09:20:00 5.3 C 6.58 g/m*3 5.3 C 0 km/h
1266 26-04-2020 09:25:00 5.5 C 6.67 g/m*3 5.5 C 0 km/h
1267 26-04-2020 09:30:00 5.7 C 6.76 g/m*3 5.7 C 0 km/h
1268 26-04-2020 09:35:00 5.8 C 6.81 g/m*3 5.8 C 0 km/h
1269 26-04-2020 09:40:00 6 C 6.9 g/m*3 6 C 0 km/h
1270 26-04-2020 09:45:00 6.2 C 6.99 g/m*3 6.2 C 0 km/h
1271 26-04-2020 09:50:00 6.4 C 7.08 g/m*3 6.4 C 0 km/h
1272 26-04-2020 09:55:00 6.6 C 7.17 g/m*3 6.6 C 0 km/h
1273 26-04-2020 10:00:00 6.8 C 7.27 g/m*3 6.8 C 0 km/h
1274 26-04-2020 10:05:00 6.9 C 7.24 g/m*3 6.9 C 0 km/h
1275 26-04-2020 10:10:00 7.2 C 7.38 g/m*3 7.2 C 1.6 km/h
Sensor: Nr:Datum:Temp:Abs-Feuchte:Windchill:Wind:
Aussen-T/F 1276 26-04-2020 10:15:00 7.3 C 7.35 g/m*3 7.3 C 0 km/h
1277 26-04-2020 10:20:00 7.6 C 7.49 g/m*3 7.6 C 0 km/h
1278 26-04-2020 10:25:00 7.8 C 7.51 g/m*3 7.8 C 0 km/h
1279 26-04-2020 10:30:00 8.2 C 7.62 g/m*3 8.2 C 0 km/h
1280 26-04-2020 10:35:00 8.4 C 7.63 g/m*3 8.4 C 0 km/h
1281 26-04-2020 10:40:00 8.7 C 7.7 g/m*3 8.7 C 0 km/h
1282 26-04-2020 10:45:00 8.9 C 7.62 g/m*3 8.9 C 1.6 km/h
1283 26-04-2020 10:50:00 9.3 C 7.64 g/m*3 9.3 C 1.6 km/h
1284 26-04-2020 10:55:00 9.7 C 7.84 g/m*3 9.7 C 0 km/h
1285 26-04-2020 11:00:00 10.1 C 7.94 g/m*3 10.1 C 1.6 km/h
1286 26-04-2020 11:05:00 10.5 C 8.05 g/m*3 10.5 C 0 km/h
1287 26-04-2020 11:10:00 10.9 C 7.86 g/m*3 10.9 C 0 km/h
1288 26-04-2020 11:15:00 11.3 C 7.65 g/m*3 11.3 C 3.2 km/h
1289 26-04-2020 11:20:00 11.8 C 7.58 g/m*3 11.8 C 4.8 km/h
1290 26-04-2020 11:25:00 12.3 C 7.82 g/m*3 12.3 C 1.6 km/h
1291 26-04-2020 11:30:00 12.6 C 7.74 g/m*3 12.6 C 1.6 km/h
1292 26-04-2020 11:35:00 12.8 C 7.5 g/m*3 12.8 C 1.6 km/h
1293 26-04-2020 11:40:00 13.2 C 7.69 g/m*3 13.2 C 1.6 km/h
1294 26-04-2020 11:45:00 13.5 C 7.6 g/m*3 13.5 C 3.2 km/h
1295 26-04-2020 11:50:00 13.7 C 7.46 g/m*3 13.7 C 1.6 km/h
1296 26-04-2020 11:55:00 13.9 C 7.31 g/m*3 13.9 C 0 km/h
1297 26-04-2020 12:00:00 14.2 C 7.33 g/m*3 14.2 C 4.8 km/h
1298 26-04-2020 12:05:00 14.4 C 7.29 g/m*3 14.4 C 3.2 km/h
1299 26-04-2020 12:10:00 14.6 C 7.13 g/m*3 14.6 C 1.6 km/h
1300 26-04-2020 12:15:00 14.8 C 6.97 g/m*3 14.8 C 3.2 km/h
Sensor: Nr:Datum:Temp:Abs-Feuchte:Windchill:Wind:
Aussen-T/F 1301 26-04-2020 12:20:00 15.1 C 6.84 g/m*3 15.1 C 1.6 km/h
1302 26-04-2020 12:25:00 15.3 C 6.79 g/m*3 15.3 C 4.8 km/h
1303 26-04-2020 12:30:00 15.4 C 6.83 g/m*3 15.4 C 3.2 km/h
1304 26-04-2020 12:35:00 15.6 C 6.92 g/m*3 15.6 C 4.8 km/h
1305 26-04-2020 12:40:00 15.7 C 7.09 g/m*3 15.7 C 4.8 km/h
1306 26-04-2020 12:45:00 15.8 C 6.87 g/m*3 15.8 C 8.1 km/h
1307 26-04-2020 12:50:00 16.1 C 6.44 g/m*3 16.1 C 8.1 km/h
1308 26-04-2020 12:55:00 16.2 C 6.62 g/m*3 16.2 C 9.7 km/h
1309 26-04-2020 13:00:00 16.3 C 6.66 g/m*3 16.3 C 4.8 km/h
1310 26-04-2020 13:05:00 16.3 C 6.66 g/m*3 16.3 C 11.3 km/h
1311 26-04-2020 13:10:00 16.6 C 6.64 g/m*3 16.6 C 8.1 km/h
1312 26-04-2020 13:15:00 16.8 C 6.58 g/m*3 16.8 C 11.3 km/h
1313 26-04-2020 13:20:00 16.8 C 6.58 g/m*3 16.8 C 9.7 km/h
1314 26-04-2020 13:25:00 16.8 C 6.58 g/m*3 16.8 C 4.8 km/h
1315 26-04-2020 13:30:00 16.9 C 6.47 g/m*3 16.9 C 11.3 km/h
1316 26-04-2020 13:35:00 17 C 6.66 g/m*3 17 C 3.2 km/h
1317 26-04-2020 13:40:00 17.2 C 6.88 g/m*3 17.2 C 6.4 km/h
1318 26-04-2020 13:45:00 17.3 C 6.48 g/m*3 17.3 C 6.4 km/h
1319 26-04-2020 13:50:00 17.4 C 6.22 g/m*3 17.4 C 8.1 km/h
1320 26-04-2020 13:55:00 17.4 C 6.22 g/m*3 17.4 C 8.1 km/h
1321 26-04-2020 14:00:00 17.4 C 6.37 g/m*3 17.4 C 3.2 km/h
1322 26-04-2020 14:05:00 17.5 C 6.56 g/m*3 17.5 C 9.7 km/h
1323 26-04-2020 14:10:00 17.6 C 6.6 g/m*3 17.6 C 9.7 km/h
1324 26-04-2020 14:15:00 17.7 C 6.94 g/m*3 17.7 C 4.8 km/h
1325 26-04-2020 14:20:00 17.7 C 6.79 g/m*3 17.7 C 11.3 km/h
Sensor: Nr:Datum:Temp:Abs-Feuchte:Windchill:Wind:
Aussen-T/F 1326 26-04-2020 14:25:00 17.7 C 6.94 g/m*3 17.7 C 11.3 km/h
1327 26-04-2020 14:30:00 17.8 C 6.98 g/m*3 17.8 C 14.5 km/h
1328 26-04-2020 14:35:00 17.9 C 6.72 g/m*3 17.9 C 9.7 km/h
1329 26-04-2020 14:40:00 17.9 C 6.57 g/m*3 17.9 C 8.1 km/h
1330 26-04-2020 14:45:00 18 C 6.76 g/m*3 18 C 9.7 km/h
1331 26-04-2020 14:50:00 18.2 C 6.68 g/m*3 18.2 C 9.7 km/h
1332 26-04-2020 14:55:00 18.2 C 6.84 g/m*3 18.2 C 6.4 km/h
1333 26-04-2020 15:00:00 18.2 C 6.37 g/m*3 18.2 C 9.7 km/h
1334 26-04-2020 15:05:00 18.3 C 6.72 g/m*3 18.3 C 8.1 km/h
1335 26-04-2020 15:10:00 18.6 C 6.53 g/m*3 18.6 C 9.7 km/h
1336 26-04-2020 15:15:00 18.9 C 6.48 g/m*3 18.9 C 9.7 km/h
1337 26-04-2020 15:20:00 19.1 C 6.72 g/m*3 19.1 C 6.4 km/h
1338 26-04-2020 15:25:00 19.3 C 6.63 g/m*3 19.3 C 9.7 km/h
1339 26-04-2020 15:30:00 19.3 C 6.47 g/m*3 19.3 C 6.4 km/h
1340 26-04-2020 15:35:00 19.3 C 6.63 g/m*3 19.3 C 6.4 km/h
1341 26-04-2020 15:40:00 19.5 C 6.71 g/m*3 19.5 C 4.8 km/h
1342 26-04-2020 15:45:00 19.4 C 6.51 g/m*3 19.4 C 4.8 km/h
1343 26-04-2020 15:50:00 19.5 C 6.55 g/m*3 19.5 C 3.2 km/h
1344 26-04-2020 15:55:00 19.9 C 6.7 g/m*3 19.9 C 6.4 km/h
1345 26-04-2020 16:00:00 20.3 C 6.68 g/m*3 20.3 C 4.8 km/h
1346 26-04-2020 16:05:00 20.5 C 6.58 g/m*3 20.5 C 4.8 km/h
1347 26-04-2020 16:10:00 20.6 C 6.62 g/m*3 20.6 C 6.4 km/h
1348 26-04-2020 16:15:00 20.6 C 6.44 g/m*3 20.6 C 8.1 km/h
1349 26-04-2020 16:20:00 20.9 C 6.74 g/m*3 20.9 C 6.4 km/h
1350 26-04-2020 16:25:00 21.3 C 6.34 g/m*3 21.3 C 9.7 km/h
Sensor: Nr:Datum:Temp:Abs-Feuchte:Windchill:Wind:
Aussen-T/F 1351 26-04-2020 16:30:00 21.3 C 5.96 g/m*3 21.3 C 4.8 km/h
1352 26-04-2020 16:35:00 21.4 C 6.37 g/m*3 21.4 C 9.7 km/h
1353 26-04-2020 16:40:00 21.6 C 6.26 g/m*3 21.6 C 6.4 km/h
1354 26-04-2020 16:45:00 21.7 C 6.29 g/m*3 21.7 C 4.8 km/h
1355 26-04-2020 16:50:00 21.7 C 6.49 g/m*3 21.7 C 8.1 km/h
1356 26-04-2020 16:55:00 21.7 C 6.29 g/m*3 21.7 C 12.9 km/h
1357 26-04-2020 17:00:00 21.6 C 6.07 g/m*3 21.6 C 8.1 km/h
1358 26-04-2020 17:05:00 21.8 C 6.52 g/m*3 21.8 C 4.8 km/h
1359 26-04-2020 17:10:00 22.1 C 6.05 g/m*3 22.1 C 6.4 km/h
1360 26-04-2020 17:15:00 22.1 C 6.05 g/m*3 22.1 C 9.7 km/h
1361 26-04-2020 17:20:00 22.2 C 6.48 g/m*3 22.2 C 6.4 km/h
1362 26-04-2020 17:25:00 22.4 C 5.96 g/m*3 22.4 C 6.4 km/h
1363 26-04-2020 17:30:00 22.5 C 6.19 g/m*3 22.5 C 6.4 km/h
1364 26-04-2020 17:35:00 22.6 C 5.62 g/m*3 22.6 C 3.2 km/h
1365 26-04-2020 17:40:00 22.9 C 5.93 g/m*3 22.9 C 4.8 km/h
1366 26-04-2020 17:45:00 22.8 C 5.28 g/m*3 22.8 C 6.4 km/h
1367 26-04-2020 17:50:00 22.5 C 5.39 g/m*3 22.5 C 6.4 km/h
1368 26-04-2020 17:55:00 22.5 C 5.79 g/m*3 22.5 C 4.8 km/h
1369 26-04-2020 18:00:00 22.4 C 5.36 g/m*3 22.4 C 6.4 km/h
1370 26-04-2020 18:05:00 22.4 C 5.36 g/m*3 22.4 C 1.6 km/h
1371 26-04-2020 18:10:00 22.5 C 5.79 g/m*3 22.5 C 6.4 km/h
1372 26-04-2020 18:15:00 22.6 C 5.62 g/m*3 22.6 C 4.8 km/h
1373 26-04-2020 18:20:00 22.8 C 5.69 g/m*3 22.8 C 4.8 km/h
1374 26-04-2020 18:25:00 22.8 C 5.69 g/m*3 22.8 C 4.8 km/h
1375 26-04-2020 18:30:00 23 C 5.76 g/m*3 23 C 4.8 km/h
Sensor: Nr:Datum:Temp:Abs-Feuchte:Windchill:Wind:
Aussen-T/F 1376 26-04-2020 18:35:00 22.9 C 5.31 g/m*3 22.9 C 6.4 km/h
1377 26-04-2020 18:40:00 22.9 C 5.31 g/m*3 22.9 C 6.4 km/h
1378 26-04-2020 18:45:00 22.8 C 5.49 g/m*3 22.8 C 4.8 km/h
1379 26-04-2020 18:50:00 22.6 C 5.22 g/m*3 22.6 C 3.2 km/h
1380 26-04-2020 18:55:00 22.5 C 5.19 g/m*3 22.5 C 6.4 km/h
1381 26-04-2020 19:00:00 22.4 C 5.36 g/m*3 22.4 C 3.2 km/h
1382 26-04-2020 19:05:00 22.3 C 5.53 g/m*3 22.3 C 1.6 km/h
1383 26-04-2020 19:10:00 22.2 C 5.3 g/m*3 22.2 C 3.2 km/h
1384 26-04-2020 19:15:00 21.8 C 5.18 g/m*3 21.8 C 4.8 km/h
1385 26-04-2020 19:20:00 21.4 C 5.25 g/m*3 21.4 C 4.8 km/h
1386 26-04-2020 19:25:00 21 C 5.13 g/m*3 21 C 4.8 km/h
1387 26-04-2020 19:30:00 20.7 C 5.04 g/m*3 20.7 C 3.2 km/h
1388 26-04-2020 19:35:00 20.6 C 5.01 g/m*3 20.6 C 3.2 km/h
1389 26-04-2020 19:40:00 20.4 C 5.13 g/m*3 20.4 C 3.2 km/h
1390 26-04-2020 19:45:00 20.3 C 6.68 g/m*3 20.3 C 1.6 km/h
1391 26-04-2020 19:50:00 20.2 C 6.82 g/m*3 20.2 C 3.2 km/h
1392 26-04-2020 19:55:00 19.9 C 7.04 g/m*3 19.9 C 1.6 km/h
1393 26-04-2020 20:00:00 19.6 C 6.92 g/m*3 19.6 C 3.2 km/h
1394 26-04-2020 20:05:00 19.2 C 6.76 g/m*3 19.2 C 3.2 km/h
1395 26-04-2020 20:10:00 18.7 C 6.72 g/m*3 18.7 C 1.6 km/h
1396 26-04-2020 20:15:00 18.3 C 6.72 g/m*3 18.3 C 3.2 km/h
1397 26-04-2020 20:20:00 17.7 C 6.49 g/m*3 17.7 C 4.8 km/h
1398 26-04-2020 20:25:00 17.1 C 6.4 g/m*3 17.1 C 4.8 km/h
1399 26-04-2020 20:30:00 16.6 C 6.36 g/m*3 16.6 C 4.8 km/h
1400 26-04-2020 20:35:00 16.1 C 6.31 g/m*3 16.1 C 6.4 km/h
Sensor: Nr:Datum:Temp:Abs-Feuchte:Windchill:Wind:
Aussen-T/F 1401 26-04-2020 20:40:00 15.7 C 6.02 g/m*3 15.7 C 6.4 km/h
1402 26-04-2020 20:45:00 15.3 C 5.75 g/m*3 15.3 C 6.4 km/h
1403 26-04-2020 20:50:00 15.1 C 6.06 g/m*3 15.1 C 6.4 km/h
1404 26-04-2020 20:55:00 14.8 C 6.08 g/m*3 14.8 C 4.8 km/h
1405 26-04-2020 21:00:00 14.4 C 5.93 g/m*3 14.4 C 4.8 km/h
1406 26-04-2020 21:05:00 14.2 C 5.86 g/m*3 14.2 C 6.4 km/h
1407 26-04-2020 21:10:00 13.9 C 6.11 g/m*3 13.9 C 4.8 km/h
1408 26-04-2020 21:15:00 13.7 C 6.16 g/m*3 13.7 C 4.8 km/h
1409 26-04-2020 21:20:00 13.6 C 6.36 g/m*3 13.6 C 4.8 km/h
1410 26-04-2020 21:25:00 13.3 C 6.35 g/m*3 13.3 C 4.8 km/h
1411 26-04-2020 21:30:00 13.1 C 6.39 g/m*3 13.1 C 6.4 km/h
1412 26-04-2020 21:35:00 13 C 6.46 g/m*3 13 C 3.2 km/h
1413 26-04-2020 21:40:00 12.9 C 6.54 g/m*3 12.9 C 3.2 km/h
1414 26-04-2020 21:45:00 12.8 C 6.61 g/m*3 12.8 C 4.8 km/h
1415 26-04-2020 21:50:00 12.6 C 6.64 g/m*3 12.6 C 3.2 km/h
1416 26-04-2020 21:55:00 12.4 C 6.56 g/m*3 12.4 C 1.6 km/h
1417 26-04-2020 22:00:00 12.3 C 6.62 g/m*3 12.3 C 3.2 km/h
1418 26-04-2020 22:05:00 12.2 C 6.8 g/m*3 12.2 C 0 km/h
1419 26-04-2020 22:10:00 12 C 6.71 g/m*3 12 C 0 km/h
1420 26-04-2020 22:15:00 11.8 C 6.74 g/m*3 11.8 C 0 km/h
1421 26-04-2020 22:20:00 11.6 C 6.76 g/m*3 11.6 C 1.6 km/h
1422 26-04-2020 22:25:00 11.4 C 6.77 g/m*3 11.4 C 0 km/h
1423 26-04-2020 22:30:00 11.3 C 6.73 g/m*3 11.3 C 0 km/h
1424 26-04-2020 22:35:00 11.1 C 6.75 g/m*3 11.1 C 0 km/h
1425 26-04-2020 22:40:00 10.9 C 6.66 g/m*3 10.9 C 0 km/h
Sensor: Nr:Datum:Temp:Abs-Feuchte:Windchill:Wind:
Aussen-T/F 1426 26-04-2020 22:45:00 10.8 C 6.72 g/m*3 10.8 C 0 km/h
1427 26-04-2020 22:50:00 10.6 C 6.73 g/m*3 10.6 C 0 km/h
1428 26-04-2020 22:55:00 10.4 C 6.55 g/m*3 10.4 C 0 km/h
1429 26-04-2020 23:00:00 10.2 C 6.57 g/m*3 10.2 C 0 km/h
1430 26-04-2020 23:05:00 10.1 C 6.52 g/m*3 10.1 C 0 km/h
1431 26-04-2020 23:10:00 9.9 C 6.54 g/m*3 9.9 C 0 km/h
1432 26-04-2020 23:15:00 9.8 C 6.49 g/m*3 9.8 C 0 km/h
1433 26-04-2020 23:20:00 9.7 C 6.45 g/m*3 9.7 C 0 km/h
1434 26-04-2020 23:25:00 9.6 C 6.41 g/m*3 9.6 C 1.6 km/h
1435 26-04-2020 23:30:00 9.4 C 6.33 g/m*3 9.4 C 0 km/h
1436 26-04-2020 23:35:00 9.4 C 6.33 g/m*3 9.4 C 0 km/h
1437 26-04-2020 23:40:00 9.3 C 6.29 g/m*3 9.3 C 1.6 km/h
1438 26-04-2020 23:45:00 9.3 C 6.29 g/m*3 9.3 C 0 km/h
1439 26-04-2020 23:50:00 9.2 C 6.34 g/m*3 9.2 C 1.6 km/h
1440 26-04-2020 23:55:00 9.1 C 6.21 g/m*3 9.1 C 0 km/h
1441 27-04-2020 00:00:00 9 C 6.35 g/m*3 9 C 1.6 km/h
1442 27-04-2020 00:05:00 8.9 C 6.31 g/m*3 8.9 C 0 km/h
1443 27-04-2020 00:10:00 8.8 C 6.35 g/m*3 8.8 C 0 km/h
1444 27-04-2020 00:15:00 8.7 C 6.31 g/m*3 8.7 C 0 km/h
1445 27-04-2020 00:20:00 8.6 C 6.27 g/m*3 8.6 C 0 km/h
1446 27-04-2020 00:25:00 8.6 C 6.27 g/m*3 8.6 C 0 km/h
1447 27-04-2020 00:30:00 8.4 C 6.28 g/m*3 8.4 C 0 km/h
1448 27-04-2020 00:35:00 8.3 C 6.32 g/m*3 8.3 C 0 km/h
1449 27-04-2020 00:40:00 8.3 C 6.32 g/m*3 8.3 C 0 km/h
1450 27-04-2020 00:45:00 8.2 C 6.28 g/m*3 8.2 C 0 km/h
Sensor: Nr:Datum:Temp:Abs-Feuchte:Windchill:Wind:
Aussen-T/F 1451 27-04-2020 00:50:00 8.1 C 6.32 g/m*3 8.1 C 0 km/h
1452 27-04-2020 00:55:00 7.9 C 6.24 g/m*3 7.9 C 0 km/h
1453 27-04-2020 01:00:00 7.9 C 6.24 g/m*3 7.9 C 0 km/h
1454 27-04-2020 01:05:00 7.8 C 6.28 g/m*3 7.8 C 0 km/h
1455 27-04-2020 01:10:00 7.8 C 6.28 g/m*3 7.8 C 0 km/h
1456 27-04-2020 01:15:00 7.7 C 6.24 g/m*3 7.7 C 0 km/h
1457 27-04-2020 01:20:00 7.6 C 6.28 g/m*3 7.6 C 0 km/h
1458 27-04-2020 01:25:00 7.6 C 6.28 g/m*3 7.6 C 0 km/h
1459 27-04-2020 01:30:00 7.4 C 6.2 g/m*3 7.4 C 0 km/h
1460 27-04-2020 01:35:00 7.3 C 6.24 g/m*3 7.3 C 0 km/h
1461 27-04-2020 01:40:00 7.3 C 6.24 g/m*3 7.3 C 0 km/h
1462 27-04-2020 01:45:00 7.2 C 6.2 g/m*3 7.2 C 0 km/h
1463 27-04-2020 01:50:00 7.2 C 6.28 g/m*3 7.2 C 0 km/h
1464 27-04-2020 01:55:00 7.1 C 6.16 g/m*3 7.1 C 0 km/h
1465 27-04-2020 02:00:00 7 C 6.2 g/m*3 7 C 0 km/h
1466 27-04-2020 02:05:00 6.9 C 6.16 g/m*3 6.9 C 0 km/h
1467 27-04-2020 02:10:00 6.9 C 6.16 g/m*3 6.9 C 0 km/h
1468 27-04-2020 02:15:00 6.8 C 6.19 g/m*3 6.8 C 0 km/h
1469 27-04-2020 02:20:00 6.8 C 6.19 g/m*3 6.8 C 0 km/h
1470 27-04-2020 02:25:00 6.7 C 6.15 g/m*3 6.7 C 0 km/h
1471 27-04-2020 02:30:00 6.6 C 6.11 g/m*3 6.6 C 0 km/h
1472 27-04-2020 02:35:00 6.6 C 6.19 g/m*3 6.6 C 0 km/h
1473 27-04-2020 02:40:00 6.5 C 6.15 g/m*3 6.5 C 0 km/h
1474 27-04-2020 02:45:00 6.5 C 6.15 g/m*3 6.5 C 0 km/h
1475 27-04-2020 02:50:00 6.4 C 6.11 g/m*3 6.4 C 0 km/h
Sensor: Nr:Datum:Temp:Abs-Feuchte:Windchill:Wind:
Aussen-T/F 1476 27-04-2020 02:55:00 6.4 C 6.18 g/m*3 6.4 C 3.2 km/h
1477 27-04-2020 03:00:00 6.3 C 6.14 g/m*3 6.3 C 1.6 km/h
1478 27-04-2020 03:05:00 6.3 C 6.14 g/m*3 6.3 C 0 km/h
1479 27-04-2020 03:10:00 6.2 C 6.1 g/m*3 6.2 C 0 km/h
1480 27-04-2020 03:15:00 6.1 C 6.14 g/m*3 6.1 C 0 km/h
1481 27-04-2020 03:20:00 6.1 C 6.14 g/m*3 6.1 C 0 km/h
1482 27-04-2020 03:25:00 6.1 C 6.14 g/m*3 6.1 C 0 km/h
1483 27-04-2020 03:30:00 6 C 6.1 g/m*3 6 C 0 km/h
1484 27-04-2020 03:35:00 6 C 6.17 g/m*3 6 C 1.6 km/h
1485 27-04-2020 03:40:00 6.1 C 6.21 g/m*3 6.1 C 0 km/h
1486 27-04-2020 03:45:00 6.1 C 6.21 g/m*3 6.1 C 0 km/h
1487 27-04-2020 03:50:00 6.1 C 6.21 g/m*3 6.1 C 1.6 km/h
1488 27-04-2020 03:55:00 6.1 C 6.21 g/m*3 6.1 C 0 km/h
1489 27-04-2020 04:00:00 6 C 6.17 g/m*3 6 C 0 km/h
1490 27-04-2020 04:05:00 5.9 C 6.06 g/m*3 5.9 C 0 km/h
1491 27-04-2020 04:10:00 5.8 C 6.09 g/m*3 5.8 C 0 km/h
1492 27-04-2020 04:15:00 5.7 C 6.05 g/m*3 5.7 C 0 km/h
1493 27-04-2020 04:20:00 5.6 C 6.01 g/m*3 5.6 C 0 km/h
1494 27-04-2020 04:25:00 5.4 C 6 g/m*3 5.4 C 0 km/h
1495 27-04-2020 04:30:00 5.3 C 5.96 g/m*3 5.3 C 0 km/h
1496 27-04-2020 04:35:00 5.2 C 5.99 g/m*3 5.2 C 0 km/h
1497 27-04-2020 04:40:00 5.1 C 5.95 g/m*3 5.1 C 0 km/h
1498 27-04-2020 04:45:00 4.9 C 5.87 g/m*3 4.9 C 0 km/h
1499 27-04-2020 04:50:00 4.9 C 5.94 g/m*3 4.9 C 0 km/h
1500 27-04-2020 04:55:00 4.8 C 5.9 g/m*3 4.8 C 0 km/h
Sensor: Nr:Datum:Temp:Abs-Feuchte:Windchill:Wind:
Aussen-T/F 1501 27-04-2020 05:00:00 4.8 C 5.9 g/m*3 4.8 C 0 km/h
1502 27-04-2020 05:05:00 4.8 C 5.9 g/m*3 4.8 C 0 km/h
1503 27-04-2020 05:10:00 4.8 C 5.97 g/m*3 4.8 C 0 km/h
1504 27-04-2020 05:15:00 4.7 C 5.93 g/m*3 4.7 C 0 km/h
1505 27-04-2020 05:20:00 4.7 C 5.86 g/m*3 4.7 C 0 km/h
1506 27-04-2020 05:25:00 4.6 C 5.82 g/m*3 4.6 C 0 km/h
1507 27-04-2020 05:30:00 4.4 C 5.81 g/m*3 4.4 C 0 km/h
1508 27-04-2020 05:35:00 4.4 C 5.81 g/m*3 4.4 C 0 km/h
1509 27-04-2020 05:40:00 4.3 C 5.77 g/m*3 4.3 C 0 km/h
1510 27-04-2020 05:45:00 4.3 C 5.77 g/m*3 4.3 C 0 km/h
1511 27-04-2020 05:50:00 4.2 C 5.8 g/m*3 4.2 C 0 km/h
1512 27-04-2020 05:55:00 4.2 C 5.8 g/m*3 4.2 C 0 km/h
1513 27-04-2020 06:00:00 4.2 C 5.8 g/m*3 4.2 C 0 km/h
1514 27-04-2020 06:05:00 4.2 C 5.8 g/m*3 4.2 C 0 km/h
1515 27-04-2020 06:10:00 4.2 C 5.8 g/m*3 4.2 C 0 km/h
1516 27-04-2020 06:15:00 4.2 C 5.86 g/m*3 4.2 C 1.6 km/h
1517 27-04-2020 06:20:00 4.2 C 5.86 g/m*3 4.2 C 0 km/h
1518 27-04-2020 06:25:00 4.2 C 5.86 g/m*3 4.2 C 0 km/h
1519 27-04-2020 06:30:00 4.2 C 5.86 g/m*3 4.2 C 0 km/h
1520 27-04-2020 06:35:00 4.3 C 5.9 g/m*3 4.3 C 0 km/h
1521 27-04-2020 06:40:00 4.3 C 5.9 g/m*3 4.3 C 0 km/h
1522 27-04-2020 06:45:00 4.3 C 5.9 g/m*3 4.3 C 0 km/h
1523 27-04-2020 06:50:00 4.3 C 5.9 g/m*3 4.3 C 0 km/h
1524 27-04-2020 06:55:00 4.2 C 5.86 g/m*3 4.2 C 0 km/h
1525 27-04-2020 07:00:00 4.3 C 5.9 g/m*3 4.3 C 0 km/h
Sensor: Nr:Datum:Temp:Abs-Feuchte:Windchill:Wind:
Aussen-T/F 1526 27-04-2020 07:05:00 4.3 C 5.9 g/m*3 4.3 C 0 km/h
1527 27-04-2020 07:10:00 4.3 C 5.9 g/m*3 4.3 C 0 km/h
1528 27-04-2020 07:15:00 4.3 C 5.9 g/m*3 4.3 C 0 km/h
1529 27-04-2020 07:20:00 4.3 C 5.97 g/m*3 4.3 C 0 km/h
1530 27-04-2020 07:25:00 4.4 C 6.01 g/m*3 4.4 C 1.6 km/h
1531 27-04-2020 07:30:00 4.4 C 6.01 g/m*3 4.4 C 0 km/h
1532 27-04-2020 07:35:00 4.5 C 6.05 g/m*3 4.5 C 0 km/h
1533 27-04-2020 07:40:00 4.6 C 6.09 g/m*3 4.6 C 0 km/h
1534 27-04-2020 07:45:00 4.7 C 6.13 g/m*3 4.7 C 0 km/h
1535 27-04-2020 07:50:00 4.8 C 6.17 g/m*3 4.8 C 1.6 km/h
1536 27-04-2020 07:55:00 4.9 C 6.21 g/m*3 4.9 C 0 km/h
1537 27-04-2020 08:00:00 5 C 6.25 g/m*3 5 C 1.6 km/h
1538 27-04-2020 08:05:00 5.1 C 6.29 g/m*3 5.1 C 0 km/h
1539 27-04-2020 08:10:00 5.1 C 6.29 g/m*3 5.1 C 0 km/h
1540 27-04-2020 08:15:00 5.2 C 6.33 g/m*3 5.2 C 0 km/h
1541 27-04-2020 08:20:00 5.3 C 6.38 g/m*3 5.3 C 0 km/h
1542 27-04-2020 08:25:00 5.3 C 6.38 g/m*3 5.3 C 1.6 km/h
1543 27-04-2020 08:30:00 5.4 C 6.42 g/m*3 5.4 C 0 km/h
1544 27-04-2020 08:35:00 5.5 C 6.46 g/m*3 5.5 C 0 km/h
1545 27-04-2020 08:40:00 5.6 C 6.5 g/m*3 5.6 C 3.2 km/h
1546 27-04-2020 08:45:00 5.8 C 6.59 g/m*3 5.8 C 0 km/h
1547 27-04-2020 08:50:00 5.9 C 6.63 g/m*3 5.9 C 0 km/h
1548 27-04-2020 08:55:00 6.1 C 6.72 g/m*3 6.1 C 1.6 km/h
1549 27-04-2020 09:00:00 6.2 C 6.77 g/m*3 6.2 C 0 km/h
1550 27-04-2020 09:05:00 6.3 C 6.81 g/m*3 6.3 C 0 km/h
Sensor: Nr:Datum:Temp:Abs-Feuchte:Windchill:Wind:
Aussen-T/F 1551 27-04-2020 09:10:00 6.4 C 6.78 g/m*3 6.4 C 0 km/h
1552 27-04-2020 09:15:00 6.5 C 6.9 g/m*3 6.5 C 0 km/h
1553 27-04-2020 09:20:00 6.6 C 6.87 g/m*3 6.6 C 0 km/h
1554 27-04-2020 09:25:00 6.8 C 6.96 g/m*3 6.8 C 1.6 km/h
1555 27-04-2020 09:30:00 6.9 C 7.01 g/m*3 6.9 C 0 km/h
1556 27-04-2020 09:35:00 7.1 C 7.1 g/m*3 7.1 C 0 km/h
1557 27-04-2020 09:40:00 7.3 C 7.19 g/m*3 7.3 C 0 km/h
1558 27-04-2020 09:45:00 7.4 C 7.24 g/m*3 7.4 C 0 km/h
1559 27-04-2020 09:50:00 7.7 C 7.38 g/m*3 7.7 C 0 km/h
1560 27-04-2020 09:55:00 7.8 C 7.43 g/m*3 7.8 C 0 km/h
1561 27-04-2020 10:00:00 8.1 C 7.57 g/m*3 8.1 C 0 km/h
1562 27-04-2020 10:05:00 8.3 C 7.67 g/m*3 8.3 C 0 km/h
1563 27-04-2020 10:10:00 8.6 C 7.82 g/m*3 8.6 C 0 km/h
1564 27-04-2020 10:15:00 8.8 C 7.83 g/m*3 8.8 C 0 km/h
1565 27-04-2020 10:20:00 9.2 C 7.95 g/m*3 9.2 C 0 km/h
1566 27-04-2020 10:25:00 9.7 C 8.11 g/m*3 9.7 C 0 km/h
1567 27-04-2020 10:30:00 10 C 8.17 g/m*3 10 C 0 km/h
1568 27-04-2020 10:35:00 10.3 C 8.14 g/m*3 10.3 C 0 km/h
1569 27-04-2020 10:40:00 10.6 C 8.2 g/m*3 10.6 C 1.6 km/h
1570 27-04-2020 10:45:00 10.9 C 8.16 g/m*3 10.9 C 0 km/h
1571 27-04-2020 10:50:00 11.6 C 8.21 g/m*3 11.6 C 0 km/h
1572 27-04-2020 10:55:00 12.1 C 8.36 g/m*3 12.1 C 1.6 km/h
1573 27-04-2020 11:00:00 12.7 C 8.01 g/m*3 12.7 C 3.2 km/h
1574 27-04-2020 11:05:00 13.4 C 7.79 g/m*3 13.4 C 6.4 km/h
1575 27-04-2020 11:10:00 14.2 C 7.69 g/m*3 14.2 C 4.8 km/h
Sensor: Nr:Datum:Temp:Abs-Feuchte:Windchill:Wind:
Aussen-T/F 1576 27-04-2020 11:15:00 14.8 C 7.98 g/m*3 14.8 C 4.8 km/h
1577 27-04-2020 11:20:00 15.2 C 8.05 g/m*3 15.2 C 1.6 km/h
1578 27-04-2020 11:25:00 15.6 C 7.58 g/m*3 15.6 C 4.8 km/h
1579 27-04-2020 11:30:00 15.9 C 7.58 g/m*3 15.9 C 1.6 km/h
1580 27-04-2020 11:35:00 16.2 C 7.86 g/m*3 16.2 C 4.8 km/h
1581 27-04-2020 11:40:00 16.4 C 7.26 g/m*3 16.4 C 6.4 km/h
1582 27-04-2020 11:45:00 16.7 C 7.39 g/m*3 16.7 C 3.2 km/h
1583 27-04-2020 11:50:00 16.9 C 7.77 g/m*3 16.9 C 1.6 km/h
1584 27-04-2020 11:55:00 17 C 7.67 g/m*3 17 C 4.8 km/h
1585 27-04-2020 12:00:00 17.2 C 7.61 g/m*3 17.2 C 4.8 km/h
1586 27-04-2020 12:05:00 17.3 C 7.66 g/m*3 17.3 C 3.2 km/h
1587 27-04-2020 12:10:00 17.6 C 7.65 g/m*3 17.6 C 3.2 km/h
1588 27-04-2020 12:15:00 17.8 C 7.74 g/m*3 17.8 C 6.4 km/h
1589 27-04-2020 12:20:00 17.9 C 7.48 g/m*3 17.9 C 3.2 km/h
1590 27-04-2020 12:25:00 18.1 C 7.42 g/m*3 18.1 C 4.8 km/h
1591 27-04-2020 12:30:00 18.1 C 7.57 g/m*3 18.1 C 6.4 km/h
1592 27-04-2020 12:35:00 18.2 C 7.31 g/m*3 18.2 C 4.8 km/h
1593 27-04-2020 12:40:00 18.3 C 7.19 g/m*3 18.3 C 3.2 km/h
1594 27-04-2020 12:45:00 18.4 C 7.24 g/m*3 18.4 C 4.8 km/h
1595 27-04-2020 12:50:00 18.6 C 7.16 g/m*3 18.6 C 8.1 km/h
1596 27-04-2020 12:55:00 18.8 C 7.09 g/m*3 18.8 C 6.4 km/h
1597 27-04-2020 13:00:00 19.1 C 6.72 g/m*3 19.1 C 9.7 km/h
1598 27-04-2020 13:05:00 19.3 C 7.13 g/m*3 19.3 C 11.3 km/h
1599 27-04-2020 13:10:00 19.3 C 7.13 g/m*3 19.3 C 9.7 km/h
1600 27-04-2020 13:15:00 19.4 C 6.84 g/m*3 19.4 C 4.8 km/h
Sensor: Nr:Datum:Temp:Abs-Feuchte:Windchill:Wind:
Aussen-T/F 1601 27-04-2020 13:20:00 19.4 C 6.84 g/m*3 19.4 C 9.7 km/h
1602 27-04-2020 13:25:00 19.6 C 6.75 g/m*3 19.6 C 9.7 km/h
1603 27-04-2020 13:30:00 19.6 C 7.09 g/m*3 19.6 C 6.4 km/h
1604 27-04-2020 13:35:00 19.8 C 7 g/m*3 19.8 C 12.9 km/h
1605 27-04-2020 13:40:00 19.8 C 7 g/m*3 19.8 C 6.4 km/h
1606 27-04-2020 13:45:00 19.9 C 6.87 g/m*3 19.9 C 11.3 km/h
1607 27-04-2020 13:50:00 20 C 6.74 g/m*3 20 C 9.7 km/h
1608 27-04-2020 13:55:00 20 C 6.91 g/m*3 20 C 6.4 km/h
1609 27-04-2020 14:00:00 20.2 C 6.99 g/m*3 20.2 C 11.3 km/h
1610 27-04-2020 14:05:00 20.4 C 6.9 g/m*3 20.4 C 12.9 km/h
1611 27-04-2020 14:10:00 20.6 C 6.98 g/m*3 20.6 C 9.7 km/h
1612 27-04-2020 14:15:00 20.7 C 7.2 g/m*3 20.7 C 9.7 km/h
1613 27-04-2020 14:20:00 20.7 C 7.2 g/m*3 20.7 C 9.7 km/h
1614 27-04-2020 14:25:00 20.7 C 7.02 g/m*3 20.7 C 3.2 km/h
1615 27-04-2020 14:30:00 20.8 C 6.88 g/m*3 20.8 C 16.1 km/h
1616 27-04-2020 14:35:00 20.9 C 6.92 g/m*3 20.9 C 16.1 km/h
1617 27-04-2020 14:40:00 20.9 C 7.29 g/m*3 20.9 C 3.2 km/h
1618 27-04-2020 14:45:00 21.1 C 7.19 g/m*3 21.1 C 9.7 km/h
1619 27-04-2020 14:50:00 21.2 C 7.04 g/m*3 21.2 C 9.7 km/h
1620 27-04-2020 14:55:00 21.4 C 6.94 g/m*3 21.4 C 9.7 km/h
1621 27-04-2020 15:00:00 21.7 C 6.87 g/m*3 21.7 C 12.9 km/h
1622 27-04-2020 15:05:00 21.8 C 6.91 g/m*3 21.8 C 8.1 km/h
1623 27-04-2020 15:10:00 21.9 C 6.95 g/m*3 21.9 C 8.1 km/h
1624 27-04-2020 15:15:00 22.1 C 7.03 g/m*3 22.1 C 12.9 km/h
1625 27-04-2020 15:20:00 22.2 C 7.07 g/m*3 22.2 C 11.3 km/h
Sensor: Nr:Datum:Temp:Abs-Feuchte:Windchill:Wind:
Aussen-T/F 1626 27-04-2020 15:25:00 22.2 C 6.87 g/m*3 22.2 C 11.3 km/h
1627 27-04-2020 15:30:00 22.3 C 6.91 g/m*3 22.3 C 11.3 km/h
1628 27-04-2020 15:35:00 22.5 C 6.79 g/m*3 22.5 C 8.1 km/h
1629 27-04-2020 15:40:00 22.8 C 6.71 g/m*3 22.8 C 11.3 km/h
1630 27-04-2020 15:45:00 23.1 C 6.61 g/m*3 23.1 C 12.9 km/h
1631 27-04-2020 15:50:00 23.2 C 7.28 g/m*3 23.2 C 9.7 km/h
1632 27-04-2020 15:55:00 23.2 C 6.86 g/m*3 23.2 C 14.5 km/h
1633 27-04-2020 16:00:00 23.3 C 7.11 g/m*3 23.3 C 11.3 km/h
1634 27-04-2020 16:05:00 23.2 C 6.65 g/m*3 23.2 C 19.3 km/h
1635 27-04-2020 16:10:00 23.3 C 6.9 g/m*3 23.3 C 12.9 km/h
1636 27-04-2020 16:15:00 23.1 C 6.61 g/m*3 23.1 C 11.3 km/h
1637 27-04-2020 16:20:00 22.7 C 6.67 g/m*3 22.7 C 11.3 km/h
1638 27-04-2020 16:25:00 22.5 C 6.79 g/m*3 22.5 C 14.5 km/h
1639 27-04-2020 16:30:00 22.2 C 6.87 g/m*3 22.2 C 12.9 km/h
1640 27-04-2020 16:35:00 22.3 C 7.31 g/m*3 22.3 C 11.3 km/h
1641 27-04-2020 16:40:00 22.6 C 7.03 g/m*3 22.6 C 11.3 km/h
1642 27-04-2020 16:45:00 22.6 C 7.03 g/m*3 22.6 C 11.3 km/h
1643 27-04-2020 16:50:00 22.4 C 7.15 g/m*3 22.4 C 11.3 km/h
1644 27-04-2020 16:55:00 22.2 C 7.07 g/m*3 22.2 C 12.9 km/h
1645 27-04-2020 17:00:00 22 C 7.18 g/m*3 22 C 8.1 km/h
1646 27-04-2020 17:05:00 21.9 C 6.95 g/m*3 21.9 C 11.3 km/h
1647 27-04-2020 17:10:00 21.8 C 7.1 g/m*3 21.8 C 17.7 km/h
1648 27-04-2020 17:15:00 21.7 C 7.25 g/m*3 21.7 C 16.1 km/h
1649 27-04-2020 17:20:00 21.6 C 7.21 g/m*3 21.6 C 16.1 km/h
1650 27-04-2020 17:25:00 21.4 C 7.31 g/m*3 21.4 C 12.9 km/h
Sensor: Nr:Datum:Temp:Abs-Feuchte:Windchill:Wind:
Aussen-T/F 1651 27-04-2020 17:30:00 21.3 C 7.27 g/m*3 21.3 C 8.1 km/h
1652 27-04-2020 17:35:00 21.2 C 7.23 g/m*3 21.2 C 11.3 km/h
1653 27-04-2020 17:40:00 21.1 C 7.55 g/m*3 21.1 C 9.7 km/h
1654 27-04-2020 17:45:00 21.1 C 7.74 g/m*3 21.1 C 4.8 km/h
1655 27-04-2020 17:50:00 21.1 C 7.55 g/m*3 21.1 C 4.8 km/h
1656 27-04-2020 17:55:00 21.3 C 7.64 g/m*3 21.3 C 4.8 km/h
1657 27-04-2020 18:00:00 21.4 C 7.87 g/m*3 21.4 C 11.3 km/h
1658 27-04-2020 18:05:00 21.3 C 7.27 g/m*3 21.3 C 11.3 km/h
1659 27-04-2020 18:10:00 21.2 C 7.97 g/m*3 21.2 C 4.8 km/h
1660 27-04-2020 18:15:00 21.4 C 8.25 g/m*3 21.4 C 6.4 km/h
1661 27-04-2020 18:20:00 22.2 C 8.25 g/m*3 22.2 C 4.8 km/h
1662 27-04-2020 18:25:00 22.9 C 7.77 g/m*3 22.9 C 6.4 km/h
1663 27-04-2020 18:30:00 23.3 C 7.32 g/m*3 23.3 C 11.3 km/h
1664 27-04-2020 18:35:00 23.3 C 7.53 g/m*3 23.3 C 6.4 km/h
1665 27-04-2020 18:40:00 23.4 C 7.57 g/m*3 23.4 C 4.8 km/h
1666 27-04-2020 18:45:00 23.5 C 7.4 g/m*3 23.5 C 6.4 km/h
1667 27-04-2020 18:50:00 23.6 C 7.66 g/m*3 23.6 C 1.6 km/h
1668 27-04-2020 18:55:00 23.6 C 7.66 g/m*3 23.6 C 8.1 km/h
1669 27-04-2020 19:00:00 22.9 C 7.97 g/m*3 22.9 C 8.1 km/h
1670 27-04-2020 19:05:00 22.4 C 8.74 g/m*3 22.4 C 3.2 km/h
1671 27-04-2020 19:10:00 21.8 C 8.25 g/m*3 21.8 C 4.8 km/h
1672 27-04-2020 19:15:00 21.2 C 8.71 g/m*3 21.2 C 4.8 km/h
1673 27-04-2020 19:20:00 20.9 C 8.74 g/m*3 20.9 C 4.8 km/h
1674 27-04-2020 19:25:00 20.6 C 8.59 g/m*3 20.6 C 4.8 km/h
1675 27-04-2020 19:30:00 20.2 C 8.57 g/m*3 20.2 C 4.8 km/h
Sensor: Nr:Datum:Temp:Abs-Feuchte:Windchill:Wind:
Aussen-T/F 1676 27-04-2020 19:35:00 19.7 C 8.32 g/m*3 19.7 C 6.4 km/h
1677 27-04-2020 19:40:00 19.2 C 8.41 g/m*3 19.2 C 6.4 km/h
1678 27-04-2020 19:45:00 18.9 C 8.42 g/m*3 18.9 C 4.8 km/h
1679 27-04-2020 19:50:00 18.6 C 8.28 g/m*3 18.6 C 6.4 km/h
1680 27-04-2020 19:55:00 18.2 C 8.39 g/m*3 18.2 C 6.4 km/h
1681 27-04-2020 20:00:00 17.9 C 8.24 g/m*3 17.9 C 6.4 km/h
1682 27-04-2020 20:05:00 17.6 C 8.25 g/m*3 17.6 C 6.4 km/h
1683 27-04-2020 20:10:00 17.4 C 8.3 g/m*3 17.4 C 6.4 km/h
1684 27-04-2020 20:15:00 17.2 C 8.35 g/m*3 17.2 C 6.4 km/h
1685 27-04-2020 20:20:00 17 C 8.25 g/m*3 17 C 6.4 km/h
1686 27-04-2020 20:25:00 16.8 C 8.29 g/m*3 16.8 C 4.8 km/h
1687 27-04-2020 20:30:00 16.5 C 8.28 g/m*3 16.5 C 4.8 km/h
1688 27-04-2020 20:35:00 16.2 C 8.27 g/m*3 16.2 C 4.8 km/h
1689 27-04-2020 20:40:00 15.8 C 8.21 g/m*3 15.8 C 6.4 km/h
1690 27-04-2020 20:45:00 15.6 C 8.25 g/m*3 15.6 C 6.4 km/h
1691 27-04-2020 20:50:00 15.4 C 8.15 g/m*3 15.4 C 6.4 km/h
1692 27-04-2020 20:55:00 15.2 C 8.18 g/m*3 15.2 C 6.4 km/h
1693 27-04-2020 21:00:00 15.1 C 8.13 g/m*3 15.1 C 6.4 km/h
1694 27-04-2020 21:05:00 15 C 8.21 g/m*3 15 C 6.4 km/h
1695 27-04-2020 21:10:00 14.9 C 8.16 g/m*3 14.9 C 4.8 km/h
1696 27-04-2020 21:15:00 14.8 C 8.23 g/m*3 14.8 C 6.4 km/h
1697 27-04-2020 21:20:00 14.8 C 8.36 g/m*3 14.8 C 4.8 km/h
1698 27-04-2020 21:25:00 14.7 C 8.31 g/m*3 14.7 C 4.8 km/h
1699 27-04-2020 21:30:00 14.6 C 8.26 g/m*3 14.6 C 4.8 km/h
1700 27-04-2020 21:35:00 14.4 C 8.16 g/m*3 14.4 C 4.8 km/h
Sensor: Nr:Datum:Temp:Abs-Feuchte:Windchill:Wind:
Aussen-T/F 1701 27-04-2020 21:40:00 14.3 C 8.23 g/m*3 14.3 C 3.2 km/h
1702 27-04-2020 21:45:00 14.2 C 8.3 g/m*3 14.2 C 3.2 km/h
1703 27-04-2020 21:50:00 14 C 8.2 g/m*3 14 C 1.6 km/h
1704 27-04-2020 21:55:00 13.8 C 8.1 g/m*3 13.8 C 0 km/h
1705 27-04-2020 22:00:00 13.7 C 8.17 g/m*3 13.7 C 4.8 km/h
1706 27-04-2020 22:05:00 13.6 C 8.12 g/m*3 13.6 C 4.8 km/h
1707 27-04-2020 22:10:00 13.6 C 8.24 g/m*3 13.6 C 4.8 km/h
1708 27-04-2020 22:15:00 13.5 C 8.19 g/m*3 13.5 C 3.2 km/h
1709 27-04-2020 22:20:00 13.4 C 8.25 g/m*3 13.4 C 0 km/h
1710 27-04-2020 22:25:00 13.3 C 8.2 g/m*3 13.3 C 0 km/h
1711 27-04-2020 22:30:00 13.2 C 8.27 g/m*3 13.2 C 0 km/h
1712 27-04-2020 22:35:00 13.1 C 8.22 g/m*3 13.1 C 0 km/h
1713 27-04-2020 22:40:00 12.9 C 8.11 g/m*3 12.9 C 0 km/h
1714 27-04-2020 22:45:00 12.8 C 8.18 g/m*3 12.8 C 0 km/h
1715 27-04-2020 22:50:00 12.7 C 8.13 g/m*3 12.7 C 0 km/h
1716 27-04-2020 22:55:00 12.6 C 8.08 g/m*3 12.6 C 0 km/h
1717 27-04-2020 23:00:00 12.6 C 8.08 g/m*3 12.6 C 0 km/h
1718 27-04-2020 23:05:00 12.5 C 8.14 g/m*3 12.5 C 0 km/h
1719 27-04-2020 23:10:00 12.4 C 8.09 g/m*3 12.4 C 0 km/h
1720 27-04-2020 23:15:00 12.3 C 8.04 g/m*3 12.3 C 0 km/h
1721 27-04-2020 23:20:00 12.3 C 8.04 g/m*3 12.3 C 0 km/h
1722 27-04-2020 23:25:00 12.3 C 8.04 g/m*3 12.3 C 0 km/h
1723 27-04-2020 23:30:00 12.2 C 8.09 g/m*3 12.2 C 0 km/h
1724 27-04-2020 23:35:00 12.1 C 8.04 g/m*3 12.1 C 0 km/h
1725 27-04-2020 23:40:00 11.9 C 8.05 g/m*3 11.9 C 0 km/h
Sensor: Nr:Datum:Temp:Abs-Feuchte:Windchill:Wind:
Aussen-T/F 1726 27-04-2020 23:45:00 11.8 C 8 g/m*3 11.8 C 0 km/h
1727 27-04-2020 23:50:00 11.6 C 8 g/m*3 11.6 C 0 km/h
1728 27-04-2020 23:55:00 11.4 C 8.01 g/m*3 11.4 C 0 km/h
1729 28-04-2020 00:00:00 11.3 C 7.96 g/m*3 11.3 C 0 km/h
1730 28-04-2020 00:05:00 11.2 C 8.01 g/m*3 11.2 C 0 km/h
1731 28-04-2020 00:10:00 11.1 C 7.96 g/m*3 11.1 C 0 km/h
1732 28-04-2020 00:15:00 10.9 C 7.96 g/m*3 10.9 C 0 km/h
1733 28-04-2020 00:20:00 10.8 C 7.91 g/m*3 10.8 C 0 km/h
1734 28-04-2020 00:25:00 10.7 C 7.86 g/m*3 10.7 C 0 km/h
1735 28-04-2020 00:30:00 10.6 C 7.91 g/m*3 10.6 C 0 km/h
1736 28-04-2020 00:35:00 10.5 C 7.86 g/m*3 10.5 C 0 km/h
1737 28-04-2020 00:40:00 10.5 C 7.86 g/m*3 10.5 C 0 km/h
1738 28-04-2020 00:45:00 10.4 C 7.81 g/m*3 10.4 C 0 km/h
1739 28-04-2020 00:50:00 10.4 C 7.81 g/m*3 10.4 C 0 km/h
1740 28-04-2020 00:55:00 10.3 C 7.85 g/m*3 10.3 C 0 km/h
1741 28-04-2020 01:00:00 10.3 C 7.85 g/m*3 10.3 C 0 km/h
1742 28-04-2020 01:05:00 10.2 C 7.8 g/m*3 10.2 C 0 km/h
1743 28-04-2020 01:10:00 10.1 C 7.75 g/m*3 10.1 C 0 km/h
1744 28-04-2020 01:15:00 10 C 7.8 g/m*3 10 C 0 km/h
1745 28-04-2020 01:20:00 9.9 C 7.75 g/m*3 9.9 C 0 km/h
1746 28-04-2020 01:25:00 9.9 C 7.75 g/m*3 9.9 C 0 km/h
1747 28-04-2020 01:30:00 9.8 C 7.7 g/m*3 9.8 C 0 km/h
1748 28-04-2020 01:35:00 9.7 C 7.65 g/m*3 9.7 C 0 km/h
1749 28-04-2020 01:40:00 9.7 C 7.74 g/m*3 9.7 C 0 km/h
1750 28-04-2020 01:45:00 9.7 C 7.74 g/m*3 9.7 C 0 km/h
Sensor: Nr:Datum:Temp:Abs-Feuchte:Windchill:Wind:
Aussen-T/F 1751 28-04-2020 01:50:00 9.6 C 7.69 g/m*3 9.6 C 0 km/h
1752 28-04-2020 01:55:00 9.6 C 7.69 g/m*3 9.6 C 0 km/h
1753 28-04-2020 02:00:00 9.5 C 7.74 g/m*3 9.5 C 0 km/h
1754 28-04-2020 02:05:00 9.4 C 7.69 g/m*3 9.4 C 0 km/h
1755 28-04-2020 02:10:00 9.3 C 7.64 g/m*3 9.3 C 0 km/h
1756 28-04-2020 02:15:00 9.3 C 7.64 g/m*3 9.3 C 0 km/h
1757 28-04-2020 02:20:00 9.2 C 7.59 g/m*3 9.2 C 0 km/h
1758 28-04-2020 02:25:00 9.1 C 7.54 g/m*3 9.1 C 0 km/h
1759 28-04-2020 02:30:00 9.1 C 7.63 g/m*3 9.1 C 0 km/h
1760 28-04-2020 02:35:00 8.9 C 7.53 g/m*3 8.9 C 0 km/h
1761 28-04-2020 02:40:00 8.8 C 7.49 g/m*3 8.8 C 0 km/h
1762 28-04-2020 02:45:00 8.8 C 7.57 g/m*3 8.8 C 1.6 km/h
1763 28-04-2020 02:50:00 8.9 C 7.71 g/m*3 8.9 C 0 km/h
1764 28-04-2020 02:55:00 9.1 C 7.81 g/m*3 9.1 C 1.6 km/h
1765 28-04-2020 03:00:00 9.1 C 7.72 g/m*3 9.1 C 0 km/h
1766 28-04-2020 03:05:00 9.1 C 7.72 g/m*3 9.1 C 0 km/h
1767 28-04-2020 03:10:00 9 C 7.67 g/m*3 9 C 0 km/h
1768 28-04-2020 03:15:00 8.9 C 7.62 g/m*3 8.9 C 0 km/h
1769 28-04-2020 03:20:00 8.9 C 7.62 g/m*3 8.9 C 1.6 km/h
1770 28-04-2020 03:25:00 8.8 C 7.57 g/m*3 8.8 C 1.6 km/h
1771 28-04-2020 03:30:00 8.8 C 7.66 g/m*3 8.8 C 0 km/h
1772 28-04-2020 03:35:00 8.8 C 7.66 g/m*3 8.8 C 0 km/h
1773 28-04-2020 03:40:00 8.7 C 7.61 g/m*3 8.7 C 0 km/h
1774 28-04-2020 03:45:00 8.6 C 7.56 g/m*3 8.6 C 0 km/h
1775 28-04-2020 03:50:00 8.6 C 7.56 g/m*3 8.6 C 0 km/h
Sensor: Nr:Datum:Temp:Abs-Feuchte:Windchill:Wind:
Aussen-T/F 1776 28-04-2020 03:55:00 8.4 C 7.47 g/m*3 8.4 C 1.6 km/h
1777 28-04-2020 04:00:00 8.4 C 7.55 g/m*3 8.4 C 0 km/h
1778 28-04-2020 04:05:00 8.4 C 7.55 g/m*3 8.4 C 0 km/h
1779 28-04-2020 04:10:00 8.3 C 7.5 g/m*3 8.3 C 0 km/h
1780 28-04-2020 04:15:00 8.2 C 7.37 g/m*3 8.2 C 0 km/h
1781 28-04-2020 04:20:00 8.1 C 7.41 g/m*3 8.1 C 0 km/h
1782 28-04-2020 04:25:00 7.9 C 7.31 g/m*3 7.9 C 0 km/h
1783 28-04-2020 04:30:00 7.9 C 7.39 g/m*3 7.9 C 0 km/h
1784 28-04-2020 04:35:00 7.9 C 7.39 g/m*3 7.9 C 0 km/h
1785 28-04-2020 04:40:00 7.8 C 7.35 g/m*3 7.8 C 0 km/h
1786 28-04-2020 04:45:00 7.8 C 7.35 g/m*3 5.77 C 11.3 km/h
1787 28-04-2020 04:50:00 7.9 C 7.47 g/m*3 5.89 C 11.3 km/h
1788 28-04-2020 04:55:00 8 C 7.52 g/m*3 8 C 3.2 km/h
1789 28-04-2020 05:00:00 8.1 C 7.57 g/m*3 8.1 C 1.6 km/h
1790 28-04-2020 05:05:00 8.1 C 7.57 g/m*3 8.1 C 1.6 km/h
1791 28-04-2020 05:10:00 8.1 C 7.57 g/m*3 8.1 C 1.6 km/h
1792 28-04-2020 05:15:00 8.2 C 7.62 g/m*3 8.2 C 1.6 km/h
1793 28-04-2020 05:20:00 8.2 C 7.62 g/m*3 8.2 C 1.6 km/h
1794 28-04-2020 05:25:00 8.2 C 7.62 g/m*3 8.2 C 0 km/h
1795 28-04-2020 05:30:00 8.2 C 7.62 g/m*3 7.29 C 6.4 km/h
1796 28-04-2020 05:35:00 8.2 C 7.62 g/m*3 8.2 C 0 km/h
1797 28-04-2020 05:40:00 8.2 C 7.62 g/m*3 8.2 C 0 km/h
1798 28-04-2020 05:45:00 8.1 C 7.49 g/m*3 8.1 C 0 km/h
1799 28-04-2020 05:50:00 8.1 C 7.57 g/m*3 8.1 C 1.6 km/h
1800 28-04-2020 05:55:00 8 C 7.52 g/m*3 8 C 0 km/h
Sensor: Nr:Datum:Temp:Abs-Feuchte:Windchill:Wind:
Aussen-T/F 1801 28-04-2020 06:00:00 7.9 C 7.39 g/m*3 7.9 C 0 km/h
1802 28-04-2020 06:05:00 7.9 C 7.39 g/m*3 7.9 C 0 km/h
1803 28-04-2020 06:10:00 7.8 C 7.43 g/m*3 7.8 C 0 km/h
1804 28-04-2020 06:15:00 7.8 C 7.43 g/m*3 7.8 C 0 km/h
1805 28-04-2020 06:20:00 7.7 C 7.38 g/m*3 7.7 C 0 km/h
1806 28-04-2020 06:25:00 7.8 C 7.43 g/m*3 7.8 C 0 km/h
1807 28-04-2020 06:30:00 7.8 C 7.51 g/m*3 7.8 C 0 km/h
1808 28-04-2020 06:35:00 7.8 C 7.51 g/m*3 7.8 C 0 km/h
1809 28-04-2020 06:40:00 7.9 C 7.56 g/m*3 7.9 C 0 km/h
1810 28-04-2020 06:45:00 7.9 C 7.56 g/m*3 7.9 C 0 km/h
1811 28-04-2020 06:50:00 8.1 C 7.66 g/m*3 8.1 C 0 km/h
1812 28-04-2020 06:55:00 8.1 C 7.66 g/m*3 8.1 C 0 km/h
1813 28-04-2020 07:00:00 8.2 C 7.7 g/m*3 8.2 C 0 km/h
1814 28-04-2020 07:05:00 8.3 C 7.84 g/m*3 8.3 C 0 km/h
1815 28-04-2020 07:10:00 8.5 C 7.94 g/m*3 8.5 C 1.6 km/h
1816 28-04-2020 07:15:00 8.6 C 7.91 g/m*3 8.6 C 0 km/h
1817 28-04-2020 07:20:00 8.7 C 7.96 g/m*3 8.7 C 0 km/h
1818 28-04-2020 07:25:00 8.8 C 8.01 g/m*3 8.8 C 0 km/h
1819 28-04-2020 07:30:00 8.9 C 7.97 g/m*3 8.9 C 0 km/h
1820 28-04-2020 07:35:00 9.1 C 8.16 g/m*3 9.1 C 0 km/h
1821 28-04-2020 07:40:00 9.1 C 8.07 g/m*3 9.1 C 0 km/h
1822 28-04-2020 07:45:00 9.3 C 8.18 g/m*3 9.3 C 0 km/h
1823 28-04-2020 07:50:00 9.4 C 8.23 g/m*3 9.4 C 1.6 km/h
1824 28-04-2020 07:55:00 9.5 C 8.28 g/m*3 9.5 C 0 km/h
1825 28-04-2020 08:00:00 9.6 C 8.34 g/m*3 9.6 C 0 km/h
Sensor: Nr:Datum:Temp:Abs-Feuchte:Windchill:Wind:
Aussen-T/F 1826 28-04-2020 08:05:00 9.6 C 8.34 g/m*3 9.6 C 0 km/h
1827 28-04-2020 08:10:00 9.7 C 8.39 g/m*3 9.7 C 0 km/h
1828 28-04-2020 08:15:00 9.8 C 8.44 g/m*3 9.8 C 0 km/h
1829 28-04-2020 08:20:00 9.9 C 8.59 g/m*3 9.9 C 0 km/h
1830 28-04-2020 08:25:00 10 C 8.64 g/m*3 10 C 0 km/h
1831 28-04-2020 08:30:00 10.1 C 8.7 g/m*3 10.1 C 0 km/h
1832 28-04-2020 08:35:00 10.2 C 8.76 g/m*3 10.2 C 0 km/h
1833 28-04-2020 08:40:00 10.2 C 8.76 g/m*3 10.2 C 0 km/h
1834 28-04-2020 08:45:00 10.3 C 8.81 g/m*3 10.3 C 0 km/h
1835 28-04-2020 08:50:00 10.3 C 8.81 g/m*3 10.3 C 1.6 km/h
1836 28-04-2020 08:55:00 10.4 C 8.87 g/m*3 10.4 C 0 km/h
1837 28-04-2020 09:00:00 10.4 C 8.87 g/m*3 10.4 C 0 km/h
1838 28-04-2020 09:05:00 10.6 C 8.98 g/m*3 10.6 C 0 km/h
1839 28-04-2020 09:10:00 10.6 C 8.98 g/m*3 10.6 C 1.6 km/h
1840 28-04-2020 09:15:00 10.8 C 9.09 g/m*3 10.8 C 0 km/h
1841 28-04-2020 09:20:00 10.9 C 9.15 g/m*3 10.9 C 0 km/h
1842 28-04-2020 09:25:00 11.1 C 9.27 g/m*3 11.1 C 0 km/h
1843 28-04-2020 09:30:00 11.3 C 9.38 g/m*3 11.3 C 1.6 km/h
1844 28-04-2020 09:35:00 11.4 C 9.44 g/m*3 11.4 C 0 km/h
1845 28-04-2020 09:40:00 11.5 C 9.4 g/m*3 11.5 C 1.6 km/h
1846 28-04-2020 09:45:00 11.5 C 9.4 g/m*3 11.5 C 0 km/h
1847 28-04-2020 09:50:00 11.7 C 9.52 g/m*3 11.7 C 0 km/h
1848 28-04-2020 09:55:00 11.8 C 9.68 g/m*3 11.8 C 0 km/h
1849 28-04-2020 10:00:00 12 C 9.8 g/m*3 12 C 0 km/h
1850 28-04-2020 10:05:00 12.2 C 9.82 g/m*3 12.2 C 0 km/h
Sensor: Nr:Datum:Temp:Abs-Feuchte:Windchill:Wind:
Aussen-T/F 1851 28-04-2020 10:10:00 12.2 C 9.82 g/m*3 12.2 C 0 km/h
1852 28-04-2020 10:15:00 12.3 C 9.77 g/m*3 12.3 C 0 km/h
1853 28-04-2020 10:20:00 12.3 C 9.77 g/m*3 12.3 C 0 km/h
1854 28-04-2020 10:25:00 12.4 C 9.83 g/m*3 12.4 C 0 km/h
1855 28-04-2020 10:30:00 12.6 C 9.96 g/m*3 12.6 C 0 km/h
1856 28-04-2020 10:35:00 12.7 C 10.02 g/m*3 12.7 C 0 km/h
1857 28-04-2020 10:40:00 12.9 C 10.14 g/m*3 12.9 C 0 km/h
1858 28-04-2020 10:45:00 13.1 C 10.27 g/m*3 13.1 C 0 km/h
1859 28-04-2020 10:50:00 13.2 C 10.22 g/m*3 13.2 C 0 km/h
1860 28-04-2020 10:55:00 13.4 C 10.46 g/m*3 13.4 C 0 km/h
1861 28-04-2020 11:00:00 13.6 C 10.59 g/m*3 13.6 C 0 km/h
1862 28-04-2020 11:05:00 13.7 C 10.66 g/m*3 13.7 C 0 km/h
1863 28-04-2020 11:10:00 13.8 C 10.84 g/m*3 13.8 C 0 km/h
1864 28-04-2020 11:15:00 13.9 C 10.91 g/m*3 13.9 C 3.2 km/h
1865 28-04-2020 11:20:00 13.9 C 10.91 g/m*3 13.9 C 1.6 km/h
1866 28-04-2020 11:25:00 14 C 10.98 g/m*3 14 C 0 km/h
1867 28-04-2020 11:30:00 14.1 C 11.04 g/m*3 14.1 C 0 km/h
1868 28-04-2020 11:35:00 14.2 C 11.23 g/m*3 14.2 C 1.6 km/h
1869 28-04-2020 11:40:00 14.2 C 11.23 g/m*3 14.2 C 0 km/h
1870 28-04-2020 11:45:00 14.2 C 11.23 g/m*3 14.2 C 0 km/h
1871 28-04-2020 11:50:00 14.3 C 11.3 g/m*3 14.3 C 0 km/h
1872 28-04-2020 11:55:00 14.3 C 11.3 g/m*3 14.3 C 0 km/h
1873 28-04-2020 12:00:00 14.4 C 11.37 g/m*3 14.4 C 0 km/h
1874 28-04-2020 12:05:00 14.6 C 11.64 g/m*3 14.6 C 1.6 km/h
1875 28-04-2020 12:10:00 14.7 C 11.71 g/m*3 14.7 C 0 km/h
Sensor: Nr:Datum:Temp:Abs-Feuchte:Windchill:Wind:
Aussen-T/F 1876 28-04-2020 12:15:00 14.8 C 11.65 g/m*3 14.8 C 0 km/h
1877 28-04-2020 12:20:00 14.9 C 11.85 g/m*3 14.9 C 0 km/h
1878 28-04-2020 12:25:00 15 C 11.93 g/m*3 15 C 0 km/h
1879 28-04-2020 12:30:00 15.1 C 12 g/m*3 15.1 C 0 km/h
1880 28-04-2020 12:35:00 15.2 C 12.07 g/m*3 15.2 C 1.6 km/h
1881 28-04-2020 12:40:00 15.2 C 11.94 g/m*3 15.2 C 0 km/h
1882 28-04-2020 12:45:00 15.2 C 11.94 g/m*3 15.2 C 0 km/h
1883 28-04-2020 12:50:00 15.2 C 12.07 g/m*3 15.2 C 0 km/h
1884 28-04-2020 12:55:00 15.2 C 12.07 g/m*3 15.2 C 0 km/h
1885 28-04-2020 13:00:00 15.2 C 11.94 g/m*3 15.2 C 0 km/h
1886 28-04-2020 13:05:00 15.1 C 11.87 g/m*3 15.1 C 0 km/h
1887 28-04-2020 13:10:00 15.1 C 12 g/m*3 15.1 C 0 km/h
1888 28-04-2020 13:15:00 15 C 11.93 g/m*3 15 C 1.6 km/h
1889 28-04-2020 13:20:00 14.9 C 11.85 g/m*3 14.9 C 6.4 km/h
1890 28-04-2020 13:25:00 14.8 C 11.78 g/m*3 14.8 C 11.3 km/h
1891 28-04-2020 13:30:00 14.9 C 11.98 g/m*3 14.9 C 3.2 km/h
1892 28-04-2020 13:35:00 15 C 12.05 g/m*3 15 C 1.6 km/h
1893 28-04-2020 13:40:00 15 C 11.93 g/m*3 15 C 4.8 km/h
1894 28-04-2020 13:45:00 15.2 C 12.2 g/m*3 15.2 C 8.1 km/h
1895 28-04-2020 13:50:00 15.2 C 12.2 g/m*3 15.2 C 9.7 km/h
1896 28-04-2020 13:55:00 15.3 C 12.28 g/m*3 15.3 C 9.7 km/h
1897 28-04-2020 14:00:00 15.5 C 12.29 g/m*3 15.5 C 11.3 km/h
1898 28-04-2020 14:05:00 15.7 C 12.44 g/m*3 15.7 C 14.5 km/h
1899 28-04-2020 14:10:00 15.9 C 12.59 g/m*3 15.9 C 12.9 km/h
1900 28-04-2020 14:15:00 16.2 C 12.82 g/m*3 16.2 C 14.5 km/h
Sensor: Nr:Datum:Temp:Abs-Feuchte:Windchill:Wind:
Aussen-T/F 1901 28-04-2020 14:20:00 16.4 C 12.84 g/m*3 16.4 C 8.1 km/h
1902 28-04-2020 14:25:00 16.6 C 12.86 g/m*3 16.6 C 19.3 km/h
1903 28-04-2020 14:30:00 16.7 C 12.79 g/m*3 16.7 C 19.3 km/h
1904 28-04-2020 14:35:00 16.6 C 12.43 g/m*3 16.6 C 16.1 km/h
1905 28-04-2020 14:40:00 16.4 C 12.28 g/m*3 16.4 C 12.9 km/h
1906 28-04-2020 14:45:00 16.3 C 12.35 g/m*3 16.3 C 16.1 km/h
1907 28-04-2020 14:50:00 16.4 C 12.56 g/m*3 16.4 C 6.4 km/h
1908 28-04-2020 14:55:00 16.6 C 12.71 g/m*3 16.6 C 12.9 km/h
1909 28-04-2020 15:00:00 16.6 C 12.57 g/m*3 16.6 C 14.5 km/h
1910 28-04-2020 15:05:00 16.4 C 12.14 g/m*3 16.4 C 19.3 km/h
1911 28-04-2020 15:10:00 16.2 C 12.14 g/m*3 16.2 C 14.5 km/h
1912 28-04-2020 15:15:00 16.1 C 12.2 g/m*3 16.1 C 12.9 km/h
1913 28-04-2020 15:20:00 16 C 12.13 g/m*3 16 C 9.7 km/h
1914 28-04-2020 15:25:00 16 C 12.13 g/m*3 16 C 12.9 km/h
1915 28-04-2020 15:30:00 16 C 12.26 g/m*3 16 C 11.3 km/h
1916 28-04-2020 15:35:00 16.3 C 12.35 g/m*3 16.3 C 14.5 km/h
1917 28-04-2020 15:40:00 16.3 C 12.07 g/m*3 16.3 C 20.9 km/h
1918 28-04-2020 15:45:00 16.3 C 11.79 g/m*3 16.3 C 20.9 km/h
1919 28-04-2020 15:50:00 16.3 C 12.07 g/m*3 16.3 C 16.1 km/h
1920 28-04-2020 15:55:00 16.4 C 12 g/m*3 16.4 C 17.7 km/h
1921 28-04-2020 16:00:00 16.5 C 11.94 g/m*3 16.5 C 16.1 km/h
1922 28-04-2020 16:05:00 16.4 C 11.72 g/m*3 16.4 C 16.1 km/h
1923 28-04-2020 16:10:00 16.3 C 11.79 g/m*3 16.3 C 19.3 km/h
1924 28-04-2020 16:15:00 16.3 C 11.79 g/m*3 16.3 C 14.5 km/h
1925 28-04-2020 16:20:00 16.3 C 11.79 g/m*3 16.3 C 12.9 km/h
Sensor: Nr:Datum:Temp:Abs-Feuchte:Windchill:Wind:
Aussen-T/F 1926 28-04-2020 16:25:00 16.4 C 12 g/m*3 16.4 C 19.3 km/h
1927 28-04-2020 16:30:00 16.6 C 11.87 g/m*3 16.6 C 19.3 km/h
1928 28-04-2020 16:35:00 16.8 C 12.01 g/m*3 16.8 C 19.3 km/h
1929 28-04-2020 16:40:00 17.1 C 12.23 g/m*3 17.1 C 20.9 km/h
1930 28-04-2020 16:45:00 17.6 C 12 g/m*3 17.6 C 14.5 km/h
1931 28-04-2020 16:50:00 17.8 C 11.99 g/m*3 17.8 C 17.7 km/h
1932 28-04-2020 16:55:00 17.7 C 11.77 g/m*3 17.7 C 17.7 km/h
1933 28-04-2020 17:00:00 17.4 C 11.71 g/m*3 17.4 C 12.9 km/h
1934 28-04-2020 17:05:00 17.2 C 11.57 g/m*3 17.2 C 14.5 km/h
1935 28-04-2020 17:10:00 17.1 C 11.35 g/m*3 17.1 C 16.1 km/h
1936 28-04-2020 17:15:00 17 C 11.43 g/m*3 17 C 14.5 km/h
1937 28-04-2020 17:20:00 17 C 11.58 g/m*3 17 C 11.3 km/h
1938 28-04-2020 17:25:00 17 C 11.29 g/m*3 17 C 11.3 km/h
1939 28-04-2020 17:30:00 16.9 C 11.22 g/m*3 16.9 C 14.5 km/h
1940 28-04-2020 17:35:00 16.8 C 11.01 g/m*3 16.8 C 12.9 km/h
1941 28-04-2020 17:40:00 16.7 C 11.08 g/m*3 16.7 C 14.5 km/h
1942 28-04-2020 17:45:00 16.6 C 10.88 g/m*3 16.6 C 11.3 km/h
1943 28-04-2020 17:50:00 16.5 C 10.95 g/m*3 16.5 C 11.3 km/h
1944 28-04-2020 17:55:00 16.7 C 11.08 g/m*3 16.7 C 17.7 km/h
1945 28-04-2020 18:00:00 17.2 C 11.28 g/m*3 17.2 C 11.3 km/h
1946 28-04-2020 18:05:00 17.4 C 10.97 g/m*3 17.4 C 16.1 km/h
1947 28-04-2020 18:10:00 17.5 C 11.03 g/m*3 17.5 C 14.5 km/h
1948 28-04-2020 18:15:00 17.4 C 10.97 g/m*3 17.4 C 11.3 km/h
1949 28-04-2020 18:20:00 17.6 C 11.25 g/m*3 17.6 C 9.7 km/h
1950 28-04-2020 18:25:00 17.9 C 10.99 g/m*3 17.9 C 9.7 km/h
Sensor: Nr:Datum:Temp:Abs-Feuchte:Windchill:Wind:
Aussen-T/F 1951 28-04-2020 18:30:00 17.8 C 10.78 g/m*3 17.8 C 12.9 km/h
1952 28-04-2020 18:35:00 17.9 C 10.69 g/m*3 17.9 C 16.1 km/h
1953 28-04-2020 18:40:00 18 C 10.91 g/m*3 18 C 16.1 km/h
1954 28-04-2020 18:45:00 18.2 C 11.19 g/m*3 18.2 C 6.4 km/h
1955 28-04-2020 18:50:00 17.8 C 10.78 g/m*3 17.8 C 12.9 km/h
1956 28-04-2020 18:55:00 17.4 C 10.82 g/m*3 17.4 C 8.1 km/h
1957 28-04-2020 19:00:00 16.9 C 10.79 g/m*3 16.9 C 9.7 km/h
1958 28-04-2020 19:05:00 16.8 C 10.72 g/m*3 16.8 C 6.4 km/h
1959 28-04-2020 19:10:00 16.7 C 10.37 g/m*3 16.7 C 11.3 km/h
1960 28-04-2020 19:15:00 16.7 C 10.8 g/m*3 16.7 C 6.4 km/h
1961 28-04-2020 19:20:00 16.8 C 11.15 g/m*3 16.8 C 1.6 km/h
1962 28-04-2020 19:25:00 17 C 10.85 g/m*3 17 C 4.8 km/h
1963 28-04-2020 19:30:00 17.1 C 11.21 g/m*3 17.1 C 4.8 km/h
1964 28-04-2020 19:35:00 17.1 C 10.77 g/m*3 17.1 C 3.2 km/h
1965 28-04-2020 19:40:00 17.1 C 10.63 g/m*3 17.1 C 8.1 km/h
1966 28-04-2020 19:45:00 17.1 C 10.92 g/m*3 17.1 C 8.1 km/h
1967 28-04-2020 19:50:00 17 C 10.56 g/m*3 17 C 6.4 km/h
1968 28-04-2020 19:55:00 16.8 C 10.44 g/m*3 16.8 C 6.4 km/h
1969 28-04-2020 20:00:00 16.6 C 10.59 g/m*3 16.6 C 4.8 km/h
1970 28-04-2020 20:05:00 16.3 C 10.68 g/m*3 16.3 C 6.4 km/h
1971 28-04-2020 20:10:00 16 C 10.63 g/m*3 16 C 6.4 km/h
1972 28-04-2020 20:15:00 15.6 C 10.51 g/m*3 15.6 C 6.4 km/h
1973 28-04-2020 20:20:00 15.3 C 10.45 g/m*3 15.3 C 4.8 km/h
1974 28-04-2020 20:25:00 15 C 10.51 g/m*3 15 C 6.4 km/h
1975 28-04-2020 20:30:00 14.7 C 10.45 g/m*3 14.7 C 4.8 km/h
Sensor: Nr:Datum:Temp:Abs-Feuchte:Windchill:Wind:
Aussen-T/F 1976 28-04-2020 20:35:00 14.4 C 10.38 g/m*3 14.4 C 4.8 km/h
1977 28-04-2020 20:40:00 14.2 C 10.38 g/m*3 14.2 C 4.8 km/h
1978 28-04-2020 20:45:00 14 C 10.25 g/m*3 14 C 6.4 km/h
1979 28-04-2020 20:50:00 13.8 C 10.25 g/m*3 13.8 C 4.8 km/h
1980 28-04-2020 20:55:00 13.6 C 10.12 g/m*3 13.6 C 4.8 km/h
1981 28-04-2020 21:00:00 13.4 C 10.11 g/m*3 13.4 C 6.4 km/h
1982 28-04-2020 21:05:00 13.2 C 9.99 g/m*3 13.2 C 6.4 km/h
1983 28-04-2020 21:10:00 13.2 C 10.1 g/m*3 13.2 C 9.7 km/h
1984 28-04-2020 21:15:00 13.1 C 10.04 g/m*3 13.1 C 6.4 km/h
1985 28-04-2020 21:20:00 13.1 C 10.04 g/m*3 13.1 C 11.3 km/h
1986 28-04-2020 21:25:00 13.2 C 9.99 g/m*3 13.2 C 12.9 km/h
1987 28-04-2020 21:30:00 13.3 C 9.94 g/m*3 13.3 C 9.7 km/h
1988 28-04-2020 21:35:00 13.4 C 9.88 g/m*3 13.4 C 9.7 km/h
1989 28-04-2020 21:40:00 13.6 C 10 g/m*3 13.6 C 9.7 km/h
1990 28-04-2020 21:45:00 13.7 C 9.95 g/m*3 13.7 C 16.1 km/h
1991 28-04-2020 21:50:00 13.8 C 10.01 g/m*3 13.8 C 9.7 km/h
1992 28-04-2020 21:55:00 13.8 C 10.01 g/m*3 13.8 C 8.1 km/h
1993 28-04-2020 22:00:00 13.8 C 10.01 g/m*3 13.8 C 6.4 km/h
1994 28-04-2020 22:05:00 13.8 C 10.01 g/m*3 13.8 C 6.4 km/h
1995 28-04-2020 22:10:00 13.6 C 10 g/m*3 13.6 C 4.8 km/h
1996 28-04-2020 22:15:00 13.4 C 9.88 g/m*3 13.4 C 4.8 km/h
1997 28-04-2020 22:20:00 13.3 C 9.94 g/m*3 13.3 C 6.4 km/h
1998 28-04-2020 22:25:00 13.2 C 9.99 g/m*3 13.2 C 1.6 km/h
1999 28-04-2020 22:30:00 13.1 C 10.04 g/m*3 13.1 C 4.8 km/h
2000 28-04-2020 22:35:00 13.1 C 9.93 g/m*3 13.1 C 3.2 km/h
Sensor: Nr:Datum:Temp:Abs-Feuchte:Windchill:Wind:
Aussen-T/F 2001 28-04-2020 22:40:00 13.1 C 10.04 g/m*3 13.1 C 3.2 km/h
2002 28-04-2020 22:45:00 13.1 C 10.04 g/m*3 13.1 C 4.8 km/h
2003 28-04-2020 22:50:00 13.1 C 10.04 g/m*3 13.1 C 0 km/h
2004 28-04-2020 22:55:00 13.1 C 10.04 g/m*3 13.1 C 0 km/h
2005 28-04-2020 23:00:00 13.1 C 10.04 g/m*3 13.1 C 3.2 km/h
2006 28-04-2020 23:05:00 13 C 9.98 g/m*3 13 C 1.6 km/h
2007 28-04-2020 23:10:00 12.9 C 9.92 g/m*3 12.9 C 1.6 km/h
2008 28-04-2020 23:15:00 12.9 C 10.03 g/m*3 12.9 C 0 km/h
2009 28-04-2020 23:20:00 12.9 C 10.03 g/m*3 12.9 C 3.2 km/h
2010 28-04-2020 23:25:00 12.9 C 10.03 g/m*3 12.9 C 3.2 km/h
2011 28-04-2020 23:30:00 12.9 C 10.03 g/m*3 12.9 C 0 km/h
2012 28-04-2020 23:35:00 12.9 C 10.03 g/m*3 12.9 C 0 km/h
2013 28-04-2020 23:40:00 12.8 C 10.08 g/m*3 12.8 C 1.6 km/h
2014 28-04-2020 23:45:00 12.8 C 10.08 g/m*3 12.8 C 1.6 km/h
2015 28-04-2020 23:50:00 12.8 C 10.08 g/m*3 12.8 C 0 km/h
2016 28-04-2020 23:55:00 12.7 C 10.02 g/m*3 12.7 C 0 km/h
2017 29-04-2020 00:00:00 12.7 C 10.02 g/m*3 12.7 C 0 km/h
2018 29-04-2020 00:05:00 12.6 C 9.96 g/m*3 12.6 C 1.6 km/h
2019 29-04-2020 00:10:00 12.6 C 9.96 g/m*3 12.6 C 1.6 km/h
2020 29-04-2020 00:15:00 12.6 C 9.96 g/m*3 12.6 C 0 km/h
2021 29-04-2020 00:20:00 12.5 C 9.89 g/m*3 12.5 C 0 km/h
2022 29-04-2020 00:25:00 12.4 C 9.83 g/m*3 12.4 C 0 km/h
2023 29-04-2020 00:30:00 12.4 C 9.83 g/m*3 12.4 C 1.6 km/h
2024 29-04-2020 00:35:00 12.3 C 9.77 g/m*3 12.3 C 3.2 km/h
2025 29-04-2020 00:40:00 12.2 C 9.71 g/m*3 12.2 C 3.2 km/h
Sensor: Nr:Datum:Temp:Abs-Feuchte:Windchill:Wind:
Aussen-T/F 2026 29-04-2020 00:45:00 12.1 C 9.65 g/m*3 12.1 C 4.8 km/h
2027 29-04-2020 00:50:00 12 C 9.59 g/m*3 12 C 3.2 km/h
2028 29-04-2020 00:55:00 11.9 C 9.53 g/m*3 11.9 C 1.6 km/h
2029 29-04-2020 01:00:00 11.9 C 9.64 g/m*3 11.9 C 0 km/h
2030 29-04-2020 01:05:00 11.9 C 9.64 g/m*3 11.9 C 0 km/h
2031 29-04-2020 01:10:00 11.8 C 9.58 g/m*3 11.8 C 0 km/h
2032 29-04-2020 01:15:00 11.8 C 9.58 g/m*3 11.8 C 4.8 km/h
2033 29-04-2020 01:20:00 11.8 C 9.58 g/m*3 11.8 C 3.2 km/h
2034 29-04-2020 01:25:00 11.9 C 9.74 g/m*3 11.9 C 6.4 km/h
2035 29-04-2020 01:30:00 12 C 9.8 g/m*3 12 C 4.8 km/h
2036 29-04-2020 01:35:00 12.1 C 9.87 g/m*3 12.1 C 0 km/h
2037 29-04-2020 01:40:00 12.1 C 9.87 g/m*3 12.1 C 0 km/h
2038 29-04-2020 01:45:00 12.1 C 9.87 g/m*3 12.1 C 0 km/h
2039 29-04-2020 01:50:00 12.1 C 9.87 g/m*3 12.1 C 0 km/h
2040 29-04-2020 01:55:00 12 C 9.8 g/m*3 12 C 0 km/h
2041 29-04-2020 02:00:00 12 C 9.91 g/m*3 12 C 0 km/h
2042 29-04-2020 02:05:00 11.9 C 9.74 g/m*3 11.9 C 4.8 km/h
2043 29-04-2020 02:10:00 11.9 C 9.74 g/m*3 11.9 C 4.8 km/h
2044 29-04-2020 02:15:00 11.9 C 9.74 g/m*3 11.9 C 3.2 km/h
2045 29-04-2020 02:20:00 11.9 C 9.74 g/m*3 11.9 C 4.8 km/h
2046 29-04-2020 02:25:00 11.9 C 9.64 g/m*3 11.9 C 8.1 km/h
2047 29-04-2020 02:30:00 12 C 9.7 g/m*3 12 C 11.3 km/h
2048 29-04-2020 02:35:00 12.1 C 9.65 g/m*3 12.1 C 11.3 km/h
2049 29-04-2020 02:40:00 12.2 C 9.6 g/m*3 12.2 C 11.3 km/h
2050 29-04-2020 02:45:00 12.3 C 9.56 g/m*3 12.3 C 9.7 km/h
Sensor: Nr:Datum:Temp:Abs-Feuchte:Windchill:Wind:
Aussen-T/F 2051 29-04-2020 02:50:00 12.3 C 9.56 g/m*3 12.3 C 6.4 km/h
2052 29-04-2020 02:55:00 12.3 C 9.34 g/m*3 12.3 C 9.7 km/h
2053 29-04-2020 03:00:00 12.3 C 9.45 g/m*3 12.3 C 4.8 km/h
2054 29-04-2020 03:05:00 12.3 C 9.45 g/m*3 12.3 C 4.8 km/h
2055 29-04-2020 03:10:00 12.2 C 9.39 g/m*3 12.2 C 4.8 km/h
2056 29-04-2020 03:15:00 12.1 C 9.33 g/m*3 12.1 C 4.8 km/h
2057 29-04-2020 03:20:00 12 C 9.38 g/m*3 12 C 3.2 km/h
2058 29-04-2020 03:25:00 11.9 C 9.32 g/m*3 11.9 C 1.6 km/h
2059 29-04-2020 03:30:00 11.9 C 9.43 g/m*3 11.9 C 1.6 km/h
2060 29-04-2020 03:35:00 11.9 C 9.43 g/m*3 11.9 C 3.2 km/h
2061 29-04-2020 03:40:00 11.9 C 9.43 g/m*3 11.9 C 6.4 km/h
2062 29-04-2020 03:45:00 11.9 C 9.43 g/m*3 11.9 C 1.6 km/h
2063 29-04-2020 03:50:00 11.9 C 9.43 g/m*3 11.9 C 4.8 km/h
2064 29-04-2020 03:55:00 12 C 9.38 g/m*3 12 C 4.8 km/h
2065 29-04-2020 04:00:00 12.1 C 9.54 g/m*3 12.1 C 1.6 km/h
2066 29-04-2020 04:05:00 12.1 C 9.54 g/m*3 12.1 C 0 km/h
2067 29-04-2020 04:10:00 12.1 C 9.54 g/m*3 12.1 C 1.6 km/h
2068 29-04-2020 04:15:00 12.1 C 9.54 g/m*3 12.1 C 0 km/h
2069 29-04-2020 04:20:00 12.1 C 9.54 g/m*3 12.1 C 3.2 km/h
2070 29-04-2020 04:25:00 12 C 9.48 g/m*3 12 C 1.6 km/h
2071 29-04-2020 04:30:00 12 C 9.48 g/m*3 12 C 1.6 km/h
2072 29-04-2020 04:35:00 12 C 9.48 g/m*3 12 C 1.6 km/h
2073 29-04-2020 04:40:00 11.9 C 9.43 g/m*3 11.9 C 0 km/h
2074 29-04-2020 04:45:00 11.9 C 9.43 g/m*3 11.9 C 1.6 km/h
2075 29-04-2020 04:50:00 11.9 C 9.43 g/m*3 11.9 C 3.2 km/h
Sensor: Nr:Datum:Temp:Abs-Feuchte:Windchill:Wind:
Aussen-T/F 2076 29-04-2020 04:55:00 11.9 C 9.43 g/m*3 11.9 C 0 km/h
2077 29-04-2020 05:00:00 11.8 C 9.37 g/m*3 11.8 C 3.2 km/h
2078 29-04-2020 05:05:00 11.8 C 9.37 g/m*3 11.8 C 3.2 km/h
2079 29-04-2020 05:10:00 11.8 C 9.37 g/m*3 11.8 C 0 km/h
2080 29-04-2020 05:15:00 11.8 C 9.37 g/m*3 11.8 C 0 km/h
2081 29-04-2020 05:20:00 11.8 C 9.37 g/m*3 11.8 C 6.4 km/h
2082 29-04-2020 05:25:00 11.8 C 9.37 g/m*3 11.8 C 0 km/h
2083 29-04-2020 05:30:00 11.8 C 9.37 g/m*3 11.8 C 1.6 km/h
2084 29-04-2020 05:35:00 11.8 C 9.37 g/m*3 11.8 C 0 km/h
2085 29-04-2020 05:40:00 11.8 C 9.37 g/m*3 11.8 C 1.6 km/h
2086 29-04-2020 05:45:00 11.8 C 9.37 g/m*3 11.8 C 0 km/h
2087 29-04-2020 05:50:00 11.8 C 9.47 g/m*3 11.8 C 0 km/h
2088 29-04-2020 05:55:00 11.8 C 9.47 g/m*3 11.8 C 1.6 km/h
2089 29-04-2020 06:00:00 11.7 C 9.41 g/m*3 11.7 C 1.6 km/h
2090 29-04-2020 06:05:00 11.7 C 9.41 g/m*3 11.7 C 0 km/h
2091 29-04-2020 06:10:00 11.7 C 9.41 g/m*3 11.7 C 1.6 km/h
2092 29-04-2020 06:15:00 11.7 C 9.41 g/m*3 11.7 C 1.6 km/h
2093 29-04-2020 06:20:00 11.7 C 9.41 g/m*3 11.7 C 8.1 km/h
2094 29-04-2020 06:25:00 11.7 C 9.31 g/m*3 11.7 C 4.8 km/h
2095 29-04-2020 06:30:00 11.7 C 9.31 g/m*3 11.7 C 0 km/h
2096 29-04-2020 06:35:00 11.7 C 9.31 g/m*3 11.7 C 0 km/h
2097 29-04-2020 06:40:00 11.6 C 9.25 g/m*3 11.6 C 0 km/h
2098 29-04-2020 06:45:00 11.6 C 9.25 g/m*3 11.6 C 0 km/h
2099 29-04-2020 06:50:00 11.5 C 9.3 g/m*3 11.5 C 0 km/h
2100 29-04-2020 06:55:00 11.6 C 9.35 g/m*3 11.6 C 1.6 km/h
Sensor: Nr:Datum:Temp:Abs-Feuchte:Windchill:Wind:
Aussen-T/F 2101 29-04-2020 07:00:00 11.6 C 9.35 g/m*3 11.6 C 4.8 km/h
2102 29-04-2020 07:05:00 11.7 C 9.41 g/m*3 11.7 C 1.6 km/h
2103 29-04-2020 07:10:00 11.7 C 9.41 g/m*3 11.7 C 0 km/h
2104 29-04-2020 07:15:00 11.8 C 9.47 g/m*3 11.8 C 3.2 km/h
2105 29-04-2020 07:20:00 11.9 C 9.53 g/m*3 11.9 C 3.2 km/h
2106 29-04-2020 07:25:00 11.9 C 9.53 g/m*3 11.9 C 1.6 km/h
2107 29-04-2020 07:30:00 12.1 C 9.54 g/m*3 12.1 C 4.8 km/h
2108 29-04-2020 07:35:00 12.1 C 9.54 g/m*3 12.1 C 3.2 km/h
2109 29-04-2020 07:40:00 12.3 C 9.45 g/m*3 12.3 C 9.7 km/h
2110 29-04-2020 07:45:00 12.3 C 9.45 g/m*3 12.3 C 8.1 km/h
2111 29-04-2020 07:50:00 12.4 C 9.51 g/m*3 12.4 C 8.1 km/h
2112 29-04-2020 07:55:00 12.6 C 9.51 g/m*3 12.6 C 11.3 km/h
2113 29-04-2020 08:00:00 12.7 C 9.57 g/m*3 12.7 C 6.4 km/h
2114 29-04-2020 08:05:00 12.7 C 9.57 g/m*3 12.7 C 3.2 km/h
2115 29-04-2020 08:10:00 12.8 C 9.52 g/m*3 12.8 C 8.1 km/h
2116 29-04-2020 08:15:00 12.9 C 9.47 g/m*3 12.9 C 8.1 km/h
2117 29-04-2020 08:20:00 12.9 C 9.47 g/m*3 12.9 C 11.3 km/h
2118 29-04-2020 08:25:00 12.9 C 9.47 g/m*3 12.9 C 11.3 km/h
2119 29-04-2020 08:30:00 12.9 C 9.47 g/m*3 12.9 C 9.7 km/h
2120 29-04-2020 08:35:00 12.8 C 9.41 g/m*3 12.8 C 9.7 km/h
2121 29-04-2020 08:40:00 12.8 C 9.41 g/m*3 12.8 C 9.7 km/h
2122 29-04-2020 08:45:00 12.8 C 9.41 g/m*3 12.8 C 9.7 km/h
2123 29-04-2020 08:50:00 12.8 C 9.41 g/m*3 12.8 C 16.1 km/h
2124 29-04-2020 08:55:00 12.8 C 9.41 g/m*3 12.8 C 12.9 km/h
2125 29-04-2020 09:00:00 13 C 9.53 g/m*3 13 C 14.5 km/h
Sensor: Nr:Datum:Temp:Abs-Feuchte:Windchill:Wind:
Aussen-T/F 2126 29-04-2020 09:05:00 13.1 C 9.36 g/m*3 13.1 C 12.9 km/h
2127 29-04-2020 09:10:00 13.2 C 9.42 g/m*3 13.2 C 16.1 km/h
2128 29-04-2020 09:15:00 13.2 C 9.3 g/m*3 13.2 C 12.9 km/h
2129 29-04-2020 09:20:00 13.2 C 9.3 g/m*3 13.2 C 11.3 km/h
2130 29-04-2020 09:25:00 13.3 C 9.24 g/m*3 13.3 C 20.9 km/h
2131 29-04-2020 09:30:00 13.4 C 9.3 g/m*3 13.4 C 20.9 km/h
2132 29-04-2020 09:35:00 13.5 C 9.36 g/m*3 13.5 C 14.5 km/h
2133 29-04-2020 09:40:00 13.6 C 9.18 g/m*3 13.6 C 16.1 km/h
2134 29-04-2020 09:45:00 13.7 C 9.24 g/m*3 13.7 C 12.9 km/h
2135 29-04-2020 09:50:00 13.8 C 9.06 g/m*3 13.8 C 19.3 km/h
2136 29-04-2020 09:55:00 13.9 C 8.99 g/m*3 13.9 C 14.5 km/h
2137 29-04-2020 10:00:00 14.1 C 9.1 g/m*3 14.1 C 12.9 km/h
2138 29-04-2020 10:05:00 14.2 C 9.04 g/m*3 14.2 C 17.7 km/h
2139 29-04-2020 10:10:00 14.3 C 8.97 g/m*3 14.3 C 17.7 km/h
2140 29-04-2020 10:15:00 14.4 C 9.27 g/m*3 14.4 C 8.1 km/h
2141 29-04-2020 10:20:00 14.7 C 9.19 g/m*3 14.7 C 14.5 km/h
2142 29-04-2020 10:25:00 14.8 C 9.12 g/m*3 14.8 C 14.5 km/h
2143 29-04-2020 10:30:00 14.8 C 9.12 g/m*3 14.8 C 14.5 km/h
2144 29-04-2020 10:35:00 14.8 C 8.99 g/m*3 14.8 C 12.9 km/h
2145 29-04-2020 10:40:00 14.9 C 9.18 g/m*3 14.9 C 8.1 km/h
2146 29-04-2020 10:45:00 14.8 C 8.99 g/m*3 14.8 C 14.5 km/h
2147 29-04-2020 10:50:00 14.9 C 9.18 g/m*3 14.9 C 9.7 km/h
2148 29-04-2020 10:55:00 15.1 C 9.16 g/m*3 15.1 C 16.1 km/h
2149 29-04-2020 11:00:00 15.2 C 9.22 g/m*3 15.2 C 12.9 km/h
2150 29-04-2020 11:05:00 15.4 C 9.33 g/m*3 15.4 C 8.1 km/h
Sensor: Nr:Datum:Temp:Abs-Feuchte:Windchill:Wind:
Aussen-T/F 2151 29-04-2020 11:10:00 15.4 C 8.93 g/m*3 15.4 C 20.9 km/h
2152 29-04-2020 11:15:00 15.5 C 9.25 g/m*3 15.5 C 14.5 km/h
2153 29-04-2020 11:20:00 15.7 C 9.1 g/m*3 15.7 C 16.1 km/h
2154 29-04-2020 11:25:00 15.7 C 9.1 g/m*3 15.7 C 14.5 km/h
2155 29-04-2020 11:30:00 15.7 C 8.96 g/m*3 15.7 C 16.1 km/h
2156 29-04-2020 11:35:00 15.9 C 9.07 g/m*3 15.9 C 17.7 km/h
2157 29-04-2020 11:40:00 16.1 C 9.05 g/m*3 16.1 C 27.4 km/h
2158 29-04-2020 11:45:00 16.1 C 8.91 g/m*3 16.1 C 11.3 km/h
2159 29-04-2020 11:50:00 16.2 C 8.96 g/m*3 16.2 C 20.9 km/h
2160 29-04-2020 11:55:00 16.2 C 8.83 g/m*3 16.2 C 12.9 km/h
2161 29-04-2020 12:00:00 16.3 C 9.02 g/m*3 16.3 C 14.5 km/h
2162 29-04-2020 12:05:00 16.5 C 8.85 g/m*3 16.5 C 22.5 km/h
2163 29-04-2020 12:10:00 16.4 C 8.79 g/m*3 16.4 C 19.3 km/h
2164 29-04-2020 12:15:00 16.1 C 8.64 g/m*3 16.1 C 20.9 km/h
2165 29-04-2020 12:20:00 15.9 C 8.53 g/m*3 15.9 C 14.5 km/h
2166 29-04-2020 12:25:00 15.7 C 8.7 g/m*3 15.7 C 9.7 km/h
2167 29-04-2020 12:30:00 15.7 C 8.83 g/m*3 15.7 C 12.9 km/h
2168 29-04-2020 12:35:00 15.7 C 8.7 g/m*3 15.7 C 11.3 km/h
2169 29-04-2020 12:40:00 15.8 C 9.02 g/m*3 15.8 C 8.1 km/h
2170 29-04-2020 12:45:00 15.9 C 8.94 g/m*3 15.9 C 11.3 km/h
2171 29-04-2020 12:50:00 16 C 8.86 g/m*3 16 C 16.1 km/h
2172 29-04-2020 12:55:00 16 C 8.72 g/m*3 16 C 17.7 km/h
2173 29-04-2020 13:00:00 16.1 C 8.77 g/m*3 16.1 C 12.9 km/h
2174 29-04-2020 13:05:00 16.2 C 8.96 g/m*3 16.2 C 16.1 km/h
2175 29-04-2020 13:10:00 16.3 C 9.02 g/m*3 16.3 C 11.3 km/h
Sensor: Nr:Datum:Temp:Abs-Feuchte:Windchill:Wind:
Aussen-T/F 2176 29-04-2020 13:15:00 16.3 C 8.88 g/m*3 16.3 C 14.5 km/h
2177 29-04-2020 13:20:00 16.1 C 8.91 g/m*3 16.1 C 19.3 km/h
2178 29-04-2020 13:25:00 16 C 9.13 g/m*3 16 C 22.5 km/h
2179 29-04-2020 13:30:00 16.1 C 9.05 g/m*3 16.1 C 12.9 km/h
2180 29-04-2020 13:35:00 16.3 C 9.02 g/m*3 16.3 C 20.9 km/h
2181 29-04-2020 13:40:00 16.3 C 9.02 g/m*3 16.3 C 17.7 km/h
2182 29-04-2020 13:45:00 16.3 C 9.02 g/m*3 16.3 C 16.1 km/h
2183 29-04-2020 13:50:00 16.4 C 9.07 g/m*3 16.4 C 16.1 km/h
2184 29-04-2020 13:55:00 16.3 C 9.02 g/m*3 16.3 C 19.3 km/h
2185 29-04-2020 14:00:00 16.1 C 9.18 g/m*3 16.1 C 14.5 km/h
2186 29-04-2020 14:05:00 16.1 C 9.18 g/m*3 16.1 C 16.1 km/h
2187 29-04-2020 14:10:00 16.1 C 9.32 g/m*3 16.1 C 14.5 km/h
2188 29-04-2020 14:15:00 15.9 C 9.07 g/m*3 15.9 C 11.3 km/h
2189 29-04-2020 14:20:00 15.7 C 9.1 g/m*3 15.7 C 14.5 km/h
2190 29-04-2020 14:25:00 15.6 C 9.04 g/m*3 15.6 C 16.1 km/h
2191 29-04-2020 14:30:00 15.7 C 9.1 g/m*3 15.7 C 14.5 km/h
2192 29-04-2020 14:35:00 15.7 C 9.23 g/m*3 15.7 C 12.9 km/h
2193 29-04-2020 14:40:00 15.8 C 9.29 g/m*3 15.8 C 8.1 km/h
2194 29-04-2020 14:45:00 15.9 C 9.34 g/m*3 15.9 C 12.9 km/h
2195 29-04-2020 14:50:00 16.3 C 9.43 g/m*3 16.3 C 16.1 km/h
2196 29-04-2020 14:55:00 16.7 C 9.52 g/m*3 16.7 C 14.5 km/h
2197 29-04-2020 15:00:00 16.8 C 9.58 g/m*3 16.8 C 14.5 km/h
2198 29-04-2020 15:05:00 17.1 C 9.61 g/m*3 17.1 C 12.9 km/h
2199 29-04-2020 15:10:00 17.2 C 9.52 g/m*3 17.2 C 12.9 km/h
2200 29-04-2020 15:15:00 17.3 C 9.28 g/m*3 17.3 C 14.5 km/h
Sensor: Nr:Datum:Temp:Abs-Feuchte:Windchill:Wind:
Aussen-T/F 2201 29-04-2020 15:20:00 17.4 C 9.19 g/m*3 17.4 C 12.9 km/h
2202 29-04-2020 15:25:00 17.4 C 9.48 g/m*3 17.4 C 12.9 km/h
2203 29-04-2020 15:30:00 17.8 C 9.41 g/m*3 17.8 C 16.1 km/h
2204 29-04-2020 15:35:00 17.7 C 9.35 g/m*3 17.7 C 14.5 km/h
2205 29-04-2020 15:40:00 17.4 C 9.34 g/m*3 17.4 C 12.9 km/h
2206 29-04-2020 15:45:00 17.3 C 9.28 g/m*3 17.3 C 16.1 km/h
2207 29-04-2020 15:50:00 17.7 C 9.51 g/m*3 17.7 C 14.5 km/h
2208 29-04-2020 15:55:00 17.7 C 9.35 g/m*3 17.7 C 12.9 km/h
2209 29-04-2020 16:00:00 17.3 C 9.13 g/m*3 17.3 C 14.5 km/h
2210 29-04-2020 16:05:00 17.1 C 9.32 g/m*3 17.1 C 9.7 km/h
2211 29-04-2020 16:10:00 16.9 C 9.49 g/m*3 16.9 C 12.9 km/h
2212 29-04-2020 16:15:00 16.9 C 9.49 g/m*3 16.9 C 11.3 km/h
2213 29-04-2020 16:20:00 17.1 C 9.46 g/m*3 17.1 C 12.9 km/h
2214 29-04-2020 16:25:00 17.1 C 9.32 g/m*3 17.1 C 16.1 km/h
2215 29-04-2020 16:30:00 17 C 9.12 g/m*3 17 C 14.5 km/h
2216 29-04-2020 16:35:00 16.8 C 9.01 g/m*3 16.8 C 8.1 km/h
2217 29-04-2020 16:40:00 17 C 9.12 g/m*3 17 C 11.3 km/h
2218 29-04-2020 16:45:00 17.3 C 9.28 g/m*3 17.3 C 16.1 km/h
2219 29-04-2020 16:50:00 17.6 C 9.15 g/m*3 17.6 C 17.7 km/h
2220 29-04-2020 16:55:00 17.6 C 9.45 g/m*3 17.6 C 17.7 km/h
2221 29-04-2020 17:00:00 17.2 C 9.23 g/m*3 17.2 C 14.5 km/h
2222 29-04-2020 17:05:00 16.9 C 9.06 g/m*3 16.9 C 12.9 km/h
2223 29-04-2020 17:10:00 16.7 C 9.24 g/m*3 16.7 C 8.1 km/h
2224 29-04-2020 17:15:00 16.6 C 9.75 g/m*3 16.6 C 4.8 km/h
2225 29-04-2020 17:20:00 16.9 C 10.36 g/m*3 16.9 C 8.1 km/h
Sensor: Nr:Datum:Temp:Abs-Feuchte:Windchill:Wind:
Aussen-T/F 2226 29-04-2020 17:25:00 17.5 C 9.99 g/m*3 17.5 C 9.7 km/h
2227 29-04-2020 17:30:00 18.1 C 10.04 g/m*3 18.1 C 9.7 km/h
2228 29-04-2020 17:35:00 18.4 C 9.91 g/m*3 18.4 C 8.1 km/h
2229 29-04-2020 17:40:00 18.8 C 9.82 g/m*3 18.8 C 11.3 km/h
2230 29-04-2020 17:45:00 19 C 9.29 g/m*3 19 C 16.1 km/h
2231 29-04-2020 17:50:00 19.2 C 9.73 g/m*3 19.2 C 12.9 km/h
2232 29-04-2020 17:55:00 19.2 C 9.4 g/m*3 19.2 C 9.7 km/h
2233 29-04-2020 18:00:00 18.9 C 9.23 g/m*3 18.9 C 12.9 km/h
2234 29-04-2020 18:05:00 19.1 C 9.34 g/m*3 19.1 C 14.5 km/h
2235 29-04-2020 18:10:00 18.9 C 9.07 g/m*3 18.9 C 12.9 km/h
2236 29-04-2020 18:15:00 18.4 C 8.97 g/m*3 18.4 C 11.3 km/h
2237 29-04-2020 18:20:00 17.7 C 9.05 g/m*3 17.7 C 11.3 km/h
2238 29-04-2020 18:25:00 17.3 C 9.13 g/m*3 17.3 C 6.4 km/h
2239 29-04-2020 18:30:00 17.1 C 9.03 g/m*3 17.1 C 9.7 km/h
2240 29-04-2020 18:35:00 17.1 C 9.32 g/m*3 17.1 C 8.1 km/h
2241 29-04-2020 18:40:00 17.5 C 9.39 g/m*3 17.5 C 8.1 km/h
2242 29-04-2020 18:45:00 17.7 C 9.35 g/m*3 17.7 C 12.9 km/h
2243 29-04-2020 18:50:00 17.4 C 9.34 g/m*3 17.4 C 9.7 km/h
2244 29-04-2020 18:55:00 17.2 C 9.37 g/m*3 17.2 C 4.8 km/h
2245 29-04-2020 19:00:00 17.1 C 9.32 g/m*3 17.1 C 4.8 km/h
2246 29-04-2020 19:05:00 17 C 9.41 g/m*3 17 C 4.8 km/h
2247 29-04-2020 19:10:00 17 C 9.55 g/m*3 17 C 8.1 km/h
2248 29-04-2020 19:15:00 17.3 C 9.58 g/m*3 17.3 C 6.4 km/h
2249 29-04-2020 19:20:00 17.7 C 9.51 g/m*3 17.7 C 11.3 km/h
2250 29-04-2020 19:25:00 17.8 C 9.41 g/m*3 17.8 C 8.1 km/h
Sensor: Nr:Datum:Temp:Abs-Feuchte:Windchill:Wind:
Aussen-T/F 2251 29-04-2020 19:30:00 17.8 C 9.41 g/m*3 17.8 C 11.3 km/h
2252 29-04-2020 19:35:00 17.7 C 9.35 g/m*3 17.7 C 8.1 km/h
2253 29-04-2020 19:40:00 17.5 C 9.24 g/m*3 17.5 C 9.7 km/h
2254 29-04-2020 19:45:00 17.3 C 9.43 g/m*3 17.3 C 6.4 km/h
2255 29-04-2020 19:50:00 17.1 C 9.03 g/m*3 17.1 C 8.1 km/h
2256 29-04-2020 19:55:00 16.9 C 9.35 g/m*3 16.9 C 4.8 km/h
2257 29-04-2020 20:00:00 16.6 C 9.18 g/m*3 16.6 C 6.4 km/h
2258 29-04-2020 20:05:00 16.3 C 9.16 g/m*3 16.3 C 4.8 km/h
2259 29-04-2020 20:10:00 16 C 8.99 g/m*3 16 C 3.2 km/h
2260 29-04-2020 20:15:00 15.7 C 9.1 g/m*3 15.7 C 3.2 km/h
2261 29-04-2020 20:20:00 15.5 C 9.25 g/m*3 15.5 C 1.6 km/h
2262 29-04-2020 20:25:00 15.3 C 9.27 g/m*3 15.3 C 1.6 km/h
2263 29-04-2020 20:30:00 15.1 C 9.16 g/m*3 15.1 C 3.2 km/h
2264 29-04-2020 20:35:00 14.9 C 9.18 g/m*3 14.9 C 6.4 km/h
2265 29-04-2020 20:40:00 14.7 C 9.07 g/m*3 14.7 C 0 km/h
2266 29-04-2020 20:45:00 14.6 C 9.01 g/m*3 14.6 C 1.6 km/h
2267 29-04-2020 20:50:00 14.5 C 8.95 g/m*3 14.5 C 0 km/h
2268 29-04-2020 20:55:00 14.4 C 8.9 g/m*3 14.4 C 0 km/h
2269 29-04-2020 21:00:00 14.3 C 8.97 g/m*3 14.3 C 1.6 km/h
2270 29-04-2020 21:05:00 14.3 C 8.97 g/m*3 14.3 C 3.2 km/h
2271 29-04-2020 21:10:00 14.1 C 8.98 g/m*3 14.1 C 3.2 km/h
2272 29-04-2020 21:15:00 13.9 C 9.11 g/m*3 13.9 C 1.6 km/h
2273 29-04-2020 21:20:00 13.7 C 9.12 g/m*3 13.7 C 0 km/h
2274 29-04-2020 21:25:00 13.5 C 9.12 g/m*3 13.5 C 0 km/h
2275 29-04-2020 21:30:00 13.3 C 9.01 g/m*3 13.3 C 3.2 km/h
Sensor: Nr:Datum:Temp:Abs-Feuchte:Windchill:Wind:
Aussen-T/F 2276 29-04-2020 21:35:00 13.3 C 9.01 g/m*3 13.3 C 1.6 km/h
2277 29-04-2020 21:40:00 13.2 C 9.07 g/m*3 13.2 C 4.8 km/h
2278 29-04-2020 21:45:00 13.2 C 9.07 g/m*3 13.2 C 3.2 km/h
2279 29-04-2020 21:50:00 13.2 C 9.07 g/m*3 13.2 C 1.6 km/h
2280 29-04-2020 21:55:00 13.2 C 9.07 g/m*3 13.2 C 0 km/h
2281 29-04-2020 22:00:00 13.2 C 9.19 g/m*3 13.2 C 0 km/h
2282 29-04-2020 22:05:00 13.1 C 9.13 g/m*3 13.1 C 1.6 km/h
2283 29-04-2020 22:10:00 13.1 C 9.13 g/m*3 13.1 C 1.6 km/h
2284 29-04-2020 22:15:00 13.2 C 9.3 g/m*3 13.2 C 4.8 km/h
2285 29-04-2020 22:20:00 13.2 C 9.07 g/m*3 13.2 C 3.2 km/h
2286 29-04-2020 22:25:00 13.3 C 9.24 g/m*3 13.3 C 0 km/h
2287 29-04-2020 22:30:00 13.3 C 9.13 g/m*3 13.3 C 1.6 km/h
2288 29-04-2020 22:35:00 13.4 C 9.18 g/m*3 13.4 C 3.2 km/h
2289 29-04-2020 22:40:00 13.4 C 9.18 g/m*3 13.4 C 3.2 km/h
2290 29-04-2020 22:45:00 13.4 C 9.18 g/m*3 13.4 C 4.8 km/h
2291 29-04-2020 22:50:00 13.4 C 9.3 g/m*3 13.4 C 0 km/h
2292 29-04-2020 22:55:00 13.3 C 9.13 g/m*3 13.3 C 0 km/h
2293 29-04-2020 23:00:00 13.3 C 9.24 g/m*3 13.3 C 0 km/h
2294 29-04-2020 23:05:00 13.2 C 9.3 g/m*3 13.2 C 0 km/h
2295 29-04-2020 23:10:00 13.2 C 9.3 g/m*3 13.2 C 0 km/h
2296 29-04-2020 23:15:00 13.1 C 9.36 g/m*3 13.1 C 0 km/h
2297 29-04-2020 23:20:00 13 C 9.3 g/m*3 13 C 0 km/h
2298 29-04-2020 23:25:00 13 C 9.3 g/m*3 13 C 3.2 km/h
2299 29-04-2020 23:30:00 13.1 C 9.47 g/m*3 13.1 C 3.2 km/h
2300 29-04-2020 23:35:00 13.1 C 9.36 g/m*3 13.1 C 1.6 km/h
Sensor: Nr:Datum:Temp:Abs-Feuchte:Windchill:Wind:
Aussen-T/F 2301 29-04-2020 23:40:00 13.2 C 9.42 g/m*3 13.2 C 1.6 km/h
2302 29-04-2020 23:45:00 13.2 C 9.42 g/m*3 13.2 C 0 km/h
2303 29-04-2020 23:50:00 13.2 C 9.42 g/m*3 13.2 C 1.6 km/h
2304 29-04-2020 23:55:00 13.2 C 9.42 g/m*3 13.2 C 0 km/h
2305 30-04-2020 00:00:00 13.2 C 9.42 g/m*3 13.2 C 11.3 km/h
2306 30-04-2020 00:05:00 13.2 C 9.3 g/m*3 13.2 C 1.6 km/h
2307 30-04-2020 00:10:00 13.2 C 9.3 g/m*3 13.2 C 8.1 km/h
2308 30-04-2020 00:15:00 13.2 C 9.3 g/m*3 13.2 C 1.6 km/h
2309 30-04-2020 00:20:00 13.2 C 9.42 g/m*3 13.2 C 0 km/h
2310 30-04-2020 00:25:00 13.2 C 9.3 g/m*3 13.2 C 3.2 km/h
2311 30-04-2020 00:30:00 13.2 C 9.3 g/m*3 13.2 C 3.2 km/h
2312 30-04-2020 00:35:00 13.2 C 9.3 g/m*3 13.2 C 3.2 km/h
2313 30-04-2020 00:40:00 13.3 C 9.36 g/m*3 13.3 C 3.2 km/h
2314 30-04-2020 00:45:00 13.2 C 9.19 g/m*3 13.2 C 8.1 km/h
2315 30-04-2020 00:50:00 13.3 C 9.36 g/m*3 13.3 C 0 km/h
2316 30-04-2020 00:55:00 13.3 C 9.36 g/m*3 13.3 C 0 km/h
2317 30-04-2020 01:00:00 13.3 C 9.24 g/m*3 13.3 C 3.2 km/h
2318 30-04-2020 01:05:00 13.3 C 9.24 g/m*3 13.3 C 3.2 km/h
2319 30-04-2020 01:10:00 13.3 C 9.13 g/m*3 13.3 C 4.8 km/h
2320 30-04-2020 01:15:00 13.4 C 9.18 g/m*3 13.4 C 8.1 km/h
2321 30-04-2020 01:20:00 13.4 C 9.18 g/m*3 13.4 C 4.8 km/h
2322 30-04-2020 01:25:00 13.4 C 9.18 g/m*3 13.4 C 8.1 km/h
2323 30-04-2020 01:30:00 13.4 C 9.18 g/m*3 13.4 C 3.2 km/h
2324 30-04-2020 01:35:00 13.4 C 9.18 g/m*3 13.4 C 4.8 km/h
2325 30-04-2020 01:40:00 13.5 C 9.12 g/m*3 13.5 C 6.4 km/h
Sensor: Nr:Datum:Temp:Abs-Feuchte:Windchill:Wind:
Aussen-T/F 2326 30-04-2020 01:45:00 13.6 C 9.18 g/m*3 13.6 C 3.2 km/h
2327 30-04-2020 01:50:00 13.6 C 9.42 g/m*3 13.6 C 0 km/h
2328 30-04-2020 01:55:00 13.6 C 9.42 g/m*3 13.6 C 14.5 km/h
2329 30-04-2020 02:00:00 13.4 C 9.53 g/m*3 13.4 C 14.5 km/h
2330 30-04-2020 02:05:00 13.3 C 9.47 g/m*3 13.3 C 9.7 km/h
2331 30-04-2020 02:10:00 13.2 C 9.64 g/m*3 13.2 C 1.6 km/h
2332 30-04-2020 02:15:00 13 C 9.53 g/m*3 13 C 4.8 km/h
2333 30-04-2020 02:20:00 12.8 C 9.41 g/m*3 12.8 C 4.8 km/h
2334 30-04-2020 02:25:00 12.7 C 9.46 g/m*3 12.7 C 3.2 km/h
2335 30-04-2020 02:30:00 12.6 C 9.4 g/m*3 12.6 C 3.2 km/h
2336 30-04-2020 02:35:00 12.4 C 9.18 g/m*3 12.4 C 4.8 km/h
2337 30-04-2020 02:40:00 12.4 C 9.18 g/m*3 12.4 C 1.6 km/h
2338 30-04-2020 02:45:00 12.3 C 9.12 g/m*3 12.3 C 3.2 km/h
2339 30-04-2020 02:50:00 12.2 C 9.06 g/m*3 12.2 C 1.6 km/h
2340 30-04-2020 02:55:00 12.2 C 8.96 g/m*3 12.2 C 6.4 km/h
2341 30-04-2020 03:00:00 12.2 C 8.96 g/m*3 12.2 C 1.6 km/h
2342 30-04-2020 03:05:00 12.2 C 9.06 g/m*3 12.2 C 4.8 km/h
2343 30-04-2020 03:10:00 12.1 C 9.01 g/m*3 12.1 C 4.8 km/h
2344 30-04-2020 03:15:00 12.2 C 9.06 g/m*3 12.2 C 1.6 km/h
2345 30-04-2020 03:20:00 12.1 C 9.01 g/m*3 12.1 C 4.8 km/h
2346 30-04-2020 03:25:00 12.1 C 9.01 g/m*3 12.1 C 3.2 km/h
2347 30-04-2020 03:30:00 12.1 C 9.12 g/m*3 12.1 C 0 km/h
2348 30-04-2020 03:35:00 11.9 C 9.11 g/m*3 11.9 C 3.2 km/h
2349 30-04-2020 03:40:00 11.9 C 9.11 g/m*3 11.9 C 0 km/h
2350 30-04-2020 03:45:00 11.8 C 9.16 g/m*3 11.8 C 0 km/h
Sensor: Nr:Datum:Temp:Abs-Feuchte:Windchill:Wind:
Aussen-T/F 2351 30-04-2020 03:50:00 11.8 C 9.16 g/m*3 11.8 C 6.4 km/h
2352 30-04-2020 03:55:00 11.7 C 9.1 g/m*3 11.7 C 3.2 km/h
2353 30-04-2020 04:00:00 11.7 C 9.2 g/m*3 11.7 C 0 km/h
2354 30-04-2020 04:05:00 11.7 C 9.2 g/m*3 11.7 C 0 km/h
2355 30-04-2020 04:10:00 11.7 C 9.31 g/m*3 11.7 C 0 km/h
2356 30-04-2020 04:15:00 11.6 C 9.25 g/m*3 11.6 C 0 km/h
2357 30-04-2020 04:20:00 11.6 C 9.35 g/m*3 11.6 C 0 km/h
2358 30-04-2020 04:25:00 11.5 C 9.3 g/m*3 11.5 C 3.2 km/h
2359 30-04-2020 04:30:00 11.4 C 9.34 g/m*3 11.4 C 3.2 km/h
2360 30-04-2020 04:35:00 11.4 C 9.34 g/m*3 11.4 C 0 km/h
2361 30-04-2020 04:40:00 11.4 C 9.34 g/m*3 11.4 C 0 km/h
2362 30-04-2020 04:45:00 11.3 C 9.38 g/m*3 11.3 C 0 km/h
2363 30-04-2020 04:50:00 11.3 C 9.38 g/m*3 11.3 C 0 km/h
2364 30-04-2020 04:55:00 11.3 C 9.38 g/m*3 11.3 C 0 km/h
2365 30-04-2020 05:00:00 11.3 C 9.38 g/m*3 11.3 C 1.6 km/h
2366 30-04-2020 05:05:00 11.3 C 9.49 g/m*3 11.3 C 0 km/h
2367 30-04-2020 05:10:00 11.3 C 9.49 g/m*3 11.3 C 0 km/h
2368 30-04-2020 05:15:00 11.3 C 9.49 g/m*3 11.3 C 1.6 km/h
2369 30-04-2020 05:20:00 11.3 C 9.49 g/m*3 11.3 C 0 km/h
2370 30-04-2020 05:25:00 11.3 C 9.49 g/m*3 11.3 C 1.6 km/h
2371 30-04-2020 05:30:00 11.3 C 9.59 g/m*3 11.3 C 1.6 km/h
2372 30-04-2020 05:35:00 11.3 C 9.59 g/m*3 11.3 C 1.6 km/h
2373 30-04-2020 05:40:00 11.3 C 9.59 g/m*3 11.3 C 3.2 km/h
2374 30-04-2020 05:45:00 11.3 C 9.59 g/m*3 11.3 C 0 km/h
2375 30-04-2020 05:50:00 11.3 C 9.59 g/m*3 11.3 C 1.6 km/h
Sensor: Nr:Datum:Temp:Abs-Feuchte:Windchill:Wind:
Aussen-T/F 2376 30-04-2020 05:55:00 11.2 C 9.53 g/m*3 11.2 C 1.6 km/h
2377 30-04-2020 06:00:00 11.2 C 9.53 g/m*3 11.2 C 6.4 km/h
2378 30-04-2020 06:05:00 11.2 C 9.53 g/m*3 11.2 C 8.1 km/h
2379 30-04-2020 06:10:00 11.2 C 9.53 g/m*3 11.2 C 1.6 km/h
2380 30-04-2020 06:15:00 11.2 C 9.53 g/m*3 11.2 C 1.6 km/h
2381 30-04-2020 06:20:00 11.2 C 9.53 g/m*3 11.2 C 3.2 km/h
2382 30-04-2020 06:25:00 11.2 C 9.53 g/m*3 11.2 C 1.6 km/h
2383 30-04-2020 06:30:00 11.2 C 9.53 g/m*3 11.2 C 3.2 km/h
2384 30-04-2020 06:35:00 11.2 C 9.53 g/m*3 11.2 C 0 km/h
2385 30-04-2020 06:40:00 11.2 C 9.53 g/m*3 11.2 C 1.6 km/h
2386 30-04-2020 06:45:00 11.2 C 9.53 g/m*3 11.2 C 0 km/h
2387 30-04-2020 06:50:00 11.2 C 9.63 g/m*3 11.2 C 3.2 km/h
2388 30-04-2020 06:55:00 11.2 C 9.63 g/m*3 11.2 C 0 km/h
2389 30-04-2020 07:00:00 11.2 C 9.63 g/m*3 11.2 C 11.3 km/h
2390 30-04-2020 07:05:00 11.1 C 9.47 g/m*3 11.1 C 9.7 km/h
2391 30-04-2020 07:10:00 10.9 C 9.35 g/m*3 10.04 C 8.1 km/h
2392 30-04-2020 07:15:00 10.8 C 9.29 g/m*3 9.64 C 9.7 km/h
2393 30-04-2020 07:20:00 10.7 C 9.23 g/m*3 10.7 C 1.6 km/h
2394 30-04-2020 07:25:00 10.6 C 9.17 g/m*3 9.69 C 8.1 km/h
2395 30-04-2020 07:30:00 10.6 C 9.17 g/m*3 10.06 C 6.4 km/h
2396 30-04-2020 07:35:00 10.6 C 9.17 g/m*3 10.06 C 6.4 km/h
2397 30-04-2020 07:40:00 10.6 C 9.17 g/m*3 9.4 C 9.7 km/h
2398 30-04-2020 07:45:00 10.6 C 9.17 g/m*3 10.6 C 3.2 km/h
2399 30-04-2020 07:50:00 10.5 C 9.12 g/m*3 10.5 C 4.8 km/h
2400 30-04-2020 07:55:00 10.4 C 9.06 g/m*3 10.4 C 4.8 km/h
Sensor: Nr:Datum:Temp:Abs-Feuchte:Windchill:Wind:
Aussen-T/F 2401 30-04-2020 08:00:00 10.4 C 9.06 g/m*3 9.16 C 9.7 km/h
2402 30-04-2020 08:05:00 10.3 C 9 g/m*3 9.34 C 8.1 km/h
2403 30-04-2020 08:10:00 10.3 C 9 g/m*3 9.04 C 9.7 km/h
2404 30-04-2020 08:15:00 10.2 C 8.95 g/m*3 9.6 C 6.4 km/h
2405 30-04-2020 08:20:00 10.2 C 8.95 g/m*3 10.2 C 4.8 km/h
2406 30-04-2020 08:25:00 10.2 C 8.95 g/m*3 10.2 C 3.2 km/h
2407 30-04-2020 08:30:00 10.4 C 9.06 g/m*3 8.67 C 12.9 km/h
2408 30-04-2020 08:35:00 10.6 C 9.17 g/m*3 9.14 C 11.3 km/h
2409 30-04-2020 08:40:00 10.7 C 9.23 g/m*3 9.52 C 9.7 km/h
2410 30-04-2020 08:45:00 10.8 C 9.29 g/m*3 10.8 C 3.2 km/h
2411 30-04-2020 08:50:00 10.8 C 9.19 g/m*3 9.38 C 11.3 km/h
2412 30-04-2020 08:55:00 10.8 C 9.19 g/m*3 9.64 C 9.7 km/h
2413 30-04-2020 09:00:00 10.9 C 9.25 g/m*3 9.51 C 11.3 km/h
2414 30-04-2020 09:05:00 11 C 9.31 g/m*3 9.88 C 9.7 km/h
2415 30-04-2020 09:10:00 11.2 C 9.33 g/m*3 11.2 C 16.1 km/h
2416 30-04-2020 09:15:00 11.3 C 9.28 g/m*3 11.3 C 14.5 km/h
2417 30-04-2020 09:20:00 11.6 C 9.35 g/m*3 11.6 C 8.1 km/h
2418 30-04-2020 09:25:00 11.7 C 9.52 g/m*3 11.7 C 8.1 km/h
2419 30-04-2020 09:30:00 11.8 C 9.58 g/m*3 11.8 C 3.2 km/h
2420 30-04-2020 09:35:00 11.9 C 9.53 g/m*3 11.9 C 11.3 km/h
2421 30-04-2020 09:40:00 12 C 9.59 g/m*3 12 C 8.1 km/h
2422 30-04-2020 09:45:00 12.1 C 9.54 g/m*3 12.1 C 8.1 km/h
2423 30-04-2020 09:50:00 12.2 C 9.5 g/m*3 12.2 C 8.1 km/h
2424 30-04-2020 09:55:00 12.2 C 9.5 g/m*3 12.2 C 9.7 km/h
2425 30-04-2020 10:00:00 12.3 C 9.56 g/m*3 12.3 C 8.1 km/h
Sensor: Nr:Datum:Temp:Abs-Feuchte:Windchill:Wind:
Aussen-T/F 2426 30-04-2020 10:05:00 12.6 C 9.74 g/m*3 12.6 C 12.9 km/h
2427 30-04-2020 10:10:00 12.7 C 9.57 g/m*3 12.7 C 11.3 km/h
2428 30-04-2020 10:15:00 12.9 C 9.69 g/m*3 12.9 C 9.7 km/h
2429 30-04-2020 10:20:00 13.2 C 9.64 g/m*3 13.2 C 11.3 km/h
2430 30-04-2020 10:25:00 13.3 C 9.36 g/m*3 13.3 C 11.3 km/h
2431 30-04-2020 10:30:00 13.3 C 9.36 g/m*3 13.3 C 19.3 km/h
2432 30-04-2020 10:35:00 13.3 C 9.36 g/m*3 13.3 C 14.5 km/h
2433 30-04-2020 10:40:00 13.4 C 9.18 g/m*3 13.4 C 12.9 km/h
2434 30-04-2020 10:45:00 13.6 C 9.06 g/m*3 13.6 C 17.7 km/h
2435 30-04-2020 10:50:00 13.7 C 9.12 g/m*3 13.7 C 19.3 km/h
2436 30-04-2020 10:55:00 13.7 C 9.24 g/m*3 13.7 C 12.9 km/h
2437 30-04-2020 11:00:00 13.7 C 8.88 g/m*3 13.7 C 16.1 km/h
2438 30-04-2020 11:05:00 13.8 C 9.17 g/m*3 13.8 C 8.1 km/h
2439 30-04-2020 11:10:00 13.8 C 9.06 g/m*3 13.8 C 11.3 km/h
2440 30-04-2020 11:15:00 13.8 C 9.06 g/m*3 13.8 C 11.3 km/h
2441 30-04-2020 11:20:00 13.9 C 9.23 g/m*3 13.9 C 8.1 km/h
2442 30-04-2020 11:25:00 13.9 C 9.47 g/m*3 13.9 C 8.1 km/h
2443 30-04-2020 11:30:00 14 C 9.41 g/m*3 14 C 11.3 km/h
2444 30-04-2020 11:35:00 14.1 C 9.47 g/m*3 14.1 C 6.4 km/h
2445 30-04-2020 11:40:00 13.9 C 9.23 g/m*3 13.9 C 9.7 km/h
2446 30-04-2020 11:45:00 13.8 C 9.41 g/m*3 13.8 C 8.1 km/h
2447 30-04-2020 11:50:00 13.8 C 9.41 g/m*3 13.8 C 9.7 km/h
2448 30-04-2020 11:55:00 13.8 C 9.17 g/m*3 13.8 C 12.9 km/h
2449 30-04-2020 12:00:00 13.9 C 9.11 g/m*3 13.9 C 11.3 km/h
2450 30-04-2020 12:05:00 13.9 C 8.87 g/m*3 13.9 C 17.7 km/h
Sensor: Nr:Datum:Temp:Abs-Feuchte:Windchill:Wind:
Aussen-T/F 2451 30-04-2020 12:10:00 13.9 C 8.87 g/m*3 13.9 C 16.1 km/h
2452 30-04-2020 12:15:00 13.9 C 8.75 g/m*3 13.9 C 16.1 km/h
2453 30-04-2020 12:20:00 13.9 C 8.75 g/m*3 13.9 C 12.9 km/h
2454 30-04-2020 12:25:00 14 C 8.56 g/m*3 14 C 14.5 km/h
2455 30-04-2020 12:30:00 14 C 8.93 g/m*3 14 C 11.3 km/h
2456 30-04-2020 12:35:00 14.1 C 8.86 g/m*3 14.1 C 17.7 km/h
2457 30-04-2020 12:40:00 13.9 C 8.39 g/m*3 13.9 C 17.7 km/h
2458 30-04-2020 12:45:00 13.8 C 8.34 g/m*3 13.8 C 14.5 km/h
2459 30-04-2020 12:50:00 13.9 C 8.39 g/m*3 13.9 C 17.7 km/h
2460 30-04-2020 12:55:00 13.9 C 8.03 g/m*3 13.9 C 29 km/h
2461 30-04-2020 13:00:00 13.8 C 8.22 g/m*3 13.8 C 29 km/h
2462 30-04-2020 13:05:00 13.8 C 8.1 g/m*3 13.8 C 19.3 km/h
2463 30-04-2020 13:10:00 13.8 C 8.22 g/m*3 13.8 C 14.5 km/h
2464 30-04-2020 13:15:00 13.9 C 8.15 g/m*3 13.9 C 14.5 km/h
2465 30-04-2020 13:20:00 14 C 8.2 g/m*3 14 C 14.5 km/h
2466 30-04-2020 13:25:00 13.9 C 7.91 g/m*3 13.9 C 19.3 km/h
2467 30-04-2020 13:30:00 13.9 C 8.03 g/m*3 13.9 C 16.1 km/h
2468 30-04-2020 13:35:00 14 C 8.08 g/m*3 14 C 17.7 km/h
2469 30-04-2020 13:40:00 14.1 C 7.89 g/m*3 14.1 C 12.9 km/h
2470 30-04-2020 13:45:00 14.3 C 8.11 g/m*3 14.3 C 14.5 km/h
2471 30-04-2020 13:50:00 14.6 C 8.26 g/m*3 14.6 C 12.9 km/h
2472 30-04-2020 13:55:00 14.8 C 7.98 g/m*3 14.8 C 16.1 km/h
2473 30-04-2020 14:00:00 14.9 C 8.03 g/m*3 14.9 C 20.9 km/h
2474 30-04-2020 14:05:00 15.1 C 8.26 g/m*3 15.1 C 16.1 km/h
2475 30-04-2020 14:10:00 15.5 C 8.2 g/m*3 15.5 C 14.5 km/h
Sensor: Nr:Datum:Temp:Abs-Feuchte:Windchill:Wind:
Aussen-T/F 2476 30-04-2020 14:15:00 15.6 C 7.85 g/m*3 15.6 C 20.9 km/h
2477 30-04-2020 14:20:00 15.4 C 7.88 g/m*3 15.4 C 17.7 km/h
2478 30-04-2020 14:25:00 15.3 C 8.1 g/m*3 15.3 C 12.9 km/h
2479 30-04-2020 14:30:00 15.4 C 8.01 g/m*3 15.4 C 14.5 km/h
2480 30-04-2020 14:35:00 15.8 C 8.21 g/m*3 15.8 C 17.7 km/h
2481 30-04-2020 14:40:00 15.9 C 7.99 g/m*3 15.9 C 17.7 km/h
2482 30-04-2020 14:45:00 15.8 C 7.94 g/m*3 15.8 C 17.7 km/h
2483 30-04-2020 14:50:00 15.8 C 8.08 g/m*3 15.8 C 17.7 km/h
2484 30-04-2020 14:55:00 15.8 C 8.08 g/m*3 15.8 C 16.1 km/h
2485 30-04-2020 15:00:00 15.9 C 8.4 g/m*3 15.9 C 9.7 km/h
2486 30-04-2020 15:05:00 16.2 C 8 g/m*3 16.2 C 17.7 km/h
2487 30-04-2020 15:10:00 16.3 C 8.19 g/m*3 16.3 C 14.5 km/h
2488 30-04-2020 15:15:00 16.3 C 8.05 g/m*3 16.3 C 11.3 km/h
2489 30-04-2020 15:20:00 16.2 C 7.86 g/m*3 16.2 C 12.9 km/h
2490 30-04-2020 15:25:00 16.1 C 7.95 g/m*3 16.1 C 11.3 km/h
2491 30-04-2020 15:30:00 16.1 C 7.95 g/m*3 16.1 C 11.3 km/h
2492 30-04-2020 15:35:00 15.8 C 7.81 g/m*3 15.8 C 11.3 km/h
2493 30-04-2020 15:40:00 15.6 C 7.71 g/m*3 15.6 C 14.5 km/h
2494 30-04-2020 15:45:00 15.4 C 7.75 g/m*3 15.4 C 9.7 km/h
2495 30-04-2020 15:50:00 15.4 C 8.01 g/m*3 15.4 C 4.8 km/h
2496 30-04-2020 15:55:00 15.3 C 8.1 g/m*3 15.3 C 3.2 km/h
2497 30-04-2020 16:00:00 15.4 C 8.15 g/m*3 15.4 C 1.6 km/h
2498 30-04-2020 16:05:00 15.4 C 8.01 g/m*3 15.4 C 4.8 km/h
2499 30-04-2020 16:10:00 15.5 C 7.93 g/m*3 15.5 C 4.8 km/h
2500 30-04-2020 16:15:00 15.6 C 8.25 g/m*3 15.6 C 4.8 km/h
Sensor: Nr:Datum:Temp:Abs-Feuchte:Windchill:Wind:
Aussen-T/F 2501 30-04-2020 16:20:00 15.7 C 8.3 g/m*3 15.7 C 11.3 km/h
2502 30-04-2020 16:25:00 15.7 C 8.3 g/m*3 15.7 C 6.4 km/h
2503 30-04-2020 16:30:00 15.7 C 8.43 g/m*3 15.7 C 8.1 km/h
2504 30-04-2020 16:35:00 15.7 C 8.43 g/m*3 15.7 C 6.4 km/h
2505 30-04-2020 16:40:00 15.7 C 8.3 g/m*3 15.7 C 6.4 km/h
2506 30-04-2020 16:45:00 15.7 C 8.3 g/m*3 15.7 C 6.4 km/h
2507 30-04-2020 16:50:00 15.7 C 8.16 g/m*3 15.7 C 8.1 km/h
2508 30-04-2020 16:55:00 15.6 C 8.38 g/m*3 15.6 C 6.4 km/h
2509 30-04-2020 17:00:00 15.4 C 8.41 g/m*3 15.4 C 1.6 km/h
2510 30-04-2020 17:05:00 15.3 C 8.49 g/m*3 15.3 C 11.3 km/h
2511 30-04-2020 17:10:00 15 C 9.1 g/m*3 15 C 4.8 km/h
2512 30-04-2020 17:15:00 14.5 C 9.08 g/m*3 14.5 C 16.1 km/h
2513 30-04-2020 17:20:00 14.1 C 9.34 g/m*3 14.1 C 4.8 km/h
2514 30-04-2020 17:25:00 13.6 C 9.3 g/m*3 13.6 C 8.1 km/h
2515 30-04-2020 17:30:00 13.1 C 9.24 g/m*3 13.1 C 9.7 km/h
2516 30-04-2020 17:35:00 12.6 C 9.18 g/m*3 12.6 C 12.9 km/h
2517 30-04-2020 17:40:00 12.1 C 9.12 g/m*3 12.1 C 9.7 km/h
2518 30-04-2020 17:45:00 11.8 C 9.05 g/m*3 11.8 C 14.5 km/h
2519 30-04-2020 17:50:00 11.6 C 9.15 g/m*3 11.6 C 11.3 km/h
2520 30-04-2020 17:55:00 11.4 C 9.03 g/m*3 11.4 C 9.7 km/h
2521 30-04-2020 18:00:00 11.3 C 9.08 g/m*3 11.3 C 11.3 km/h
2522 30-04-2020 18:05:00 11.2 C 9.12 g/m*3 11.2 C 8.1 km/h
2523 30-04-2020 18:10:00 11.2 C 9.12 g/m*3 11.2 C 11.3 km/h
2524 30-04-2020 18:15:00 11.1 C 9.07 g/m*3 11.1 C 11.3 km/h
2525 30-04-2020 18:20:00 11 C 9.11 g/m*3 10.52 C 6.4 km/h
Sensor: Nr:Datum:Temp:Abs-Feuchte:Windchill:Wind:
Aussen-T/F 2526 30-04-2020 18:25:00 10.9 C 8.95 g/m*3 9.76 C 9.7 km/h
2527 30-04-2020 18:30:00 10.9 C 9.05 g/m*3 10.9 C 3.2 km/h
2528 30-04-2020 18:35:00 10.8 C 8.99 g/m*3 10.29 C 6.4 km/h
2529 30-04-2020 18:40:00 10.7 C 8.94 g/m*3 9.04 C 12.9 km/h
2530 30-04-2020 18:45:00 10.6 C 8.88 g/m*3 8.71 C 14.5 km/h
2531 30-04-2020 18:50:00 10.5 C 8.83 g/m*3 8.23 C 17.7 km/h
2532 30-04-2020 18:55:00 10.4 C 8.77 g/m*3 8.9 C 11.3 km/h
2533 30-04-2020 19:00:00 10.3 C 8.71 g/m*3 7.82 C 19.3 km/h
2534 30-04-2020 19:05:00 10.2 C 8.66 g/m*3 8.22 C 14.5 km/h
2535 30-04-2020 19:10:00 10 C 8.55 g/m*3 8.19 C 12.9 km/h
2536 30-04-2020 19:15:00 9.9 C 8.5 g/m*3 8.87 C 8.1 km/h
2537 30-04-2020 19:20:00 10.2 C 8.85 g/m*3 10.2 C 3.2 km/h
2538 30-04-2020 19:25:00 10.6 C 9.08 g/m*3 10.6 C 4.8 km/h
2539 30-04-2020 19:30:00 10.8 C 8.99 g/m*3 10.8 C 4.8 km/h
2540 30-04-2020 19:35:00 11.1 C 9.27 g/m*3 11.1 C 3.2 km/h
2541 30-04-2020 19:40:00 11.1 C 9.17 g/m*3 11.1 C 6.4 km/h
2542 30-04-2020 19:45:00 11.2 C 9.22 g/m*3 11.2 C 0 km/h
2543 30-04-2020 19:50:00 11.2 C 9.22 g/m*3 11.2 C 1.6 km/h
2544 30-04-2020 19:55:00 11.3 C 9.28 g/m*3 11.3 C 1.6 km/h
2545 30-04-2020 20:00:00 11.2 C 9.22 g/m*3 11.2 C 1.6 km/h
2546 30-04-2020 20:05:00 11.1 C 9.17 g/m*3 11.1 C 1.6 km/h
2547 30-04-2020 20:10:00 10.9 C 9.05 g/m*3 10.9 C 0 km/h
2548 30-04-2020 20:15:00 10.8 C 8.99 g/m*3 10.8 C 0 km/h
2549 30-04-2020 20:20:00 10.7 C 8.94 g/m*3 10.7 C 1.6 km/h
2550 30-04-2020 20:25:00 10.5 C 8.83 g/m*3 10.5 C 1.6 km/h
Sensor: Nr:Datum:Temp:Abs-Feuchte:Windchill:Wind:
Aussen-T/F 2551 30-04-2020 20:30:00 10.3 C 8.71 g/m*3 10.3 C 3.2 km/h
2552 30-04-2020 20:35:00 10.2 C 8.66 g/m*3 10.2 C 4.8 km/h
2553 30-04-2020 20:40:00 9.9 C 8.5 g/m*3 9.9 C 4.8 km/h
2554 30-04-2020 20:45:00 9.8 C 8.44 g/m*3 9.8 C 1.6 km/h
2555 30-04-2020 20:50:00 9.6 C 8.34 g/m*3 9.6 C 0 km/h
2556 30-04-2020 20:55:00 9.5 C 8.37 g/m*3 9.5 C 0 km/h
2557 30-04-2020 21:00:00 9.4 C 8.32 g/m*3 9.4 C 0 km/h
2558 30-04-2020 21:05:00 9.4 C 8.32 g/m*3 9.4 C 0 km/h
2559 30-04-2020 21:10:00 9.3 C 8.36 g/m*3 9.3 C 3.2 km/h
2560 30-04-2020 21:15:00 9.3 C 8.36 g/m*3 9.3 C 3.2 km/h
2561 30-04-2020 21:20:00 9.3 C 8.36 g/m*3 9.3 C 0 km/h
2562 30-04-2020 21:25:00 9.4 C 8.41 g/m*3 9.4 C 0 km/h
2563 30-04-2020 21:30:00 9.4 C 8.5 g/m*3 9.4 C 1.6 km/h
2564 30-04-2020 21:35:00 9.4 C 8.5 g/m*3 9.4 C 0 km/h
2565 30-04-2020 21:40:00 9.5 C 8.56 g/m*3 9.5 C 0 km/h
2566 30-04-2020 21:45:00 9.5 C 8.56 g/m*3 9.5 C 1.6 km/h
2567 30-04-2020 21:50:00 9.6 C 8.61 g/m*3 9.6 C 1.6 km/h
2568 30-04-2020 21:55:00 9.6 C 8.61 g/m*3 9.6 C 1.6 km/h
2569 30-04-2020 22:00:00 9.6 C 8.61 g/m*3 9.6 C 0 km/h
2570 30-04-2020 22:05:00 9.5 C 8.56 g/m*3 9.5 C 3.2 km/h
2571 30-04-2020 22:10:00 9.3 C 8.45 g/m*3 9.3 C 3.2 km/h
2572 30-04-2020 22:15:00 9.2 C 8.39 g/m*3 9.2 C 3.2 km/h
2573 30-04-2020 22:20:00 9.1 C 8.34 g/m*3 9.1 C 4.8 km/h
2574 30-04-2020 22:25:00 9.1 C 8.34 g/m*3 9.1 C 3.2 km/h
2575 30-04-2020 22:30:00 9.2 C 8.48 g/m*3 9.2 C 0 km/h
Sensor: Nr:Datum:Temp:Abs-Feuchte:Windchill:Wind:
Aussen-T/F 2576 30-04-2020 22:35:00 9.3 C 8.54 g/m*3 9.3 C 0 km/h
2577 30-04-2020 22:40:00 9.2 C 8.48 g/m*3 9.2 C 0 km/h
2578 30-04-2020 22:45:00 9.2 C 8.48 g/m*3 8.45 C 6.4 km/h
2579 30-04-2020 22:50:00 9.1 C 8.43 g/m*3 9.1 C 3.2 km/h
2580 30-04-2020 22:55:00 9 C 8.38 g/m*3 9 C 0 km/h
2581 30-04-2020 23:00:00 9.1 C 8.43 g/m*3 9.1 C 1.6 km/h
2582 30-04-2020 23:05:00 9 C 8.38 g/m*3 9 C 3.2 km/h
2583 30-04-2020 23:10:00 8.9 C 8.32 g/m*3 8.9 C 3.2 km/h
2584 30-04-2020 23:15:00 8.8 C 8.27 g/m*3 8.8 C 0 km/h
2585 30-04-2020 23:20:00 8.8 C 8.27 g/m*3 8.8 C 4.8 km/h
2586 30-04-2020 23:25:00 8.8 C 8.27 g/m*3 8.8 C 1.6 km/h
2587 30-04-2020 23:30:00 8.8 C 8.27 g/m*3 8.8 C 4.8 km/h
2588 30-04-2020 23:35:00 8.8 C 8.27 g/m*3 8.8 C 3.2 km/h
2589 30-04-2020 23:40:00 8.9 C 8.32 g/m*3 7.69 C 8.1 km/h
2590 30-04-2020 23:45:00 9.2 C 8.57 g/m*3 7.21 C 12.9 km/h
2591 30-04-2020 23:50:00 9.3 C 8.63 g/m*3 8.16 C 8.1 km/h
2592 30-04-2020 23:55:00 9.4 C 8.68 g/m*3 7.97 C 9.7 km/h
2593 01-05-2020 00:00:00 9.4 C 8.59 g/m*3 7.97 C 9.7 km/h
2594 01-05-2020 00:05:00 9.3 C 8.54 g/m*3 8.56 C 6.4 km/h
2595 01-05-2020 00:10:00 9.3 C 8.54 g/m*3 8.56 C 6.4 km/h
2596 01-05-2020 00:15:00 9.2 C 8.48 g/m*3 9.2 C 3.2 km/h
2597 01-05-2020 00:20:00 9.1 C 8.43 g/m*3 8.33 C 6.4 km/h
2598 01-05-2020 00:25:00 8.9 C 8.32 g/m*3 7.37 C 9.7 km/h
2599 01-05-2020 00:30:00 8.8 C 8.27 g/m*3 7.98 C 6.4 km/h
2600 01-05-2020 00:35:00 8.8 C 8.27 g/m*3 7.58 C 8.1 km/h
Sensor: Nr:Datum:Temp:Abs-Feuchte:Windchill:Wind:
Aussen-T/F 2601 01-05-2020 00:40:00 8.7 C 8.22 g/m*3 8.7 C 4.8 km/h
2602 01-05-2020 00:45:00 8.7 C 8.22 g/m*3 7.87 C 6.4 km/h
2603 01-05-2020 00:50:00 8.6 C 8.16 g/m*3 8.6 C 3.2 km/h
2604 01-05-2020 00:55:00 8.4 C 8.06 g/m*3 7.52 C 6.4 km/h
2605 01-05-2020 01:00:00 8.3 C 8.01 g/m*3 7.41 C 6.4 km/h
2606 01-05-2020 01:05:00 8.3 C 8.01 g/m*3 6.99 C 8.1 km/h
2607 01-05-2020 01:10:00 8.3 C 8.01 g/m*3 8.3 C 4.8 km/h
2608 01-05-2020 01:15:00 8.4 C 8.06 g/m*3 6.78 C 9.7 km/h
2609 01-05-2020 01:20:00 8.4 C 8.06 g/m*3 6.01 C 14.5 km/h
2610 01-05-2020 01:25:00 8.4 C 8.06 g/m*3 8.4 C 4.8 km/h
2611 01-05-2020 01:30:00 8.3 C 8.01 g/m*3 6.37 C 11.3 km/h
2612 01-05-2020 01:35:00 8.3 C 8.01 g/m*3 6.37 C 11.3 km/h
2613 01-05-2020 01:40:00 8.3 C 8.01 g/m*3 6.37 C 11.3 km/h
2614 01-05-2020 01:45:00 8.3 C 8.01 g/m*3 5.48 C 17.7 km/h
2615 01-05-2020 01:50:00 8.3 C 7.92 g/m*3 7.41 C 6.4 km/h
2616 01-05-2020 01:55:00 8.3 C 7.92 g/m*3 6.66 C 9.7 km/h
2617 01-05-2020 02:00:00 8.3 C 7.92 g/m*3 5.68 C 16.1 km/h
2618 01-05-2020 02:05:00 8.3 C 7.92 g/m*3 6.99 C 8.1 km/h
2619 01-05-2020 02:10:00 8.3 C 7.92 g/m*3 7.41 C 6.4 km/h
2620 01-05-2020 02:15:00 8.2 C 7.87 g/m*3 6.87 C 8.1 km/h
2621 01-05-2020 02:20:00 8.2 C 7.87 g/m*3 7.29 C 6.4 km/h
2622 01-05-2020 02:25:00 8.1 C 7.82 g/m*3 6.75 C 8.1 km/h
2623 01-05-2020 02:30:00 8.1 C 7.82 g/m*3 7.17 C 6.4 km/h
2624 01-05-2020 02:35:00 8 C 7.77 g/m*3 6.3 C 9.7 km/h
2625 01-05-2020 02:40:00 8.1 C 7.82 g/m*3 6.42 C 9.7 km/h
Sensor: Nr:Datum:Temp:Abs-Feuchte:Windchill:Wind:
Aussen-T/F 2626 01-05-2020 02:45:00 8.1 C 7.82 g/m*3 7.17 C 6.4 km/h
2627 01-05-2020 02:50:00 8.1 C 7.82 g/m*3 7.17 C 6.4 km/h
2628 01-05-2020 02:55:00 8.1 C 7.82 g/m*3 7.17 C 6.4 km/h
2629 01-05-2020 03:00:00 8.1 C 7.82 g/m*3 8.1 C 1.6 km/h
2630 01-05-2020 03:05:00 8 C 7.77 g/m*3 8 C 1.6 km/h
2631 01-05-2020 03:10:00 7.9 C 7.72 g/m*3 6.94 C 6.4 km/h
2632 01-05-2020 03:15:00 7.9 C 7.72 g/m*3 6.52 C 8.1 km/h
2633 01-05-2020 03:20:00 7.9 C 7.8 g/m*3 7.9 C 4.8 km/h
2634 01-05-2020 03:25:00 8.1 C 7.9 g/m*3 8.1 C 4.8 km/h
2635 01-05-2020 03:30:00 8.1 C 7.9 g/m*3 8.1 C 4.8 km/h
2636 01-05-2020 03:35:00 8.2 C 7.96 g/m*3 6.87 C 8.1 km/h
2637 01-05-2020 03:40:00 8.2 C 7.96 g/m*3 6.54 C 9.7 km/h
2638 01-05-2020 03:45:00 8.2 C 7.87 g/m*3 8.2 C 4.8 km/h
2639 01-05-2020 03:50:00 8.2 C 7.87 g/m*3 8.2 C 4.8 km/h
2640 01-05-2020 03:55:00 8.1 C 7.82 g/m*3 8.1 C 4.8 km/h
2641 01-05-2020 04:00:00 8 C 7.77 g/m*3 8 C 4.8 km/h
2642 01-05-2020 04:05:00 7.9 C 7.72 g/m*3 6.94 C 6.4 km/h
2643 01-05-2020 04:10:00 7.9 C 7.72 g/m*3 7.9 C 3.2 km/h
2644 01-05-2020 04:15:00 7.8 C 7.67 g/m*3 7.8 C 3.2 km/h
2645 01-05-2020 04:20:00 7.7 C 7.62 g/m*3 7.7 C 1.6 km/h
2646 01-05-2020 04:25:00 7.6 C 7.57 g/m*3 7.6 C 0 km/h
2647 01-05-2020 04:30:00 7.6 C 7.65 g/m*3 7.6 C 0 km/h
2648 01-05-2020 04:35:00 7.7 C 7.7 g/m*3 7.7 C 0 km/h
2649 01-05-2020 04:40:00 7.8 C 7.75 g/m*3 7.8 C 0 km/h
2650 01-05-2020 04:45:00 7.9 C 7.8 g/m*3 7.9 C 0 km/h
Sensor: Nr:Datum:Temp:Abs-Feuchte:Windchill:Wind:
Aussen-T/F 2651 01-05-2020 04:50:00 7.9 C 7.8 g/m*3 7.9 C 0 km/h
2652 01-05-2020 04:55:00 8.1 C 7.9 g/m*3 8.1 C 0 km/h
2653 01-05-2020 05:00:00 8.2 C 8.04 g/m*3 8.2 C 0 km/h
2654 01-05-2020 05:05:00 8.2 C 8.04 g/m*3 8.2 C 0 km/h
2655 01-05-2020 05:10:00 8.3 C 8.09 g/m*3 8.3 C 0 km/h
2656 01-05-2020 05:15:00 8.4 C 8.14 g/m*3 8.4 C 1.6 km/h
2657 01-05-2020 05:20:00 8.5 C 8.2 g/m*3 8.5 C 4.8 km/h
2658 01-05-2020 05:25:00 8.5 C 8.2 g/m*3 8.5 C 1.6 km/h
2659 01-05-2020 05:30:00 8.6 C 8.25 g/m*3 8.6 C 3.2 km/h
2660 01-05-2020 05:35:00 8.6 C 8.25 g/m*3 6.05 C 16.1 km/h
2661 01-05-2020 05:40:00 8.7 C 8.3 g/m*3 5.65 C 20.9 km/h
2662 01-05-2020 05:45:00 8.8 C 8.27 g/m*3 7.58 C 8.1 km/h
2663 01-05-2020 05:50:00 8.8 C 8.18 g/m*3 6.5 C 14.5 km/h
2664 01-05-2020 05:55:00 8.7 C 8.13 g/m*3 6.17 C 16.1 km/h
2665 01-05-2020 06:00:00 8.7 C 8.13 g/m*3 6.38 C 14.5 km/h
2666 01-05-2020 06:05:00 8.6 C 7.99 g/m*3 7.34 C 8.1 km/h
2667 01-05-2020 06:10:00 8.6 C 7.99 g/m*3 8.6 C 4.8 km/h
2668 01-05-2020 06:15:00 8.5 C 7.94 g/m*3 7.22 C 8.1 km/h
2669 01-05-2020 06:20:00 8.4 C 7.89 g/m*3 7.52 C 6.4 km/h
2670 01-05-2020 06:25:00 8.3 C 7.92 g/m*3 8.3 C 4.8 km/h
2671 01-05-2020 06:30:00 8.3 C 7.84 g/m*3 7.41 C 6.4 km/h
2672 01-05-2020 06:35:00 8.3 C 7.92 g/m*3 8.3 C 1.6 km/h
2673 01-05-2020 06:40:00 8.3 C 7.92 g/m*3 8.3 C 4.8 km/h
2674 01-05-2020 06:45:00 8.3 C 7.92 g/m*3 8.3 C 3.2 km/h
2675 01-05-2020 06:50:00 8.2 C 7.87 g/m*3 8.2 C 4.8 km/h
Sensor: Nr:Datum:Temp:Abs-Feuchte:Windchill:Wind:
Aussen-T/F 2676 01-05-2020 06:55:00 8.1 C 7.82 g/m*3 8.1 C 0 km/h
2677 01-05-2020 07:00:00 7.9 C 7.72 g/m*3 7.9 C 0 km/h
2678 01-05-2020 07:05:00 7.8 C 7.67 g/m*3 7.8 C 0 km/h
2679 01-05-2020 07:10:00 7.7 C 7.62 g/m*3 7.7 C 0 km/h
2680 01-05-2020 07:15:00 7.7 C 7.62 g/m*3 7.7 C 0 km/h
2681 01-05-2020 07:20:00 7.8 C 7.67 g/m*3 7.8 C 0 km/h
2682 01-05-2020 07:25:00 7.9 C 7.8 g/m*3 7.9 C 0 km/h
2683 01-05-2020 07:30:00 8 C 7.85 g/m*3 8 C 0 km/h
2684 01-05-2020 07:35:00 8.2 C 7.96 g/m*3 8.2 C 1.6 km/h
2685 01-05-2020 07:40:00 8.3 C 8.01 g/m*3 8.3 C 0 km/h
2686 01-05-2020 07:45:00 8.4 C 8.14 g/m*3 8.4 C 3.2 km/h
2687 01-05-2020 07:50:00 8.5 C 8.11 g/m*3 6.9 C 9.7 km/h
2688 01-05-2020 07:55:00 8.5 C 8.03 g/m*3 7.22 C 8.1 km/h
2689 01-05-2020 08:00:00 8.6 C 8.08 g/m*3 8.6 C 3.2 km/h
2690 01-05-2020 08:05:00 8.6 C 8.16 g/m*3 8.6 C 1.6 km/h
2691 01-05-2020 08:10:00 8.7 C 8.22 g/m*3 8.7 C 3.2 km/h
2692 01-05-2020 08:15:00 8.8 C 8.18 g/m*3 8.8 C 4.8 km/h
2693 01-05-2020 08:20:00 8.8 C 8.18 g/m*3 8.8 C 0 km/h
2694 01-05-2020 08:25:00 8.8 C 8.18 g/m*3 8.8 C 0 km/h
2695 01-05-2020 08:30:00 8.8 C 8.18 g/m*3 8.8 C 0 km/h
2696 01-05-2020 08:35:00 8.8 C 8.27 g/m*3 8.8 C 0 km/h
2697 01-05-2020 08:40:00 8.9 C 8.32 g/m*3 8.9 C 0 km/h
2698 01-05-2020 08:45:00 9 C 8.38 g/m*3 9 C 0 km/h
2699 01-05-2020 08:50:00 9.1 C 8.43 g/m*3 9.1 C 0 km/h
2700 01-05-2020 08:55:00 9.2 C 8.48 g/m*3 9.2 C 0 km/h
Sensor: Nr:Datum:Temp:Abs-Feuchte:Windchill:Wind:
Aussen-T/F 2701 01-05-2020 09:00:00 9.4 C 8.59 g/m*3 9.4 C 0 km/h
2702 01-05-2020 09:05:00 9.5 C 8.65 g/m*3 9.5 C 1.6 km/h
2703 01-05-2020 09:10:00 9.6 C 8.7 g/m*3 9.6 C 1.6 km/h
2704 01-05-2020 09:15:00 9.7 C 8.76 g/m*3 9.7 C 1.6 km/h
2705 01-05-2020 09:20:00 9.8 C 8.81 g/m*3 9.8 C 4.8 km/h
2706 01-05-2020 09:25:00 9.9 C 8.87 g/m*3 9.9 C 3.2 km/h
2707 01-05-2020 09:30:00 10 C 8.93 g/m*3 10 C 4.8 km/h
2708 01-05-2020 09:35:00 10.1 C 8.89 g/m*3 8.31 C 12.9 km/h
2709 01-05-2020 09:40:00 10.2 C 8.85 g/m*3 9.6 C 6.4 km/h
2710 01-05-2020 09:45:00 10.3 C 8.91 g/m*3 8.55 C 12.9 km/h
2711 01-05-2020 09:50:00 10.3 C 8.71 g/m*3 9.04 C 9.7 km/h
2712 01-05-2020 09:55:00 10.3 C 8.71 g/m*3 8.34 C 14.5 km/h
2713 01-05-2020 10:00:00 10.4 C 8.67 g/m*3 9.46 C 8.1 km/h
2714 01-05-2020 10:05:00 10.5 C 8.83 g/m*3 10.5 C 4.8 km/h
2715 01-05-2020 10:10:00 10.5 C 8.63 g/m*3 8.8 C 12.9 km/h
2716 01-05-2020 10:15:00 10.6 C 8.78 g/m*3 10.6 C 3.2 km/h
2717 01-05-2020 10:20:00 10.6 C 8.69 g/m*3 9.4 C 9.7 km/h
2718 01-05-2020 10:25:00 10.6 C 8.69 g/m*3 9.69 C 8.1 km/h
2719 01-05-2020 10:30:00 10.7 C 8.74 g/m*3 9.52 C 9.7 km/h
2720 01-05-2020 10:35:00 10.8 C 8.8 g/m*3 10.29 C 6.4 km/h
2721 01-05-2020 10:40:00 10.9 C 8.75 g/m*3 9.76 C 9.7 km/h
2722 01-05-2020 10:45:00 11.1 C 8.76 g/m*3 11.1 C 12.9 km/h
2723 01-05-2020 10:50:00 11.3 C 8.67 g/m*3 11.3 C 12.9 km/h
2724 01-05-2020 10:55:00 11.7 C 8.68 g/m*3 11.7 C 20.9 km/h
2725 01-05-2020 11:00:00 11.8 C 8.63 g/m*3 11.8 C 12.9 km/h
Sensor: Nr:Datum:Temp:Abs-Feuchte:Windchill:Wind:
Aussen-T/F 2726 01-05-2020 11:05:00 11.9 C 8.79 g/m*3 11.9 C 12.9 km/h
2727 01-05-2020 11:10:00 11.9 C 8.58 g/m*3 11.9 C 14.5 km/h
2728 01-05-2020 11:15:00 12 C 8.74 g/m*3 12 C 9.7 km/h
2729 01-05-2020 11:20:00 12.2 C 8.74 g/m*3 12.2 C 16.1 km/h
2730 01-05-2020 11:25:00 12.3 C 8.69 g/m*3 12.3 C 14.5 km/h
2731 01-05-2020 11:30:00 12.3 C 8.47 g/m*3 12.3 C 14.5 km/h
2732 01-05-2020 11:35:00 12.4 C 8.52 g/m*3 12.4 C 16.1 km/h
2733 01-05-2020 11:40:00 12.5 C 8.58 g/m*3 12.5 C 11.3 km/h
2734 01-05-2020 11:45:00 12.6 C 8.52 g/m*3 12.6 C 11.3 km/h
2735 01-05-2020 11:50:00 12.6 C 8.74 g/m*3 12.6 C 9.7 km/h
2736 01-05-2020 11:55:00 12.5 C 8.58 g/m*3 12.5 C 9.7 km/h
2737 01-05-2020 12:00:00 12.5 C 8.8 g/m*3 12.5 C 6.4 km/h
2738 01-05-2020 12:05:00 12.5 C 8.69 g/m*3 12.5 C 4.8 km/h
2739 01-05-2020 12:10:00 12.3 C 8.47 g/m*3 12.3 C 11.3 km/h
2740 01-05-2020 12:15:00 12.2 C 8.52 g/m*3 12.2 C 9.7 km/h
2741 01-05-2020 12:20:00 12.2 C 8.63 g/m*3 12.2 C 11.3 km/h
2742 01-05-2020 12:25:00 12.2 C 8.74 g/m*3 12.2 C 11.3 km/h
2743 01-05-2020 12:30:00 12 C 8.63 g/m*3 12 C 12.9 km/h
2744 01-05-2020 12:35:00 11.8 C 8.74 g/m*3 11.8 C 11.3 km/h
2745 01-05-2020 12:40:00 11.7 C 8.79 g/m*3 11.7 C 11.3 km/h
2746 01-05-2020 12:45:00 11.6 C 8.94 g/m*3 11.6 C 8.1 km/h
2747 01-05-2020 12:50:00 11.3 C 8.87 g/m*3 11.3 C 8.1 km/h
2748 01-05-2020 12:55:00 11.3 C 8.98 g/m*3 11.3 C 9.7 km/h
2749 01-05-2020 13:00:00 11.2 C 8.82 g/m*3 11.2 C 8.1 km/h
2750 01-05-2020 13:05:00 11.1 C 8.76 g/m*3 11.1 C 12.9 km/h
Sensor: Nr:Datum:Temp:Abs-Feuchte:Windchill:Wind:
Aussen-T/F 2751 01-05-2020 13:10:00 10.9 C 8.55 g/m*3 9.51 C 11.3 km/h
2752 01-05-2020 13:15:00 10.7 C 8.35 g/m*3 8.84 C 14.5 km/h
2753 01-05-2020 13:20:00 10.6 C 8.39 g/m*3 8.71 C 14.5 km/h
2754 01-05-2020 13:25:00 10.8 C 8.6 g/m*3 10.8 C 3.2 km/h
2755 01-05-2020 13:30:00 10.9 C 8.55 g/m*3 9.51 C 11.3 km/h
2756 01-05-2020 13:35:00 11.1 C 8.56 g/m*3 11.1 C 6.4 km/h
2757 01-05-2020 13:40:00 11.2 C 8.62 g/m*3 11.2 C 12.9 km/h
2758 01-05-2020 13:45:00 11.4 C 8.52 g/m*3 11.4 C 16.1 km/h
2759 01-05-2020 13:50:00 11.6 C 8.63 g/m*3 11.6 C 14.5 km/h
2760 01-05-2020 13:55:00 11.9 C 8.68 g/m*3 11.9 C 9.7 km/h
2761 01-05-2020 14:00:00 12 C 8.63 g/m*3 12 C 14.5 km/h
2762 01-05-2020 14:05:00 12 C 8.63 g/m*3 12 C 11.3 km/h
2763 01-05-2020 14:10:00 12.2 C 8.74 g/m*3 12.2 C 16.1 km/h
2764 01-05-2020 14:15:00 12.4 C 8.52 g/m*3 12.4 C 11.3 km/h
2765 01-05-2020 14:20:00 12.7 C 8.79 g/m*3 12.7 C 8.1 km/h
2766 01-05-2020 14:25:00 12.9 C 8.45 g/m*3 12.9 C 19.3 km/h
2767 01-05-2020 14:30:00 13.2 C 8.61 g/m*3 13.2 C 12.9 km/h
2768 01-05-2020 14:35:00 13.3 C 8.43 g/m*3 13.3 C 14.5 km/h
2769 01-05-2020 14:40:00 13.4 C 8.37 g/m*3 13.4 C 19.3 km/h
2770 01-05-2020 14:45:00 13.6 C 8.71 g/m*3 13.6 C 17.7 km/h
2771 01-05-2020 14:50:00 13.7 C 8.53 g/m*3 13.7 C 16.1 km/h
2772 01-05-2020 14:55:00 13.7 C 8.29 g/m*3 13.7 C 12.9 km/h
2773 01-05-2020 15:00:00 13.8 C 8.1 g/m*3 13.8 C 16.1 km/h
2774 01-05-2020 15:05:00 14 C 8.32 g/m*3 14 C 14.5 km/h
2775 01-05-2020 15:10:00 14.2 C 8.3 g/m*3 14.2 C 14.5 km/h
Sensor: Nr:Datum:Temp:Abs-Feuchte:Windchill:Wind:
Aussen-T/F 2776 01-05-2020 15:15:00 14.3 C 8.48 g/m*3 14.3 C 16.1 km/h
2777 01-05-2020 15:20:00 14.6 C 8.63 g/m*3 14.6 C 11.3 km/h
2778 01-05-2020 15:25:00 14.6 C 8.26 g/m*3 14.6 C 12.9 km/h
2779 01-05-2020 15:30:00 14.4 C 8.41 g/m*3 14.4 C 8.1 km/h
2780 01-05-2020 15:35:00 14.3 C 8.48 g/m*3 14.3 C 6.4 km/h
2781 01-05-2020 15:40:00 14.1 C 8.37 g/m*3 14.1 C 14.5 km/h
2782 01-05-2020 15:45:00 13.7 C 8.41 g/m*3 13.7 C 14.5 km/h
2783 01-05-2020 15:50:00 13 C 8.73 g/m*3 13 C 25.7 km/h
2784 01-05-2020 15:55:00 12.6 C 8.85 g/m*3 12.6 C 11.3 km/h
2785 01-05-2020 16:00:00 12.3 C 8.69 g/m*3 12.3 C 9.7 km/h
2786 01-05-2020 16:05:00 12.6 C 8.96 g/m*3 12.6 C 12.9 km/h
2787 01-05-2020 16:10:00 13.1 C 9.24 g/m*3 13.1 C 9.7 km/h
2788 01-05-2020 16:15:00 13.7 C 9.24 g/m*3 13.7 C 8.1 km/h
2789 01-05-2020 16:20:00 14.3 C 9.21 g/m*3 14.3 C 17.7 km/h
2790 01-05-2020 16:25:00 14.7 C 9.07 g/m*3 14.7 C 14.5 km/h
2791 01-05-2020 16:30:00 15.1 C 9.29 g/m*3 15.1 C 16.1 km/h
2792 01-05-2020 16:35:00 15.4 C 9.2 g/m*3 15.4 C 14.5 km/h
2793 01-05-2020 16:40:00 15.7 C 9.23 g/m*3 15.7 C 16.1 km/h
2794 01-05-2020 16:45:00 15.7 C 9.1 g/m*3 15.7 C 14.5 km/h
2795 01-05-2020 16:50:00 15.6 C 9.04 g/m*3 15.6 C 14.5 km/h
2796 01-05-2020 16:55:00 15.4 C 9.07 g/m*3 15.4 C 12.9 km/h
2797 01-05-2020 17:00:00 15.6 C 9.04 g/m*3 15.6 C 12.9 km/h
2798 01-05-2020 17:05:00 15.8 C 9.15 g/m*3 15.8 C 14.5 km/h
2799 01-05-2020 17:10:00 15.9 C 9.34 g/m*3 15.9 C 11.3 km/h
2800 01-05-2020 17:15:00 16.2 C 8.96 g/m*3 16.2 C 16.1 km/h
Sensor: Nr:Datum:Temp:Abs-Feuchte:Windchill:Wind:
Aussen-T/F 2801 01-05-2020 17:20:00 16.1 C 8.91 g/m*3 16.1 C 17.7 km/h
2802 01-05-2020 17:25:00 15.7 C 8.96 g/m*3 15.7 C 11.3 km/h
2803 01-05-2020 17:30:00 15 C 8.85 g/m*3 15 C 14.5 km/h
2804 01-05-2020 17:35:00 14.3 C 9.09 g/m*3 14.3 C 17.7 km/h
2805 01-05-2020 17:40:00 13.6 C 9.18 g/m*3 13.6 C 14.5 km/h
2806 01-05-2020 17:45:00 13.3 C 9.13 g/m*3 13.3 C 8.1 km/h
2807 01-05-2020 17:50:00 12.9 C 8.79 g/m*3 12.9 C 11.3 km/h
2808 01-05-2020 17:55:00 12.8 C 8.85 g/m*3 12.8 C 8.1 km/h
2809 01-05-2020 18:00:00 12.8 C 9.07 g/m*3 12.8 C 4.8 km/h
2810 01-05-2020 18:05:00 12.9 C 9.35 g/m*3 12.9 C 3.2 km/h
2811 01-05-2020 18:10:00 12.9 C 9.47 g/m*3 12.9 C 3.2 km/h
2812 01-05-2020 18:15:00 12.8 C 9.18 g/m*3 12.8 C 6.4 km/h
2813 01-05-2020 18:20:00 12.7 C 8.91 g/m*3 12.7 C 6.4 km/h
2814 01-05-2020 18:25:00 12.8 C 9.07 g/m*3 12.8 C 9.7 km/h
2815 01-05-2020 18:30:00 13.3 C 9.36 g/m*3 13.3 C 4.8 km/h
2816 01-05-2020 18:35:00 13.7 C 9.47 g/m*3 13.7 C 4.8 km/h
2817 01-05-2020 18:40:00 13.8 C 9.65 g/m*3 13.8 C 4.8 km/h
2818 01-05-2020 18:45:00 14.3 C 10.07 g/m*3 14.3 C 8.1 km/h
2819 01-05-2020 18:50:00 14.8 C 9.25 g/m*3 14.8 C 6.4 km/h
2820 01-05-2020 18:55:00 14.6 C 9.01 g/m*3 14.6 C 8.1 km/h
2821 01-05-2020 19:00:00 14.2 C 8.79 g/m*3 14.2 C 9.7 km/h
2822 01-05-2020 19:05:00 13.8 C 9.06 g/m*3 13.8 C 4.8 km/h
2823 01-05-2020 19:10:00 13.6 C 9.06 g/m*3 13.6 C 4.8 km/h
2824 01-05-2020 19:15:00 13.2 C 8.84 g/m*3 13.2 C 6.4 km/h
2825 01-05-2020 19:20:00 12.8 C 8.85 g/m*3 12.8 C 4.8 km/h
Sensor: Nr:Datum:Temp:Abs-Feuchte:Windchill:Wind:
Aussen-T/F 2826 01-05-2020 19:25:00 12.6 C 8.85 g/m*3 12.6 C 6.4 km/h
2827 01-05-2020 19:30:00 12.3 C 8.69 g/m*3 12.3 C 4.8 km/h
2828 01-05-2020 19:35:00 12.1 C 8.58 g/m*3 12.1 C 9.7 km/h
2829 01-05-2020 19:40:00 12 C 8.63 g/m*3 12 C 6.4 km/h
2830 01-05-2020 19:45:00 11.9 C 8.58 g/m*3 11.9 C 8.1 km/h
2831 01-05-2020 19:50:00 11.8 C 8.63 g/m*3 11.8 C 11.3 km/h
2832 01-05-2020 19:55:00 11.7 C 8.58 g/m*3 11.7 C 4.8 km/h
2833 01-05-2020 20:00:00 11.6 C 8.52 g/m*3 11.6 C 9.7 km/h
2834 01-05-2020 20:05:00 11.4 C 8.31 g/m*3 11.4 C 9.7 km/h
2835 01-05-2020 20:10:00 11.3 C 8.26 g/m*3 11.3 C 9.7 km/h
2836 01-05-2020 20:15:00 11.3 C 8.36 g/m*3 11.3 C 8.1 km/h
2837 01-05-2020 20:20:00 11.4 C 8.21 g/m*3 11.4 C 9.7 km/h
2838 01-05-2020 20:25:00 11.4 C 8.11 g/m*3 11.4 C 8.1 km/h
2839 01-05-2020 20:30:00 11.4 C 8.11 g/m*3 11.4 C 8.1 km/h
2840 01-05-2020 20:35:00 11.3 C 8.16 g/m*3 11.3 C 4.8 km/h
2841 01-05-2020 20:40:00 11.2 C 8.21 g/m*3 11.2 C 6.4 km/h
2842 01-05-2020 20:45:00 11.1 C 8.26 g/m*3 11.1 C 8.1 km/h
2843 01-05-2020 20:50:00 10.9 C 8.26 g/m*3 10.9 C 4.8 km/h
2844 01-05-2020 20:55:00 10.8 C 8.3 g/m*3 10.8 C 1.6 km/h
2845 01-05-2020 21:00:00 10.7 C 8.25 g/m*3 10.7 C 4.8 km/h
2846 01-05-2020 21:05:00 10.6 C 8.3 g/m*3 10.6 C 4.8 km/h
2847 01-05-2020 21:10:00 10.5 C 8.24 g/m*3 9.28 C 9.7 km/h
2848 01-05-2020 21:15:00 10.4 C 8.19 g/m*3 10.4 C 3.2 km/h
2849 01-05-2020 21:20:00 10.4 C 8.19 g/m*3 9.16 C 9.7 km/h
2850 01-05-2020 21:25:00 10.4 C 8.29 g/m*3 10.4 C 3.2 km/h
Sensor: Nr:Datum:Temp:Abs-Feuchte:Windchill:Wind:
Aussen-T/F 2851 01-05-2020 21:30:00 10.3 C 8.24 g/m*3 9.72 C 6.4 km/h
2852 01-05-2020 21:35:00 10.3 C 8.24 g/m*3 10.3 C 1.6 km/h
2853 01-05-2020 21:40:00 10.2 C 8.18 g/m*3 10.2 C 4.8 km/h
2854 01-05-2020 21:45:00 10 C 8.08 g/m*3 10 C 3.2 km/h
2855 01-05-2020 21:50:00 9.8 C 7.98 g/m*3 9.8 C 4.8 km/h
2856 01-05-2020 21:55:00 9.6 C 7.97 g/m*3 9.6 C 4.8 km/h
2857 01-05-2020 22:00:00 9.4 C 7.87 g/m*3 9.4 C 4.8 km/h
2858 01-05-2020 22:05:00 9.3 C 7.91 g/m*3 9.3 C 4.8 km/h
2859 01-05-2020 22:10:00 9.2 C 7.86 g/m*3 9.2 C 3.2 km/h
2860 01-05-2020 22:15:00 9.1 C 7.9 g/m*3 9.1 C 3.2 km/h
2861 01-05-2020 22:20:00 9.1 C 7.9 g/m*3 9.1 C 3.2 km/h
2862 01-05-2020 22:25:00 9.1 C 7.9 g/m*3 9.1 C 3.2 km/h
2863 01-05-2020 22:30:00 9.2 C 7.95 g/m*3 8.05 C 8.1 km/h
2864 01-05-2020 22:35:00 9.3 C 8 g/m*3 8.16 C 8.1 km/h
2865 01-05-2020 22:40:00 9.4 C 8.05 g/m*3 8.68 C 6.4 km/h
2866 01-05-2020 22:45:00 9.4 C 8.05 g/m*3 7.97 C 9.7 km/h
2867 01-05-2020 22:50:00 9.4 C 8.05 g/m*3 9.4 C 4.8 km/h
2868 01-05-2020 22:55:00 9.5 C 8.1 g/m*3 9.5 C 1.6 km/h
2869 01-05-2020 23:00:00 9.5 C 8.1 g/m*3 8.79 C 6.4 km/h
2870 01-05-2020 23:05:00 9.5 C 8.1 g/m*3 8.4 C 8.1 km/h
2871 01-05-2020 23:10:00 9.6 C 8.15 g/m*3 8.52 C 8.1 km/h
2872 01-05-2020 23:15:00 9.5 C 8.1 g/m*3 8.09 C 9.7 km/h
2873 01-05-2020 23:20:00 9.6 C 8.15 g/m*3 7.94 C 11.3 km/h
2874 01-05-2020 23:25:00 9.6 C 8.15 g/m*3 8.91 C 6.4 km/h
2875 01-05-2020 23:30:00 9.6 C 8.15 g/m*3 8.21 C 9.7 km/h
Sensor: Nr:Datum:Temp:Abs-Feuchte:Windchill:Wind:
Aussen-T/F 2876 01-05-2020 23:35:00 9.6 C 8.15 g/m*3 7.48 C 14.5 km/h
2877 01-05-2020 23:40:00 9.6 C 8.06 g/m*3 8.21 C 9.7 km/h
2878 01-05-2020 23:45:00 9.7 C 8.11 g/m*3 8.33 C 9.7 km/h
2879 01-05-2020 23:50:00 9.7 C 8.11 g/m*3 8.06 C 11.3 km/h
2880 01-05-2020 23:55:00 9.7 C 8.11 g/m*3 9.7 C 4.8 km/h
2881 02-05-2020 00:00:00 9.7 C 8.11 g/m*3 9.02 C 6.4 km/h
2882 02-05-2020 00:05:00 9.7 C 8.2 g/m*3 9.7 C 4.8 km/h
2883 02-05-2020 00:10:00 9.6 C 8.15 g/m*3 9.6 C 4.8 km/h
2884 02-05-2020 00:15:00 9.6 C 8.15 g/m*3 9.6 C 0 km/h
2885 02-05-2020 00:20:00 9.6 C 8.15 g/m*3 9.6 C 1.6 km/h
2886 02-05-2020 00:25:00 9.4 C 8.05 g/m*3 9.4 C 1.6 km/h
2887 02-05-2020 00:30:00 9.4 C 8.05 g/m*3 9.4 C 1.6 km/h
2888 02-05-2020 00:35:00 9.2 C 7.95 g/m*3 9.2 C 3.2 km/h
2889 02-05-2020 00:40:00 9.2 C 7.95 g/m*3 8.05 C 8.1 km/h
2890 02-05-2020 00:45:00 9.2 C 7.95 g/m*3 9.2 C 4.8 km/h
2891 02-05-2020 00:50:00 9.2 C 7.95 g/m*3 9.2 C 4.8 km/h
2892 02-05-2020 00:55:00 9.2 C 8.04 g/m*3 7.73 C 9.7 km/h
2893 02-05-2020 01:00:00 9.2 C 8.04 g/m*3 8.05 C 8.1 km/h
2894 02-05-2020 01:05:00 9.2 C 8.04 g/m*3 8.05 C 8.1 km/h
2895 02-05-2020 01:10:00 9.3 C 8.09 g/m*3 8.16 C 8.1 km/h
2896 02-05-2020 01:15:00 9.3 C 8.09 g/m*3 7.58 C 11.3 km/h
2897 02-05-2020 01:20:00 9.4 C 8.05 g/m*3 7.7 C 11.3 km/h
2898 02-05-2020 01:25:00 9.4 C 8.05 g/m*3 8.28 C 8.1 km/h
2899 02-05-2020 01:30:00 9.5 C 8.01 g/m*3 8.4 C 8.1 km/h
2900 02-05-2020 01:35:00 9.4 C 8.05 g/m*3 7.97 C 9.7 km/h
Sensor: Nr:Datum:Temp:Abs-Feuchte:Windchill:Wind:
Aussen-T/F 2901 02-05-2020 01:40:00 9.3 C 8 g/m*3 8.16 C 8.1 km/h
2902 02-05-2020 01:45:00 9.3 C 8 g/m*3 7.85 C 9.7 km/h
2903 02-05-2020 01:50:00 9.2 C 7.95 g/m*3 7.73 C 9.7 km/h
2904 02-05-2020 01:55:00 9.1 C 7.9 g/m*3 9.1 C 4.8 km/h
2905 02-05-2020 02:00:00 9 C 7.93 g/m*3 9 C 4.8 km/h
2906 02-05-2020 02:05:00 8.9 C 7.88 g/m*3 8.9 C 4.8 km/h
2907 02-05-2020 02:10:00 8.8 C 7.83 g/m*3 8.8 C 3.2 km/h
2908 02-05-2020 02:15:00 8.8 C 7.83 g/m*3 8.8 C 3.2 km/h
2909 02-05-2020 02:20:00 8.8 C 7.92 g/m*3 7.25 C 9.7 km/h
2910 02-05-2020 02:25:00 8.8 C 7.92 g/m*3 8.8 C 4.8 km/h
2911 02-05-2020 02:30:00 8.7 C 7.87 g/m*3 8.7 C 4.8 km/h
2912 02-05-2020 02:35:00 8.8 C 7.92 g/m*3 8.8 C 4.8 km/h
2913 02-05-2020 02:40:00 8.8 C 7.92 g/m*3 7.58 C 8.1 km/h
2914 02-05-2020 02:45:00 8.9 C 7.97 g/m*3 7.37 C 9.7 km/h
2915 02-05-2020 02:50:00 8.9 C 7.88 g/m*3 7.69 C 8.1 km/h
2916 02-05-2020 02:55:00 9.1 C 7.99 g/m*3 7.61 C 9.7 km/h
2917 02-05-2020 03:00:00 9.2 C 7.95 g/m*3 8.05 C 8.1 km/h
2918 02-05-2020 03:05:00 9.2 C 7.95 g/m*3 9.2 C 4.8 km/h
2919 02-05-2020 03:10:00 9.3 C 7.91 g/m*3 7.58 C 11.3 km/h
2920 02-05-2020 03:15:00 9.3 C 7.91 g/m*3 9.3 C 4.8 km/h
2921 02-05-2020 03:20:00 9.3 C 7.91 g/m*3 8.16 C 8.1 km/h
2922 02-05-2020 03:25:00 9.4 C 7.96 g/m*3 9.4 C 4.8 km/h
2923 02-05-2020 03:30:00 9.4 C 7.96 g/m*3 7.97 C 9.7 km/h
2924 02-05-2020 03:35:00 9.4 C 7.96 g/m*3 9.4 C 3.2 km/h
2925 02-05-2020 03:40:00 9.4 C 7.96 g/m*3 8.68 C 6.4 km/h
Sensor: Nr:Datum:Temp:Abs-Feuchte:Windchill:Wind:
Aussen-T/F 2926 02-05-2020 03:45:00 9.4 C 7.96 g/m*3 9.4 C 3.2 km/h
2927 02-05-2020 03:50:00 9.4 C 7.96 g/m*3 9.4 C 1.6 km/h
2928 02-05-2020 03:55:00 9.3 C 7.91 g/m*3 9.3 C 1.6 km/h
2929 02-05-2020 04:00:00 9.3 C 7.91 g/m*3 9.3 C 0 km/h
2930 02-05-2020 04:05:00 9.2 C 7.86 g/m*3 9.2 C 1.6 km/h
2931 02-05-2020 04:10:00 9.2 C 7.95 g/m*3 9.2 C 0 km/h
2932 02-05-2020 04:15:00 9.1 C 7.9 g/m*3 9.1 C 0 km/h
2933 02-05-2020 04:20:00 9 C 7.85 g/m*3 9 C 1.6 km/h
2934 02-05-2020 04:25:00 8.9 C 7.8 g/m*3 8.1 C 6.4 km/h
2935 02-05-2020 04:30:00 8.9 C 7.8 g/m*3 8.9 C 3.2 km/h
2936 02-05-2020 04:35:00 8.9 C 7.88 g/m*3 8.9 C 4.8 km/h
2937 02-05-2020 04:40:00 8.9 C 7.8 g/m*3 7.69 C 8.1 km/h
2938 02-05-2020 04:45:00 9.1 C 7.9 g/m*3 7.33 C 11.3 km/h
2939 02-05-2020 04:50:00 9.1 C 7.9 g/m*3 9.1 C 4.8 km/h
2940 02-05-2020 04:55:00 9.1 C 7.81 g/m*3 9.1 C 4.8 km/h
2941 02-05-2020 05:00:00 9.1 C 7.81 g/m*3 9.1 C 4.8 km/h
2942 02-05-2020 05:05:00 9.1 C 7.81 g/m*3 7.61 C 9.7 km/h
2943 02-05-2020 05:10:00 9 C 7.76 g/m*3 7.49 C 9.7 km/h
2944 02-05-2020 05:15:00 9 C 7.76 g/m*3 7.49 C 9.7 km/h
2945 02-05-2020 05:20:00 9 C 7.76 g/m*3 9 C 3.2 km/h
2946 02-05-2020 05:25:00 9 C 7.76 g/m*3 7.81 C 8.1 km/h
2947 02-05-2020 05:30:00 9 C 7.67 g/m*3 7.21 C 11.3 km/h
2948 02-05-2020 05:35:00 9.1 C 7.72 g/m*3 8.33 C 6.4 km/h
2949 02-05-2020 05:40:00 9 C 7.67 g/m*3 7.81 C 8.1 km/h
2950 02-05-2020 05:45:00 8.9 C 7.62 g/m*3 7.69 C 8.1 km/h
Sensor: Nr:Datum:Temp:Abs-Feuchte:Windchill:Wind:
Aussen-T/F 2951 02-05-2020 05:50:00 8.8 C 7.57 g/m*3 7.25 C 9.7 km/h
2952 02-05-2020 05:55:00 8.6 C 7.48 g/m*3 7.01 C 9.7 km/h
2953 02-05-2020 06:00:00 8.5 C 7.43 g/m*3 6.9 C 9.7 km/h
2954 02-05-2020 06:05:00 8.4 C 7.38 g/m*3 7.52 C 6.4 km/h
2955 02-05-2020 06:10:00 8.3 C 7.33 g/m*3 6.66 C 9.7 km/h
2956 02-05-2020 06:15:00 8.3 C 7.42 g/m*3 6.99 C 8.1 km/h
2957 02-05-2020 06:20:00 8.2 C 7.37 g/m*3 6.25 C 11.3 km/h
2958 02-05-2020 06:25:00 8.2 C 7.37 g/m*3 7.29 C 6.4 km/h
2959 02-05-2020 06:30:00 8.2 C 7.37 g/m*3 6.25 C 11.3 km/h
2960 02-05-2020 06:35:00 8.2 C 7.37 g/m*3 6.25 C 11.3 km/h
2961 02-05-2020 06:40:00 8.2 C 7.37 g/m*3 6.54 C 9.7 km/h
2962 02-05-2020 06:45:00 8.2 C 7.37 g/m*3 6.87 C 8.1 km/h
2963 02-05-2020 06:50:00 8.2 C 7.37 g/m*3 6.25 C 11.3 km/h
2964 02-05-2020 06:55:00 8.2 C 7.37 g/m*3 6.54 C 9.7 km/h
2965 02-05-2020 07:00:00 8.2 C 7.37 g/m*3 6.25 C 11.3 km/h
2966 02-05-2020 07:05:00 8.2 C 7.37 g/m*3 6.87 C 8.1 km/h
2967 02-05-2020 07:10:00 8.3 C 7.42 g/m*3 5.48 C 17.7 km/h
2968 02-05-2020 07:15:00 8.4 C 7.38 g/m*3 6.49 C 11.3 km/h
2969 02-05-2020 07:20:00 8.5 C 7.43 g/m*3 7.64 C 6.4 km/h
2970 02-05-2020 07:25:00 8.6 C 7.48 g/m*3 6.48 C 12.9 km/h
2971 02-05-2020 07:30:00 8.6 C 7.48 g/m*3 5.68 C 19.3 km/h
2972 02-05-2020 07:35:00 8.6 C 7.39 g/m*3 6.73 C 11.3 km/h
2973 02-05-2020 07:40:00 8.6 C 7.39 g/m*3 7.34 C 8.1 km/h
2974 02-05-2020 07:45:00 8.6 C 7.39 g/m*3 8.6 C 4.8 km/h
2975 02-05-2020 07:50:00 8.6 C 7.39 g/m*3 6.05 C 16.1 km/h
Sensor: Nr:Datum:Temp:Abs-Feuchte:Windchill:Wind:
Aussen-T/F 2976 02-05-2020 07:55:00 8.7 C 7.52 g/m*3 6.17 C 16.1 km/h
2977 02-05-2020 08:00:00 8.7 C 7.44 g/m*3 7.13 C 9.7 km/h
2978 02-05-2020 08:05:00 8.8 C 7.57 g/m*3 7.58 C 8.1 km/h
2979 02-05-2020 08:10:00 8.8 C 7.49 g/m*3 7.25 C 9.7 km/h
2980 02-05-2020 08:15:00 8.9 C 7.53 g/m*3 6.85 C 12.9 km/h
2981 02-05-2020 08:20:00 9.1 C 7.72 g/m*3 7.93 C 8.1 km/h
2982 02-05-2020 08:25:00 9.2 C 7.59 g/m*3 7.73 C 9.7 km/h
2983 02-05-2020 08:30:00 9.3 C 7.64 g/m*3 6.92 C 16.1 km/h
2984 02-05-2020 08:35:00 9.5 C 7.74 g/m*3 7.58 C 12.9 km/h
2985 02-05-2020 08:40:00 9.7 C 7.74 g/m*3 7.82 C 12.9 km/h
2986 02-05-2020 08:45:00 9.8 C 7.79 g/m*3 7.94 C 12.9 km/h
2987 02-05-2020 08:50:00 9.8 C 7.7 g/m*3 8.18 C 11.3 km/h
2988 02-05-2020 08:55:00 9.8 C 7.61 g/m*3 7.54 C 16.1 km/h
2989 02-05-2020 09:00:00 9.8 C 7.52 g/m*3 7.54 C 16.1 km/h
2990 02-05-2020 09:05:00 9.8 C 7.52 g/m*3 7.36 C 17.7 km/h
2991 02-05-2020 09:10:00 9.8 C 7.52 g/m*3 7.94 C 12.9 km/h
2992 02-05-2020 09:15:00 9.8 C 7.52 g/m*3 6.63 C 25.7 km/h
2993 02-05-2020 09:20:00 9.9 C 7.56 g/m*3 7.32 C 19.3 km/h
2994 02-05-2020 09:25:00 9.9 C 7.56 g/m*3 7.32 C 19.3 km/h
2995 02-05-2020 09:30:00 10.1 C 7.66 g/m*3 7.42 C 20.9 km/h
2996 02-05-2020 09:35:00 10.3 C 7.76 g/m*3 8.16 C 16.1 km/h
2997 02-05-2020 09:40:00 10.6 C 7.81 g/m*3 8.36 C 17.7 km/h
2998 02-05-2020 09:45:00 10.8 C 7.81 g/m*3 8.61 C 17.7 km/h
2999 02-05-2020 09:50:00 10.8 C 7.71 g/m*3 8.45 C 19.3 km/h
3000 02-05-2020 09:55:00 10.7 C 7.76 g/m*3 9.04 C 12.9 km/h
Sensor: Nr:Datum:Temp:Abs-Feuchte:Windchill:Wind:
Aussen-T/F 3001 02-05-2020 10:00:00 10.6 C 7.71 g/m*3 8.92 C 12.9 km/h
3002 02-05-2020 10:05:00 10.4 C 7.81 g/m*3 8.28 C 16.1 km/h
3003 02-05-2020 10:10:00 10.1 C 7.94 g/m*3 7.42 C 20.9 km/h
3004 02-05-2020 10:15:00 9.6 C 7.51 g/m*3 7.29 C 16.1 km/h
3005 02-05-2020 10:20:00 8.8 C 7.31 g/m*3 5.93 C 19.3 km/h
3006 02-05-2020 10:25:00 8.3 C 7.25 g/m*3 8.3 C 3.2 km/h
3007 02-05-2020 10:30:00 8 C 7.28 g/m*3 6.64 C 8.1 km/h
3008 02-05-2020 10:35:00 7.8 C 7.35 g/m*3 6.06 C 9.7 km/h
3009 02-05-2020 10:40:00 7.7 C 7.3 g/m*3 5.94 C 9.7 km/h
3010 02-05-2020 10:45:00 7.6 C 7.33 g/m*3 5.82 C 9.7 km/h
3011 02-05-2020 10:50:00 7.6 C 7.33 g/m*3 6.6 C 6.4 km/h
3012 02-05-2020 10:55:00 7.6 C 7.41 g/m*3 6.16 C 8.1 km/h
3013 02-05-2020 11:00:00 7.7 C 7.46 g/m*3 6.28 C 8.1 km/h
3014 02-05-2020 11:05:00 7.8 C 7.59 g/m*3 6.83 C 6.4 km/h
3015 02-05-2020 11:10:00 8.1 C 7.82 g/m*3 8.1 C 3.2 km/h
3016 02-05-2020 11:15:00 8.3 C 7.92 g/m*3 8.3 C 4.8 km/h
3017 02-05-2020 11:20:00 8.4 C 7.89 g/m*3 7.11 C 8.1 km/h
3018 02-05-2020 11:25:00 8.5 C 7.94 g/m*3 7.22 C 8.1 km/h
3019 02-05-2020 11:30:00 8.7 C 8.13 g/m*3 8.7 C 4.8 km/h
3020 02-05-2020 11:35:00 8.9 C 8.23 g/m*3 8.9 C 4.8 km/h
3021 02-05-2020 11:40:00 9 C 8.2 g/m*3 7.21 C 11.3 km/h
3022 02-05-2020 11:45:00 9.2 C 8.3 g/m*3 8.05 C 8.1 km/h
3023 02-05-2020 11:50:00 9.3 C 8.36 g/m*3 9.3 C 4.8 km/h
3024 02-05-2020 11:55:00 9.3 C 8.27 g/m*3 6.92 C 16.1 km/h
3025 02-05-2020 12:00:00 9.3 C 8.18 g/m*3 8.56 C 6.4 km/h
Sensor: Nr:Datum:Temp:Abs-Feuchte:Windchill:Wind:
Aussen-T/F 3026 02-05-2020 12:05:00 9.3 C 8.18 g/m*3 7.33 C 12.9 km/h
3027 02-05-2020 12:10:00 9.4 C 8.05 g/m*3 7.24 C 14.5 km/h
3028 02-05-2020 12:15:00 9.7 C 8.02 g/m*3 7.82 C 12.9 km/h
3029 02-05-2020 12:20:00 9.8 C 7.98 g/m*3 7.54 C 16.1 km/h
3030 02-05-2020 12:25:00 10 C 8.08 g/m*3 8.19 C 12.9 km/h
3031 02-05-2020 12:30:00 10.1 C 8.04 g/m*3 8.31 C 12.9 km/h
3032 02-05-2020 12:35:00 10.3 C 8.14 g/m*3 9.34 C 8.1 km/h
3033 02-05-2020 12:40:00 10.5 C 8.15 g/m*3 8.59 C 14.5 km/h
3034 02-05-2020 12:45:00 10.8 C 8.3 g/m*3 9.16 C 12.9 km/h
3035 02-05-2020 12:50:00 10.9 C 8.26 g/m*3 10.04 C 8.1 km/h
3036 02-05-2020 12:55:00 11 C 8.51 g/m*3 10.52 C 6.4 km/h
3037 02-05-2020 13:00:00 11.1 C 8.16 g/m*3 11.1 C 20.9 km/h
3038 02-05-2020 13:05:00 11.4 C 7.8 g/m*3 11.4 C 22.5 km/h
3039 02-05-2020 13:10:00 11.6 C 8 g/m*3 11.6 C 14.5 km/h
3040 02-05-2020 13:15:00 11.8 C 8 g/m*3 11.8 C 19.3 km/h
3041 02-05-2020 13:20:00 11.8 C 8.1 g/m*3 11.8 C 14.5 km/h
3042 02-05-2020 13:25:00 11.6 C 8 g/m*3 11.6 C 12.9 km/h
3043 02-05-2020 13:30:00 11.4 C 7.9 g/m*3 11.4 C 14.5 km/h
3044 02-05-2020 13:35:00 11.3 C 7.96 g/m*3 11.3 C 11.3 km/h
3045 02-05-2020 13:40:00 11.3 C 8.06 g/m*3 11.3 C 11.3 km/h
3046 02-05-2020 13:45:00 11.3 C 7.85 g/m*3 11.3 C 16.1 km/h
3047 02-05-2020 13:50:00 11.6 C 8.11 g/m*3 11.6 C 16.1 km/h
3048 02-05-2020 13:55:00 11.7 C 7.95 g/m*3 11.7 C 20.9 km/h
3049 02-05-2020 14:00:00 11.9 C 8.05 g/m*3 11.9 C 17.7 km/h
3050 02-05-2020 14:05:00 12.1 C 7.94 g/m*3 12.1 C 17.7 km/h
Sensor: Nr:Datum:Temp:Abs-Feuchte:Windchill:Wind:
Aussen-T/F 3051 02-05-2020 14:10:00 12.3 C 8.04 g/m*3 12.3 C 19.3 km/h
3052 02-05-2020 14:15:00 12.7 C 8.24 g/m*3 12.7 C 17.7 km/h
3053 02-05-2020 14:20:00 12.9 C 8.23 g/m*3 12.9 C 16.1 km/h
3054 02-05-2020 14:25:00 13.2 C 7.92 g/m*3 13.2 C 22.5 km/h
3055 02-05-2020 14:30:00 13.2 C 7.92 g/m*3 13.2 C 11.3 km/h
3056 02-05-2020 14:35:00 12.9 C 7.55 g/m*3 12.9 C 20.9 km/h
3057 02-05-2020 14:40:00 11.6 C 7.48 g/m*3 11.6 C 32.2 km/h
3058 02-05-2020 14:45:00 10.2 C 7.33 g/m*3 8.43 C 12.9 km/h
3059 02-05-2020 14:50:00 9.6 C 7.42 g/m*3 7.11 C 17.7 km/h
3060 02-05-2020 14:55:00 9.3 C 7.55 g/m*3 6.41 C 20.9 km/h
3061 02-05-2020 15:00:00 8.9 C 7.45 g/m*3 6.06 C 19.3 km/h
3062 02-05-2020 15:05:00 8.7 C 7.61 g/m*3 8.7 C 3.2 km/h
3063 02-05-2020 15:10:00 8.7 C 7.7 g/m*3 8.7 C 1.6 km/h
3064 02-05-2020 15:15:00 8.7 C 7.78 g/m*3 6.38 C 14.5 km/h
3065 02-05-2020 15:20:00 8.8 C 7.92 g/m*3 7.58 C 8.1 km/h
3066 02-05-2020 15:25:00 8.8 C 7.92 g/m*3 8.8 C 3.2 km/h
3067 02-05-2020 15:30:00 9.1 C 8.16 g/m*3 7.93 C 8.1 km/h
3068 02-05-2020 15:35:00 9.4 C 8.23 g/m*3 8.68 C 6.4 km/h
3069 02-05-2020 15:40:00 10.2 C 8.85 g/m*3 9.6 C 6.4 km/h
3070 02-05-2020 15:45:00 10.8 C 9.19 g/m*3 9.64 C 9.7 km/h
3071 02-05-2020 15:50:00 11.3 C 9.28 g/m*3 11.3 C 9.7 km/h
3072 02-05-2020 15:55:00 11.5 C 8.99 g/m*3 11.5 C 9.7 km/h
3073 02-05-2020 16:00:00 12.1 C 9.33 g/m*3 12.1 C 6.4 km/h
3074 02-05-2020 16:05:00 12.6 C 9.18 g/m*3 12.6 C 3.2 km/h
3075 02-05-2020 16:10:00 13.1 C 9.47 g/m*3 13.1 C 16.1 km/h
Sensor: Nr:Datum:Temp:Abs-Feuchte:Windchill:Wind:
Aussen-T/F 3076 02-05-2020 16:15:00 13.4 C 8.95 g/m*3 13.4 C 9.7 km/h
3077 02-05-2020 16:20:00 13.7 C 9.47 g/m*3 13.7 C 6.4 km/h
3078 02-05-2020 16:25:00 13.9 C 8.39 g/m*3 13.9 C 12.9 km/h
3079 02-05-2020 16:30:00 14.2 C 8.79 g/m*3 14.2 C 11.3 km/h
3080 02-05-2020 16:35:00 14.2 C 8.67 g/m*3 14.2 C 6.4 km/h
3081 02-05-2020 16:40:00 13.9 C 8.99 g/m*3 13.9 C 4.8 km/h
3082 02-05-2020 16:45:00 13.6 C 8.94 g/m*3 13.6 C 3.2 km/h
3083 02-05-2020 16:50:00 13.4 C 9.07 g/m*3 13.4 C 8.1 km/h
3084 02-05-2020 16:55:00 13.3 C 9.36 g/m*3 13.3 C 6.4 km/h
3085 02-05-2020 17:00:00 13.7 C 9.59 g/m*3 13.7 C 8.1 km/h
3086 02-05-2020 17:05:00 14.4 C 9.27 g/m*3 14.4 C 9.7 km/h
3087 02-05-2020 17:10:00 14.7 C 8.69 g/m*3 14.7 C 11.3 km/h
3088 02-05-2020 17:15:00 14.5 C 8.95 g/m*3 14.5 C 11.3 km/h
3089 02-05-2020 17:20:00 14.1 C 8.37 g/m*3 14.1 C 8.1 km/h
3090 02-05-2020 17:25:00 13.9 C 8.87 g/m*3 13.9 C 1.6 km/h
3091 02-05-2020 17:30:00 13.8 C 9.06 g/m*3 13.8 C 3.2 km/h
3092 02-05-2020 17:35:00 13.8 C 9.29 g/m*3 13.8 C 3.2 km/h
3093 02-05-2020 17:40:00 13.8 C 8.94 g/m*3 13.8 C 4.8 km/h
3094 02-05-2020 17:45:00 13.8 C 8.94 g/m*3 13.8 C 11.3 km/h
3095 02-05-2020 17:50:00 13.8 C 7.74 g/m*3 13.8 C 9.7 km/h
3096 02-05-2020 17:55:00 14.2 C 7.69 g/m*3 14.2 C 12.9 km/h
3097 02-05-2020 18:00:00 14.7 C 7.55 g/m*3 14.7 C 12.9 km/h
3098 02-05-2020 18:05:00 14.7 C 7.68 g/m*3 14.7 C 11.3 km/h
3099 02-05-2020 18:10:00 14.3 C 7.37 g/m*3 14.3 C 9.7 km/h
3100 02-05-2020 18:15:00 13.9 C 7.31 g/m*3 13.9 C 9.7 km/h
Sensor: Nr:Datum:Temp:Abs-Feuchte:Windchill:Wind:
Aussen-T/F 3101 02-05-2020 18:20:00 13.7 C 7.58 g/m*3 13.7 C 11.3 km/h
3102 02-05-2020 18:25:00 13.3 C 7.74 g/m*3 13.3 C 9.7 km/h
3103 02-05-2020 18:30:00 13.1 C 7.87 g/m*3 13.1 C 12.9 km/h
3104 02-05-2020 18:35:00 12.9 C 7.89 g/m*3 12.9 C 14.5 km/h
3105 02-05-2020 18:40:00 12.7 C 7.79 g/m*3 12.7 C 14.5 km/h
3106 02-05-2020 18:45:00 12.6 C 7.85 g/m*3 12.6 C 14.5 km/h
3107 02-05-2020 18:50:00 12.4 C 7.87 g/m*3 12.4 C 14.5 km/h
3108 02-05-2020 18:55:00 12.3 C 7.82 g/m*3 12.3 C 20.9 km/h
3109 02-05-2020 19:00:00 12.1 C 7.72 g/m*3 12.1 C 16.1 km/h
3110 02-05-2020 19:05:00 12 C 7.89 g/m*3 12 C 11.3 km/h
3111 02-05-2020 19:10:00 11.8 C 7.68 g/m*3 11.8 C 20.9 km/h
3112 02-05-2020 19:15:00 11.7 C 7.53 g/m*3 11.7 C 11.3 km/h
3113 02-05-2020 19:20:00 11.5 C 7.02 g/m*3 11.5 C 12.9 km/h
3114 02-05-2020 19:25:00 11.5 C 7.23 g/m*3 11.5 C 11.3 km/h
3115 02-05-2020 19:30:00 11.5 C 7.33 g/m*3 11.5 C 8.1 km/h
3116 02-05-2020 19:35:00 11.6 C 7.59 g/m*3 11.6 C 4.8 km/h
3117 02-05-2020 19:40:00 11.6 C 7.8 g/m*3 11.6 C 4.8 km/h
3118 02-05-2020 19:45:00 11.6 C 7.59 g/m*3 11.6 C 6.4 km/h
3119 02-05-2020 19:50:00 11.7 C 7.74 g/m*3 11.7 C 8.1 km/h
3120 02-05-2020 19:55:00 11.8 C 7.68 g/m*3 11.8 C 8.1 km/h
3121 02-05-2020 20:00:00 12 C 7.67 g/m*3 12 C 11.3 km/h
3122 02-05-2020 20:05:00 12.1 C 7.61 g/m*3 12.1 C 12.9 km/h
3123 02-05-2020 20:10:00 12.1 C 7.61 g/m*3 12.1 C 9.7 km/h
3124 02-05-2020 20:15:00 11.9 C 7.52 g/m*3 11.9 C 9.7 km/h
3125 02-05-2020 20:20:00 11.9 C 7.63 g/m*3 11.9 C 4.8 km/h
Sensor: Nr:Datum:Temp:Abs-Feuchte:Windchill:Wind:
Aussen-T/F 3126 02-05-2020 20:25:00 11.7 C 7.53 g/m*3 11.7 C 6.4 km/h
3127 02-05-2020 20:30:00 11.6 C 7.69 g/m*3 11.6 C 3.2 km/h
3128 02-05-2020 20:35:00 11.5 C 7.85 g/m*3 11.5 C 1.6 km/h
3129 02-05-2020 20:40:00 11.2 C 7.8 g/m*3 11.2 C 0 km/h
3130 02-05-2020 20:45:00 10.8 C 7.81 g/m*3 10.8 C 3.2 km/h
3131 02-05-2020 20:50:00 10.4 C 7.71 g/m*3 10.4 C 4.8 km/h
3132 02-05-2020 20:55:00 10 C 7.71 g/m*3 10 C 4.8 km/h
3133 02-05-2020 21:00:00 9.7 C 7.65 g/m*3 9.7 C 4.8 km/h
3134 02-05-2020 21:05:00 9.4 C 7.6 g/m*3 8.68 C 6.4 km/h
3135 02-05-2020 21:10:00 9.2 C 7.5 g/m*3 8.05 C 8.1 km/h
3136 02-05-2020 21:15:00 8.9 C 7.45 g/m*3 8.1 C 6.4 km/h
3137 02-05-2020 21:20:00 8.8 C 7.4 g/m*3 7.58 C 8.1 km/h
3138 02-05-2020 21:25:00 8.7 C 7.35 g/m*3 7.46 C 8.1 km/h
3139 02-05-2020 21:30:00 8.6 C 7.39 g/m*3 7.34 C 8.1 km/h
3140 02-05-2020 21:35:00 8.4 C 7.3 g/m*3 7.52 C 6.4 km/h
3141 02-05-2020 21:40:00 8.3 C 7.33 g/m*3 7.41 C 6.4 km/h
3142 02-05-2020 21:45:00 8.3 C 7.33 g/m*3 7.41 C 6.4 km/h
3143 02-05-2020 21:50:00 8.2 C 7.37 g/m*3 8.2 C 4.8 km/h
3144 02-05-2020 21:55:00 8.1 C 7.32 g/m*3 8.1 C 3.2 km/h
3145 02-05-2020 22:00:00 8 C 7.28 g/m*3 8 C 1.6 km/h
3146 02-05-2020 22:05:00 7.9 C 7.31 g/m*3 7.9 C 0 km/h
3147 02-05-2020 22:10:00 7.8 C 7.26 g/m*3 7.8 C 3.2 km/h
3148 02-05-2020 22:15:00 7.7 C 7.22 g/m*3 7.7 C 3.2 km/h
3149 02-05-2020 22:20:00 7.6 C 7.17 g/m*3 7.6 C 1.6 km/h
3150 02-05-2020 22:25:00 7.4 C 7.16 g/m*3 7.4 C 0 km/h
Sensor: Nr:Datum:Temp:Abs-Feuchte:Windchill:Wind:
Aussen-T/F 3151 02-05-2020 22:30:00 7.3 C 7.11 g/m*3 7.3 C 0 km/h
3152 02-05-2020 22:35:00 7.2 C 7.06 g/m*3 7.2 C 1.6 km/h
3153 02-05-2020 22:40:00 7.2 C 7.06 g/m*3 7.2 C 3.2 km/h
3154 02-05-2020 22:45:00 7.1 C 7.1 g/m*3 7.1 C 3.2 km/h
3155 02-05-2020 22:50:00 7 C 7.05 g/m*3 7 C 1.6 km/h
3156 02-05-2020 22:55:00 7 C 7.05 g/m*3 7 C 3.2 km/h
3157 02-05-2020 23:00:00 7 C 7.05 g/m*3 7 C 3.2 km/h
3158 02-05-2020 23:05:00 6.9 C 7.08 g/m*3 6.9 C 3.2 km/h
3159 02-05-2020 23:10:00 6.9 C 7.08 g/m*3 6.9 C 1.6 km/h
3160 02-05-2020 23:15:00 6.9 C 7.08 g/m*3 6.9 C 3.2 km/h
3161 02-05-2020 23:20:00 6.9 C 7.08 g/m*3 5.79 C 6.4 km/h
3162 02-05-2020 23:25:00 6.9 C 7.08 g/m*3 6.9 C 4.8 km/h
3163 02-05-2020 23:30:00 6.9 C 7.08 g/m*3 6.9 C 4.8 km/h
3164 02-05-2020 23:35:00 6.9 C 7.08 g/m*3 6.9 C 4.8 km/h
3165 02-05-2020 23:40:00 6.9 C 7.08 g/m*3 6.9 C 3.2 km/h
3166 02-05-2020 23:45:00 6.8 C 7.04 g/m*3 6.8 C 1.6 km/h
3167 02-05-2020 23:50:00 6.8 C 7.04 g/m*3 6.8 C 3.2 km/h
3168 02-05-2020 23:55:00 6.7 C 6.99 g/m*3 6.7 C 0 km/h
3169 03-05-2020 00:00:00 6.7 C 6.99 g/m*3 5.56 C 6.4 km/h
3170 03-05-2020 00:05:00 6.6 C 6.95 g/m*3 6.6 C 3.2 km/h
3171 03-05-2020 00:10:00 6.6 C 6.95 g/m*3 6.6 C 3.2 km/h
3172 03-05-2020 00:15:00 6.5 C 6.9 g/m*3 6.5 C 3.2 km/h
3173 03-05-2020 00:20:00 6.4 C 6.93 g/m*3 6.4 C 1.6 km/h
3174 03-05-2020 00:25:00 6.4 C 6.93 g/m*3 6.4 C 1.6 km/h
3175 03-05-2020 00:30:00 6.4 C 6.93 g/m*3 6.4 C 4.8 km/h
Sensor: Nr:Datum:Temp:Abs-Feuchte:Windchill:Wind:
Aussen-T/F 3176 03-05-2020 00:35:00 6.3 C 6.88 g/m*3 6.3 C 1.6 km/h
3177 03-05-2020 00:40:00 6.2 C 6.84 g/m*3 6.2 C 3.2 km/h
3178 03-05-2020 00:45:00 6.2 C 6.84 g/m*3 6.2 C 0 km/h
3179 03-05-2020 00:50:00 6.1 C 6.79 g/m*3 6.1 C 0 km/h
3180 03-05-2020 00:55:00 6.1 C 6.79 g/m*3 6.1 C 3.2 km/h
3181 03-05-2020 01:00:00 6 C 6.75 g/m*3 6 C 0 km/h
3182 03-05-2020 01:05:00 5.9 C 6.71 g/m*3 5.9 C 0 km/h
3183 03-05-2020 01:10:00 5.8 C 6.66 g/m*3 5.8 C 1.6 km/h
3184 03-05-2020 01:15:00 5.8 C 6.66 g/m*3 5.8 C 1.6 km/h
3185 03-05-2020 01:20:00 5.7 C 6.62 g/m*3 5.7 C 1.6 km/h
3186 03-05-2020 01:25:00 5.7 C 6.62 g/m*3 5.7 C 1.6 km/h
3187 03-05-2020 01:30:00 5.6 C 6.57 g/m*3 5.6 C 0 km/h
3188 03-05-2020 01:35:00 5.5 C 6.53 g/m*3 5.5 C 0 km/h
3189 03-05-2020 01:40:00 5.4 C 6.49 g/m*3 5.4 C 0 km/h
3190 03-05-2020 01:45:00 5.3 C 6.52 g/m*3 5.3 C 1.6 km/h
3191 03-05-2020 01:50:00 5.3 C 6.52 g/m*3 5.3 C 1.6 km/h
3192 03-05-2020 01:55:00 5.3 C 6.52 g/m*3 5.3 C 0 km/h
3193 03-05-2020 02:00:00 5.3 C 6.52 g/m*3 5.3 C 1.6 km/h
3194 03-05-2020 02:05:00 5.3 C 6.52 g/m*3 5.3 C 0 km/h
3195 03-05-2020 02:10:00 5.3 C 6.52 g/m*3 5.3 C 4.8 km/h
3196 03-05-2020 02:15:00 5.4 C 6.56 g/m*3 5.4 C 3.2 km/h
3197 03-05-2020 02:20:00 5.4 C 6.56 g/m*3 5.4 C 3.2 km/h
3198 03-05-2020 02:25:00 5.4 C 6.56 g/m*3 5.4 C 0 km/h
3199 03-05-2020 02:30:00 5.3 C 6.52 g/m*3 5.3 C 0 km/h
3200 03-05-2020 02:35:00 5.3 C 6.52 g/m*3 5.3 C 1.6 km/h
Sensor: Nr:Datum:Temp:Abs-Feuchte:Windchill:Wind:
Aussen-T/F 3201 03-05-2020 02:40:00 5.2 C 6.47 g/m*3 5.2 C 0 km/h
3202 03-05-2020 02:45:00 5.2 C 6.47 g/m*3 5.2 C 1.6 km/h
3203 03-05-2020 02:50:00 5.1 C 6.43 g/m*3 5.1 C 1.6 km/h
3204 03-05-2020 02:55:00 5 C 6.39 g/m*3 5 C 0 km/h
3205 03-05-2020 03:00:00 4.9 C 6.35 g/m*3 4.9 C 1.6 km/h
3206 03-05-2020 03:05:00 4.9 C 6.35 g/m*3 4.9 C 1.6 km/h
3207 03-05-2020 03:10:00 4.8 C 6.3 g/m*3 4.8 C 0 km/h
3208 03-05-2020 03:15:00 4.8 C 6.3 g/m*3 4.8 C 1.6 km/h
3209 03-05-2020 03:20:00 4.8 C 6.37 g/m*3 4.8 C 3.2 km/h
3210 03-05-2020 03:25:00 4.8 C 6.37 g/m*3 4.8 C 3.2 km/h
3211 03-05-2020 03:30:00 4.8 C 6.37 g/m*3 4.8 C 0 km/h
3212 03-05-2020 03:35:00 4.8 C 6.37 g/m*3 3.36 C 6.4 km/h
3213 03-05-2020 03:40:00 4.8 C 6.37 g/m*3 4.8 C 1.6 km/h
3214 03-05-2020 03:45:00 4.8 C 6.37 g/m*3 4.8 C 3.2 km/h
3215 03-05-2020 03:50:00 4.8 C 6.37 g/m*3 4.8 C 3.2 km/h
3216 03-05-2020 03:55:00 4.8 C 6.37 g/m*3 4.8 C 0 km/h
3217 03-05-2020 04:00:00 4.8 C 6.37 g/m*3 4.8 C 3.2 km/h
3218 03-05-2020 04:05:00 4.8 C 6.37 g/m*3 4.8 C